Darstellungsparameter: Aktuell verwendete Einstellungen:
Skalierung der Graphiken ... ?
xyx+y,   Skalierungsfaktor:      Skalierung: Modus: x, Faktor: 1
Darstellungszeitraum ... ?
Vom - - bis: - -   Zeitraum: 29.03.2020 - 28.09.2020
Min/Max/Avg-Anzeige ... ?
Zeige MMA aktuell
Zeige MMA Monat
Zeige MMA alles
Zeige --A aktuell
Zeige --A Monat
Zeige --A alles
Keine MMA-Anzeige
MMA:
Average (ber die Originaldaten)
MMA-Basis: 29.03.2020 - 28.09.2020
Quicknavigation für Darstellung... ?
Tage:      1T, 2T, 3T, 5T -1T -2T -3T -5T +1T +2T +3T +5T
Wochen: 1W, 2W, 3W -1W -2W -3W +1W +2W +3W
Monate: 1M, 3M, 6M -1M -3M -6M +1M +3M +6M
Jahre:    1J, 3J, 5J, 10J -1J -3J -5J -10J +1J +3J +5J +10J
Nutze für die Darstellung ... ?
Originaldaten oder Mittelwerte auf ...
Stundenbasis Tagesbasis Wochenbasis
Monatsbasis Jahresbasis      Datenbasis: Original-Daten
Darstellen als:
Statistik (Auto) Statistik J:M      Darstellung:
Zur Graphik,    zurück zur Übersicht aller Sensoren.
 
Tabellarische Datenbersicht: ?
 
Sensor: Nr:Datum:Temp:Abs-Feuchte:Windchill:Wind:
Aussen-T/F 1 29-03-2020 00:00:00 7.4 C 5.81 g/m*3 5.58 C 9.7 km/h
2 29-03-2020 00:05:00 7.3 C 5.85 g/m*3 7.3 C 4.8 km/h
3 29-03-2020 00:10:00 7.2 C 5.81 g/m*3 5.35 C 9.7 km/h
4 29-03-2020 00:15:00 7.2 C 5.81 g/m*3 5.69 C 8.1 km/h
5 29-03-2020 00:20:00 7.1 C 5.77 g/m*3 6.02 C 6.4 km/h
6 29-03-2020 00:25:00 7.1 C 5.77 g/m*3 5.23 C 9.7 km/h
7 29-03-2020 00:30:00 7.1 C 5.77 g/m*3 5.23 C 9.7 km/h
8 29-03-2020 00:35:00 7.1 C 5.77 g/m*3 3.98 C 17.7 km/h
9 29-03-2020 00:40:00 7.1 C 5.77 g/m*3 6.02 C 6.4 km/h
10 29-03-2020 00:45:00 7.1 C 5.77 g/m*3 4.92 C 11.3 km/h
11 29-03-2020 00:50:00 7 C 5.66 g/m*3 5.11 C 9.7 km/h
12 29-03-2020 00:55:00 7 C 5.66 g/m*3 4.8 C 11.3 km/h
13 29-03-2020 01:00:00 6.9 C 5.62 g/m*3 4.68 C 11.3 km/h
14 29-03-2020 01:05:00 6.8 C 5.58 g/m*3 3.82 C 16.1 km/h
15 29-03-2020 01:10:00 6.8 C 5.58 g/m*3 4.29 C 12.9 km/h
16 29-03-2020 01:15:00 6.7 C 5.55 g/m*3 3.69 C 16.1 km/h
17 29-03-2020 01:20:00 6.7 C 5.55 g/m*3 4.17 C 12.9 km/h
18 29-03-2020 01:25:00 6.6 C 5.44 g/m*3 3.36 C 17.7 km/h
19 29-03-2020 01:30:00 6.6 C 5.44 g/m*3 4.63 C 9.7 km/h
20 29-03-2020 01:35:00 6.5 C 5.4 g/m*3 4.2 C 11.3 km/h
21 29-03-2020 01:40:00 6.4 C 5.36 g/m*3 3.8 C 12.9 km/h
22 29-03-2020 01:45:00 6.4 C 5.29 g/m*3 3.11 C 17.7 km/h
23 29-03-2020 01:50:00 6.4 C 5.29 g/m*3 4.39 C 9.7 km/h
24 29-03-2020 01:55:00 6.3 C 5.18 g/m*3 3.96 C 11.3 km/h
25 29-03-2020 02:00:00 6.3 C 5.18 g/m*3 3.43 C 14.5 km/h
Sensor: Nr:Datum:Temp:Abs-Feuchte:Windchill:Wind:
Aussen-T/F 26 29-03-2020 02:05:00 6.2 C 5.15 g/m*3 2.86 C 17.7 km/h
27 29-03-2020 02:10:00 6.2 C 5.07 g/m*3 3.84 C 11.3 km/h
28 29-03-2020 02:15:00 6.1 C 5.11 g/m*3 3.43 C 12.9 km/h
29 29-03-2020 02:20:00 5.9 C 5.05 g/m*3 3.19 C 12.9 km/h
30 29-03-2020 02:25:00 5.8 C 5.01 g/m*3 2.16 C 19.3 km/h
31 29-03-2020 02:30:00 5.7 C 5.05 g/m*3 2.03 C 19.3 km/h
32 29-03-2020 02:35:00 5.6 C 5.02 g/m*3 2.57 C 14.5 km/h
33 29-03-2020 02:40:00 5.4 C 5.02 g/m*3 3.58 C 8.1 km/h
34 29-03-2020 02:45:00 5.3 C 4.99 g/m*3 3.46 C 8.1 km/h
35 29-03-2020 02:50:00 5.2 C 4.89 g/m*3 2.63 C 11.3 km/h
36 29-03-2020 02:55:00 5.2 C 4.82 g/m*3 2.07 C 14.5 km/h
37 29-03-2020 04:00:00 5.2 C 4.82 g/m*3 2.63 C 11.3 km/h
38 29-03-2020 04:05:00 5.1 C 4.79 g/m*3 2.51 C 11.3 km/h
39 29-03-2020 04:10:00 5 C 4.76 g/m*3 2.39 C 11.3 km/h
40 29-03-2020 04:15:00 4.9 C 4.66 g/m*3 1.97 C 12.9 km/h
41 29-03-2020 04:20:00 4.8 C 4.63 g/m*3 1.34 C 16.1 km/h
42 29-03-2020 04:25:00 4.8 C 4.63 g/m*3 2.49 C 9.7 km/h
43 29-03-2020 04:30:00 4.8 C 4.63 g/m*3 1.85 C 12.9 km/h
44 29-03-2020 04:35:00 4.8 C 4.69 g/m*3 1.58 C 14.5 km/h
45 29-03-2020 04:40:00 4.8 C 4.69 g/m*3 4.8 C 4.8 km/h
46 29-03-2020 04:45:00 4.8 C 4.69 g/m*3 4.8 C 3.2 km/h
47 29-03-2020 04:50:00 4.8 C 4.76 g/m*3 2.87 C 8.1 km/h
48 29-03-2020 04:55:00 4.8 C 4.76 g/m*3 3.36 C 6.4 km/h
49 29-03-2020 05:00:00 4.8 C 4.83 g/m*3 2.15 C 11.3 km/h
50 29-03-2020 05:05:00 4.8 C 4.83 g/m*3 2.49 C 9.7 km/h
Sensor: Nr:Datum:Temp:Abs-Feuchte:Windchill:Wind:
Aussen-T/F 51 29-03-2020 05:10:00 4.8 C 4.9 g/m*3 2.49 C 9.7 km/h
52 29-03-2020 05:15:00 4.8 C 4.83 g/m*3 1.34 C 16.1 km/h
53 29-03-2020 05:20:00 4.7 C 4.73 g/m*3 0.99 C 17.7 km/h
54 29-03-2020 05:25:00 4.7 C 4.73 g/m*3 0.99 C 17.7 km/h
55 29-03-2020 05:30:00 4.6 C 4.63 g/m*3 0.65 C 19.3 km/h
56 29-03-2020 05:35:00 4.5 C 4.6 g/m*3 1.79 C 11.3 km/h
57 29-03-2020 05:40:00 4.4 C 4.57 g/m*3 1.09 C 14.5 km/h
58 29-03-2020 05:45:00 4.3 C 4.48 g/m*3 0.97 C 14.5 km/h
59 29-03-2020 05:50:00 4.3 C 4.54 g/m*3 1.55 C 11.3 km/h
60 29-03-2020 05:55:00 4.2 C 4.51 g/m*3 2.17 C 8.1 km/h
61 29-03-2020 06:00:00 4.1 C 4.48 g/m*3 2.05 C 8.1 km/h
62 29-03-2020 06:05:00 4 C 4.45 g/m*3 1.93 C 8.1 km/h
63 29-03-2020 06:10:00 3.9 C 4.42 g/m*3 1.06 C 11.3 km/h
64 29-03-2020 06:15:00 3.8 C 4.39 g/m*3 3.8 C 4.8 km/h
65 29-03-2020 06:20:00 3.8 C 4.45 g/m*3 3.8 C 4.8 km/h
66 29-03-2020 06:25:00 3.7 C 4.42 g/m*3 3.7 C 3.2 km/h
67 29-03-2020 06:30:00 3.7 C 4.49 g/m*3 3.7 C 1.6 km/h
68 29-03-2020 06:35:00 3.7 C 4.49 g/m*3 3.7 C 4.8 km/h
69 29-03-2020 06:40:00 3.7 C 4.55 g/m*3 3.7 C 1.6 km/h
70 29-03-2020 06:45:00 3.7 C 4.55 g/m*3 2.09 C 6.4 km/h
71 29-03-2020 06:50:00 3.7 C 4.61 g/m*3 3.7 C 3.2 km/h
72 29-03-2020 06:55:00 3.8 C 4.71 g/m*3 1.29 C 9.7 km/h
73 29-03-2020 07:00:00 3.8 C 4.71 g/m*3 2.21 C 6.4 km/h
74 29-03-2020 07:05:00 3.9 C 4.8 g/m*3 1.06 C 11.3 km/h
75 29-03-2020 07:10:00 3.9 C 4.8 g/m*3 1.82 C 8.1 km/h
Sensor: Nr:Datum:Temp:Abs-Feuchte:Windchill:Wind:
Aussen-T/F 76 29-03-2020 07:15:00 4 C 4.9 g/m*3 2.44 C 6.4 km/h
77 29-03-2020 07:20:00 4 C 4.9 g/m*3 2.44 C 6.4 km/h
78 29-03-2020 07:25:00 4 C 4.9 g/m*3 2.44 C 6.4 km/h
79 29-03-2020 07:30:00 4.1 C 4.93 g/m*3 1.31 C 11.3 km/h
80 29-03-2020 07:35:00 4.1 C 4.93 g/m*3 1.65 C 9.7 km/h
81 29-03-2020 07:40:00 4.1 C 4.93 g/m*3 1.31 C 11.3 km/h
82 29-03-2020 07:45:00 4.2 C 4.96 g/m*3 1.43 C 11.3 km/h
83 29-03-2020 07:50:00 4.2 C 4.96 g/m*3 1.77 C 9.7 km/h
84 29-03-2020 07:55:00 4.2 C 4.96 g/m*3 1.77 C 9.7 km/h
85 29-03-2020 08:00:00 4.2 C 4.96 g/m*3 1.12 C 12.9 km/h
86 29-03-2020 08:05:00 4.2 C 4.96 g/m*3 1.43 C 11.3 km/h
87 29-03-2020 08:10:00 4.2 C 4.96 g/m*3 2.17 C 8.1 km/h
88 29-03-2020 08:15:00 4.3 C 4.99 g/m*3 2.78 C 6.4 km/h
89 29-03-2020 08:20:00 4.3 C 4.99 g/m*3 1.89 C 9.7 km/h
90 29-03-2020 08:25:00 4.3 C 4.99 g/m*3 1.24 C 12.9 km/h
91 29-03-2020 08:30:00 4.4 C 4.96 g/m*3 1.67 C 11.3 km/h
92 29-03-2020 08:35:00 4.4 C 4.96 g/m*3 1.67 C 11.3 km/h
93 29-03-2020 08:40:00 4.5 C 5 g/m*3 1.21 C 14.5 km/h
94 29-03-2020 08:45:00 4.6 C 4.96 g/m*3 1.61 C 12.9 km/h
95 29-03-2020 08:50:00 4.5 C 4.93 g/m*3 0.74 C 17.7 km/h
96 29-03-2020 08:55:00 4.5 C 4.93 g/m*3 1.21 C 14.5 km/h
97 29-03-2020 09:00:00 4.5 C 5 g/m*3 0.96 C 16.1 km/h
98 29-03-2020 09:05:00 4.5 C 4.93 g/m*3 0.96 C 16.1 km/h
99 29-03-2020 09:10:00 4.5 C 4.93 g/m*3 0.96 C 16.1 km/h
100 29-03-2020 09:15:00 4.5 C 4.93 g/m*3 0.74 C 17.7 km/h
Sensor: Nr:Datum:Temp:Abs-Feuchte:Windchill:Wind:
Aussen-T/F 101 29-03-2020 09:20:00 4.5 C 4.93 g/m*3 0.96 C 16.1 km/h
102 29-03-2020 09:25:00 4.5 C 4.93 g/m*3 1.48 C 12.9 km/h
103 29-03-2020 09:30:00 4.6 C 4.96 g/m*3 0.86 C 17.7 km/h
104 29-03-2020 09:35:00 4.7 C 5 g/m*3 2.37 C 9.7 km/h
105 29-03-2020 09:40:00 4.7 C 4.93 g/m*3 2.03 C 11.3 km/h
106 29-03-2020 09:45:00 4.8 C 4.96 g/m*3 1.58 C 14.5 km/h
107 29-03-2020 09:50:00 4.9 C 4.93 g/m*3 1.46 C 16.1 km/h
108 29-03-2020 09:55:00 5 C 4.96 g/m*3 1.83 C 14.5 km/h
109 29-03-2020 10:00:00 5.1 C 4.99 g/m*3 1.28 C 19.3 km/h
110 29-03-2020 10:05:00 5.2 C 5.03 g/m*3 2.34 C 12.9 km/h
111 29-03-2020 10:10:00 5.3 C 4.99 g/m*3 1.74 C 17.7 km/h
112 29-03-2020 10:15:00 5.3 C 4.99 g/m*3 1.53 C 19.3 km/h
113 29-03-2020 10:20:00 5.4 C 4.95 g/m*3 1.66 C 19.3 km/h
114 29-03-2020 10:25:00 5.6 C 4.95 g/m*3 1.91 C 19.3 km/h
115 29-03-2020 10:30:00 5.6 C 4.95 g/m*3 2.33 C 16.1 km/h
116 29-03-2020 10:35:00 5.8 C 4.94 g/m*3 2.58 C 16.1 km/h
117 29-03-2020 10:40:00 6 C 5.01 g/m*3 2.61 C 17.7 km/h
118 29-03-2020 10:45:00 6.1 C 4.82 g/m*3 2.18 C 22.5 km/h
119 29-03-2020 10:50:00 6.1 C 4.75 g/m*3 2.18 C 22.5 km/h
120 29-03-2020 10:55:00 6.2 C 4.85 g/m*3 3.07 C 16.1 km/h
121 29-03-2020 11:00:00 6.4 C 4.62 g/m*3 2.91 C 19.3 km/h
122 29-03-2020 11:05:00 6.5 C 4.57 g/m*3 3.23 C 17.7 km/h
123 29-03-2020 11:10:00 6.6 C 4.53 g/m*3 2.82 C 22.5 km/h
124 29-03-2020 11:15:00 6.5 C 4.57 g/m*3 3.04 C 19.3 km/h
125 29-03-2020 11:20:00 6.4 C 4.55 g/m*3 1.58 C 33.8 km/h
Sensor: Nr:Datum:Temp:Abs-Feuchte:Windchill:Wind:
Aussen-T/F 126 29-03-2020 11:25:00 6.4 C 4.47 g/m*3 1.58 C 33.8 km/h
127 29-03-2020 11:30:00 6.3 C 4.44 g/m*3 2.27 C 24.1 km/h
128 29-03-2020 11:35:00 6.4 C 4.55 g/m*3 2.91 C 19.3 km/h
129 29-03-2020 11:40:00 6.4 C 4.55 g/m*3 2.91 C 19.3 km/h
130 29-03-2020 11:45:00 6.5 C 4.57 g/m*3 3.44 C 16.1 km/h
131 29-03-2020 11:50:00 6.4 C 4.62 g/m*3 3.11 C 17.7 km/h
132 29-03-2020 11:55:00 6.5 C 4.65 g/m*3 3.23 C 17.7 km/h
133 29-03-2020 12:00:00 6.4 C 4.55 g/m*3 3.11 C 17.7 km/h
134 29-03-2020 12:05:00 6.3 C 4.74 g/m*3 2.79 C 19.3 km/h
135 29-03-2020 12:10:00 6.1 C 4.82 g/m*3 2.18 C 22.5 km/h
136 29-03-2020 12:15:00 5.9 C 4.69 g/m*3 1.76 C 24.1 km/h
137 29-03-2020 12:20:00 5.9 C 4.69 g/m*3 1.61 C 25.7 km/h
138 29-03-2020 12:25:00 5.9 C 4.76 g/m*3 1.76 C 24.1 km/h
139 29-03-2020 12:30:00 5.9 C 4.69 g/m*3 2.48 C 17.7 km/h
140 29-03-2020 12:35:00 5.9 C 4.76 g/m*3 2.48 C 17.7 km/h
141 29-03-2020 12:40:00 5.9 C 4.69 g/m*3 2.93 C 14.5 km/h
142 29-03-2020 12:45:00 6 C 4.72 g/m*3 3.31 C 12.9 km/h
143 29-03-2020 12:50:00 6.1 C 4.68 g/m*3 2.95 C 16.1 km/h
144 29-03-2020 12:55:00 6.2 C 4.63 g/m*3 2.31 C 22.5 km/h
145 29-03-2020 13:00:00 6.3 C 4.59 g/m*3 2.79 C 19.3 km/h
146 29-03-2020 13:05:00 6.3 C 4.52 g/m*3 2.79 C 19.3 km/h
147 29-03-2020 13:10:00 6.3 C 4.44 g/m*3 2.43 C 22.5 km/h
148 29-03-2020 13:15:00 6.3 C 4.37 g/m*3 2.12 C 25.7 km/h
149 29-03-2020 13:20:00 6.4 C 4.4 g/m*3 2.73 C 20.9 km/h
150 29-03-2020 13:25:00 6.5 C 4.35 g/m*3 2.86 C 20.9 km/h
Sensor: Nr:Datum:Temp:Abs-Feuchte:Windchill:Wind:
Aussen-T/F 151 29-03-2020 13:30:00 6.6 C 4.3 g/m*3 3.57 C 16.1 km/h
152 29-03-2020 13:35:00 6.7 C 4.26 g/m*3 3.48 C 17.7 km/h
153 29-03-2020 13:40:00 6.8 C 4.28 g/m*3 4.29 C 12.9 km/h
154 29-03-2020 13:45:00 7.1 C 4.21 g/m*3 4.65 C 12.9 km/h
155 29-03-2020 13:50:00 7.3 C 4.35 g/m*3 4.23 C 17.7 km/h
156 29-03-2020 13:55:00 7.6 C 4.27 g/m*3 5.02 C 14.5 km/h
157 29-03-2020 14:00:00 7.5 C 4.24 g/m*3 5.14 C 12.9 km/h
158 29-03-2020 14:05:00 7.3 C 4.19 g/m*3 4.44 C 16.1 km/h
159 29-03-2020 14:10:00 7.3 C 4.19 g/m*3 4.05 C 19.3 km/h
160 29-03-2020 14:15:00 7.3 C 4.19 g/m*3 4.05 C 19.3 km/h
161 29-03-2020 14:20:00 7.2 C 4.4 g/m*3 3.92 C 19.3 km/h
162 29-03-2020 14:25:00 6.8 C 4.44 g/m*3 3.24 C 20.9 km/h
163 29-03-2020 14:30:00 6.6 C 4.45 g/m*3 2.99 C 20.9 km/h
164 29-03-2020 14:35:00 6.6 C 4.45 g/m*3 3.79 C 14.5 km/h
165 29-03-2020 14:40:00 6.5 C 4.42 g/m*3 3.67 C 14.5 km/h
166 29-03-2020 14:45:00 6.5 C 4.42 g/m*3 3.23 C 17.7 km/h
167 29-03-2020 14:50:00 6.6 C 4.53 g/m*3 3.79 C 14.5 km/h
168 29-03-2020 14:55:00 6.6 C 4.53 g/m*3 2.82 C 22.5 km/h
169 29-03-2020 15:00:00 6.7 C 4.64 g/m*3 3.69 C 16.1 km/h
170 29-03-2020 15:05:00 6.8 C 4.67 g/m*3 3.42 C 19.3 km/h
171 29-03-2020 15:10:00 6.9 C 4.39 g/m*3 3.2 C 22.5 km/h
172 29-03-2020 15:15:00 6.9 C 4.31 g/m*3 3.73 C 17.7 km/h
173 29-03-2020 15:20:00 7 C 4.34 g/m*3 3.67 C 19.3 km/h
174 29-03-2020 15:25:00 7.1 C 4.37 g/m*3 4.41 C 14.5 km/h
175 29-03-2020 15:30:00 7.2 C 4.4 g/m*3 3.92 C 19.3 km/h
Sensor: Nr:Datum:Temp:Abs-Feuchte:Windchill:Wind:
Aussen-T/F 176 29-03-2020 15:35:00 7.3 C 4.5 g/m*3 4.05 C 19.3 km/h
177 29-03-2020 15:40:00 7.4 C 4.45 g/m*3 4.17 C 19.3 km/h
178 29-03-2020 15:45:00 7.3 C 4.58 g/m*3 4.44 C 16.1 km/h
179 29-03-2020 15:50:00 7.3 C 4.58 g/m*3 4.66 C 14.5 km/h
180 29-03-2020 15:55:00 7.3 C 4.5 g/m*3 4.9 C 12.9 km/h
181 29-03-2020 16:00:00 7.3 C 4.5 g/m*3 4.05 C 19.3 km/h
182 29-03-2020 16:05:00 7.2 C 4.4 g/m*3 4.11 C 17.7 km/h
183 29-03-2020 16:10:00 7.2 C 4.32 g/m*3 5.04 C 11.3 km/h
184 29-03-2020 16:15:00 7 C 4.26 g/m*3 3.67 C 19.3 km/h
185 29-03-2020 16:20:00 6.9 C 4.23 g/m*3 3.94 C 16.1 km/h
186 29-03-2020 16:25:00 6.8 C 4.21 g/m*3 3.61 C 17.7 km/h
187 29-03-2020 16:30:00 6.8 C 4.44 g/m*3 3.42 C 19.3 km/h
188 29-03-2020 16:35:00 6.7 C 4.48 g/m*3 3.69 C 16.1 km/h
189 29-03-2020 16:40:00 6.7 C 4.56 g/m*3 4.17 C 12.9 km/h
190 29-03-2020 16:45:00 6.7 C 4.56 g/m*3 3.92 C 14.5 km/h
191 29-03-2020 16:50:00 6.8 C 4.44 g/m*3 3.24 C 20.9 km/h
192 29-03-2020 16:55:00 6.8 C 4.44 g/m*3 3.42 C 19.3 km/h
193 29-03-2020 17:00:00 6.8 C 4.51 g/m*3 4.29 C 12.9 km/h
194 29-03-2020 17:05:00 6.9 C 4.54 g/m*3 3.54 C 19.3 km/h
195 29-03-2020 17:10:00 7.1 C 4.6 g/m*3 3.3 C 24.1 km/h
196 29-03-2020 17:15:00 6.9 C 4.54 g/m*3 3.37 C 20.9 km/h
197 29-03-2020 17:20:00 6.9 C 4.7 g/m*3 3.54 C 19.3 km/h
198 29-03-2020 17:25:00 6.9 C 4.85 g/m*3 3.73 C 17.7 km/h
199 29-03-2020 17:30:00 6.8 C 4.74 g/m*3 3.42 C 19.3 km/h
200 29-03-2020 17:35:00 6.9 C 4.85 g/m*3 3.54 C 19.3 km/h
Sensor: Nr:Datum:Temp:Abs-Feuchte:Windchill:Wind:
Aussen-T/F 201 29-03-2020 17:40:00 7 C 4.88 g/m*3 3.49 C 20.9 km/h
202 29-03-2020 17:45:00 6.9 C 4.85 g/m*3 3.73 C 17.7 km/h
203 29-03-2020 17:50:00 6.8 C 4.89 g/m*3 3.82 C 16.1 km/h
204 29-03-2020 17:55:00 6.8 C 4.97 g/m*3 3.82 C 16.1 km/h
205 29-03-2020 18:00:00 6.9 C 5 g/m*3 3.73 C 17.7 km/h
206 29-03-2020 18:05:00 7 C 5.04 g/m*3 4.06 C 16.1 km/h
207 29-03-2020 18:10:00 6.9 C 4.85 g/m*3 2.61 C 29 km/h
208 29-03-2020 18:15:00 6.7 C 4.79 g/m*3 3.29 C 19.3 km/h
209 29-03-2020 18:20:00 6.6 C 4.83 g/m*3 2.51 C 25.7 km/h
210 29-03-2020 18:25:00 6.4 C 4.84 g/m*3 2.4 C 24.1 km/h
211 29-03-2020 18:30:00 6.2 C 5 g/m*3 2.15 C 24.1 km/h
212 29-03-2020 18:35:00 5.8 C 5.16 g/m*3 1.63 C 24.1 km/h
213 29-03-2020 18:40:00 5.4 C 5.23 g/m*3 1.66 C 19.3 km/h
214 29-03-2020 18:45:00 5.1 C 5.34 g/m*3 1.95 C 14.5 km/h
215 29-03-2020 18:50:00 4.9 C 5.33 g/m*3 2.61 C 9.7 km/h
216 29-03-2020 18:55:00 4.9 C 5.33 g/m*3 0.83 C 20.9 km/h
217 29-03-2020 19:00:00 4.9 C 5.33 g/m*3 0.48 C 24.1 km/h
218 29-03-2020 19:05:00 4.8 C 5.36 g/m*3 0.52 C 22.5 km/h
219 29-03-2020 19:10:00 4.6 C 5.43 g/m*3 0.86 C 17.7 km/h
220 29-03-2020 19:15:00 4.4 C 5.42 g/m*3 1.09 C 14.5 km/h
221 29-03-2020 19:20:00 4.4 C 5.42 g/m*3 1.09 C 14.5 km/h
222 29-03-2020 19:25:00 4.3 C 5.45 g/m*3 0.97 C 14.5 km/h
223 29-03-2020 19:30:00 4.3 C 5.45 g/m*3 0.07 C 20.9 km/h
224 29-03-2020 19:35:00 4.3 C 5.51 g/m*3 0.97 C 14.5 km/h
225 29-03-2020 19:40:00 4.2 C 5.48 g/m*3 0.36 C 17.7 km/h
Sensor: Nr:Datum:Temp:Abs-Feuchte:Windchill:Wind:
Aussen-T/F 226 29-03-2020 19:45:00 4.1 C 5.44 g/m*3 -0.18 C 20.9 km/h
227 29-03-2020 19:50:00 4 C 5.47 g/m*3 0.6 C 14.5 km/h
228 29-03-2020 19:55:00 3.9 C 5.43 g/m*3 3.9 C 4.8 km/h
229 29-03-2020 20:00:00 3.9 C 5.43 g/m*3 2.32 C 6.4 km/h
230 29-03-2020 20:05:00 3.8 C 5.46 g/m*3 3.8 C 3.2 km/h
231 29-03-2020 20:10:00 3.8 C 5.46 g/m*3 2.21 C 6.4 km/h
232 29-03-2020 20:15:00 3.8 C 5.46 g/m*3 3.8 C 3.2 km/h
233 29-03-2020 20:20:00 3.8 C 5.46 g/m*3 3.8 C 3.2 km/h
234 29-03-2020 20:25:00 3.8 C 5.46 g/m*3 3.8 C 3.2 km/h
235 29-03-2020 20:30:00 3.8 C 5.46 g/m*3 3.8 C 1.6 km/h
236 29-03-2020 20:35:00 3.8 C 5.46 g/m*3 3.8 C 4.8 km/h
237 29-03-2020 20:40:00 3.9 C 5.43 g/m*3 3.9 C 4.8 km/h
238 29-03-2020 20:45:00 3.9 C 5.37 g/m*3 3.9 C 4.8 km/h
239 29-03-2020 20:50:00 4.1 C 5.38 g/m*3 2.05 C 8.1 km/h
240 29-03-2020 20:55:00 4.2 C 5.35 g/m*3 2.67 C 6.4 km/h
241 29-03-2020 21:00:00 4.2 C 5.28 g/m*3 2.67 C 6.4 km/h
242 29-03-2020 21:05:00 4.2 C 5.22 g/m*3 2.17 C 8.1 km/h
243 29-03-2020 21:10:00 4.3 C 5.19 g/m*3 1.89 C 9.7 km/h
244 29-03-2020 21:15:00 4.3 C 5.12 g/m*3 2.29 C 8.1 km/h
245 29-03-2020 21:20:00 4.3 C 5.06 g/m*3 1.55 C 11.3 km/h
246 29-03-2020 21:25:00 4.4 C 5.09 g/m*3 2.4 C 8.1 km/h
247 29-03-2020 21:30:00 4.4 C 5.03 g/m*3 2.01 C 9.7 km/h
248 29-03-2020 21:35:00 4.4 C 5.03 g/m*3 1.67 C 11.3 km/h
249 29-03-2020 21:40:00 4.4 C 4.96 g/m*3 1.09 C 14.5 km/h
250 29-03-2020 21:45:00 4.4 C 4.9 g/m*3 1.36 C 12.9 km/h
Sensor: Nr:Datum:Temp:Abs-Feuchte:Windchill:Wind:
Aussen-T/F 251 29-03-2020 21:50:00 4.4 C 4.9 g/m*3 1.67 C 11.3 km/h
252 29-03-2020 21:55:00 4.4 C 4.96 g/m*3 1.36 C 12.9 km/h
253 29-03-2020 22:00:00 4.4 C 4.9 g/m*3 1.36 C 12.9 km/h
254 29-03-2020 22:05:00 4.3 C 4.86 g/m*3 0.27 C 19.3 km/h
255 29-03-2020 22:10:00 4.3 C 4.86 g/m*3 0.07 C 20.9 km/h
256 29-03-2020 22:15:00 4.3 C 4.86 g/m*3 0.07 C 20.9 km/h
257 29-03-2020 22:20:00 4.3 C 4.8 g/m*3 1.24 C 12.9 km/h
258 29-03-2020 22:25:00 4.3 C 4.8 g/m*3 1.24 C 12.9 km/h
259 29-03-2020 22:30:00 4.3 C 4.74 g/m*3 0.97 C 14.5 km/h
260 29-03-2020 22:35:00 4.2 C 4.7 g/m*3 1.43 C 11.3 km/h
261 29-03-2020 22:40:00 4.2 C 4.7 g/m*3 0.59 C 16.1 km/h
262 29-03-2020 22:45:00 4.2 C 4.64 g/m*3 0.59 C 16.1 km/h
263 29-03-2020 22:50:00 4.2 C 4.7 g/m*3 0.59 C 16.1 km/h
264 29-03-2020 22:55:00 4.2 C 4.64 g/m*3 0.59 C 16.1 km/h
265 29-03-2020 23:00:00 4.2 C 4.57 g/m*3 0.36 C 17.7 km/h
266 29-03-2020 23:05:00 4.2 C 4.57 g/m*3 1.12 C 12.9 km/h
267 29-03-2020 23:10:00 4.2 C 4.57 g/m*3 1.12 C 12.9 km/h
268 29-03-2020 23:15:00 4.1 C 4.48 g/m*3 0.47 C 16.1 km/h
269 29-03-2020 23:20:00 4.1 C 4.42 g/m*3 0.72 C 14.5 km/h
270 29-03-2020 23:25:00 4.1 C 4.48 g/m*3 0.47 C 16.1 km/h
271 29-03-2020 23:30:00 4.1 C 4.42 g/m*3 0.72 C 14.5 km/h
272 29-03-2020 23:35:00 4 C 4.32 g/m*3 -0.5 C 22.5 km/h
273 29-03-2020 23:40:00 3.9 C 4.23 g/m*3 0.75 C 12.9 km/h
274 29-03-2020 23:45:00 3.9 C 4.23 g/m*3 -0.01 C 17.7 km/h
275 29-03-2020 23:50:00 3.8 C 4.2 g/m*3 0.63 C 12.9 km/h
Sensor: Nr:Datum:Temp:Abs-Feuchte:Windchill:Wind:
Aussen-T/F 276 29-03-2020 23:55:00 3.7 C 4.18 g/m*3 1.18 C 9.7 km/h
277 30-03-2020 00:00:00 3.6 C 4.15 g/m*3 0.7 C 11.3 km/h
278 30-03-2020 00:05:00 3.4 C 4.09 g/m*3 0.46 C 11.3 km/h
279 30-03-2020 00:10:00 3.3 C 4.06 g/m*3 1.11 C 8.1 km/h
280 30-03-2020 00:15:00 3.3 C 4 g/m*3 0.7 C 9.7 km/h
281 30-03-2020 00:20:00 3.3 C 4 g/m*3 0.7 C 9.7 km/h
282 30-03-2020 00:25:00 3.3 C 4.06 g/m*3 1.11 C 8.1 km/h
283 30-03-2020 00:30:00 3.1 C 4.07 g/m*3 3.1 C 4.8 km/h
284 30-03-2020 00:35:00 2.9 C 4.07 g/m*3 2.9 C 3.2 km/h
285 30-03-2020 00:40:00 2.7 C 4.08 g/m*3 0.94 C 6.4 km/h
286 30-03-2020 00:45:00 2.4 C 4 g/m*3 2.4 C 4.8 km/h
287 30-03-2020 00:50:00 2.2 C 4.06 g/m*3 2.2 C 3.2 km/h
288 30-03-2020 00:55:00 1.9 C 4.03 g/m*3 1.9 C 3.2 km/h
289 30-03-2020 01:00:00 1.7 C 4.03 g/m*3 1.7 C 3.2 km/h
290 30-03-2020 01:05:00 1.5 C 3.97 g/m*3 1.5 C 3.2 km/h
291 30-03-2020 01:10:00 1.4 C 3.95 g/m*3 1.4 C 4.8 km/h
292 30-03-2020 01:15:00 1.4 C 3.95 g/m*3 1.4 C 4.8 km/h
293 30-03-2020 01:20:00 1.4 C 3.89 g/m*3 1.4 C 3.2 km/h
294 30-03-2020 01:25:00 1.4 C 3.89 g/m*3 -0.56 C 6.4 km/h
295 30-03-2020 01:30:00 1.5 C 3.81 g/m*3 1.5 C 3.2 km/h
296 30-03-2020 01:35:00 1.4 C 3.89 g/m*3 1.4 C 4.8 km/h
297 30-03-2020 01:40:00 1.3 C 3.92 g/m*3 1.3 C 1.6 km/h
298 30-03-2020 01:45:00 1.1 C 3.92 g/m*3 1.1 C 1.6 km/h
299 30-03-2020 01:50:00 0.8 C 3.84 g/m*3 0.8 C 1.6 km/h
300 30-03-2020 01:55:00 0.6 C 3.84 g/m*3 0.6 C 3.2 km/h
Sensor: Nr:Datum:Temp:Abs-Feuchte:Windchill:Wind:
Aussen-T/F 301 30-03-2020 02:00:00 0.4 C 3.84 g/m*3 0.4 C 1.6 km/h
302 30-03-2020 02:05:00 0.3 C 3.76 g/m*3 -1.84 C 6.4 km/h
303 30-03-2020 02:10:00 0.3 C 3.81 g/m*3 0.3 C 0 km/h
304 30-03-2020 02:15:00 0.2 C 3.78 g/m*3 0.2 C 0 km/h
305 30-03-2020 02:20:00 -0.1 C 3.75 g/m*3 -0.1 C 1.6 km/h
306 30-03-2020 02:25:00 -0.3 C 3.7 g/m*3 -0.3 C 0 km/h
307 30-03-2020 02:30:00 -0.5 C 3.7 g/m*3 -0.5 C 0 km/h
308 30-03-2020 02:35:00 -0.7 C 3.69 g/m*3 -0.7 C 1.6 km/h
309 30-03-2020 02:40:00 -0.7 C 3.69 g/m*3 -0.7 C 1.6 km/h
310 30-03-2020 02:45:00 -0.8 C 3.71 g/m*3 -0.8 C 1.6 km/h
311 30-03-2020 02:50:00 -0.8 C 3.71 g/m*3 -0.8 C 0 km/h
312 30-03-2020 02:55:00 -0.9 C 3.69 g/m*3 -0.9 C 1.6 km/h
313 30-03-2020 03:00:00 -0.9 C 3.69 g/m*3 -0.9 C 3.2 km/h
314 30-03-2020 03:05:00 -1 C 3.62 g/m*3 -1 C 4.8 km/h
315 30-03-2020 03:10:00 -1 C 3.62 g/m*3 -1 C 3.2 km/h
316 30-03-2020 03:15:00 -1 C 3.66 g/m*3 -1 C 3.2 km/h
317 30-03-2020 03:20:00 -1.1 C 3.64 g/m*3 -1.1 C 3.2 km/h
318 30-03-2020 03:25:00 -1.1 C 3.64 g/m*3 -1.1 C 0 km/h
319 30-03-2020 03:30:00 -1.2 C 3.66 g/m*3 -1.2 C 1.6 km/h
320 30-03-2020 03:35:00 -1.3 C 3.63 g/m*3 -1.3 C 0 km/h
321 30-03-2020 03:40:00 -1.4 C 3.6 g/m*3 -1.4 C 3.2 km/h
322 30-03-2020 03:45:00 -1.4 C 3.6 g/m*3 -1.4 C 3.2 km/h
323 30-03-2020 03:50:00 -1.5 C 3.62 g/m*3 -1.5 C 3.2 km/h
324 30-03-2020 03:55:00 -1.6 C 3.6 g/m*3 -1.6 C 0 km/h
325 30-03-2020 04:00:00 -1.6 C 3.6 g/m*3 -1.6 C 3.2 km/h
Sensor: Nr:Datum:Temp:Abs-Feuchte:Windchill:Wind:
Aussen-T/F 326 30-03-2020 04:05:00 -1.6 C 3.6 g/m*3 -1.6 C 4.8 km/h
327 30-03-2020 04:10:00 -1.6 C 3.6 g/m*3 -1.6 C 0 km/h
328 30-03-2020 04:15:00 -1.6 C 3.64 g/m*3 -1.6 C 0 km/h
329 30-03-2020 04:20:00 -1.6 C 3.6 g/m*3 -1.6 C 1.6 km/h
330 30-03-2020 04:25:00 -1.7 C 3.57 g/m*3 -1.7 C 4.8 km/h
331 30-03-2020 04:30:00 -1.7 C 3.57 g/m*3 -1.7 C 0 km/h
332 30-03-2020 04:35:00 -1.8 C 3.55 g/m*3 -1.8 C 0 km/h
333 30-03-2020 04:40:00 -1.8 C 3.55 g/m*3 -1.8 C 0 km/h
334 30-03-2020 04:45:00 -1.9 C 3.52 g/m*3 -1.9 C 0 km/h
335 30-03-2020 04:50:00 -2 C 3.5 g/m*3 -2 C 3.2 km/h
336 30-03-2020 04:55:00 -2 C 3.5 g/m*3 -2 C 0 km/h
337 30-03-2020 05:00:00 -1.9 C 3.52 g/m*3 -1.9 C 3.2 km/h
338 30-03-2020 05:05:00 -1.8 C 3.51 g/m*3 -1.8 C 3.2 km/h
339 30-03-2020 05:10:00 -1.8 C 3.51 g/m*3 -1.8 C 1.6 km/h
340 30-03-2020 05:15:00 -1.8 C 3.46 g/m*3 -1.8 C 0 km/h
341 30-03-2020 05:20:00 -1.9 C 3.44 g/m*3 -1.9 C 1.6 km/h
342 30-03-2020 05:25:00 -1.9 C 3.44 g/m*3 -1.9 C 3.2 km/h
343 30-03-2020 05:30:00 -2 C 3.41 g/m*3 -2 C 0 km/h
344 30-03-2020 05:35:00 -2.1 C 3.39 g/m*3 -2.1 C 3.2 km/h
345 30-03-2020 05:40:00 -2.2 C 3.37 g/m*3 -2.2 C 0 km/h
346 30-03-2020 05:45:00 -2.3 C 3.38 g/m*3 -2.3 C 0 km/h
347 30-03-2020 05:50:00 -2.4 C 3.36 g/m*3 -2.4 C 0 km/h
348 30-03-2020 05:55:00 -2.5 C 3.34 g/m*3 -2.5 C 0 km/h
349 30-03-2020 06:00:00 -2.6 C 3.31 g/m*3 -2.6 C 0 km/h
350 30-03-2020 06:05:00 -2.7 C 3.29 g/m*3 -2.7 C 0 km/h
Sensor: Nr:Datum:Temp:Abs-Feuchte:Windchill:Wind:
Aussen-T/F 351 30-03-2020 06:10:00 -2.7 C 3.29 g/m*3 -2.7 C 0 km/h
352 30-03-2020 06:15:00 -2.8 C 3.31 g/m*3 -2.8 C 0 km/h
353 30-03-2020 06:20:00 -2.9 C 3.28 g/m*3 -2.9 C 0 km/h
354 30-03-2020 06:25:00 -3 C 3.3 g/m*3 -3 C 0 km/h
355 30-03-2020 06:30:00 -3 C 3.3 g/m*3 -3 C 0 km/h
356 30-03-2020 06:35:00 -3.1 C 3.28 g/m*3 -3.1 C 0 km/h
357 30-03-2020 06:40:00 -3.1 C 3.28 g/m*3 -5.76 C 6.4 km/h
358 30-03-2020 06:45:00 -3.1 C 3.28 g/m*3 -3.1 C 3.2 km/h
359 30-03-2020 06:50:00 -2.9 C 3.36 g/m*3 -2.9 C 1.6 km/h
360 30-03-2020 06:55:00 -2.9 C 3.36 g/m*3 -2.9 C 0 km/h
361 30-03-2020 07:00:00 -2.8 C 3.35 g/m*3 -2.8 C 0 km/h
362 30-03-2020 07:05:00 -2.9 C 3.32 g/m*3 -2.9 C 1.6 km/h
363 30-03-2020 07:10:00 -2.9 C 3.32 g/m*3 -2.9 C 1.6 km/h
364 30-03-2020 07:15:00 -2.9 C 3.32 g/m*3 -2.9 C 3.2 km/h
365 30-03-2020 07:20:00 -2.9 C 3.32 g/m*3 -2.9 C 1.6 km/h
366 30-03-2020 07:25:00 -2.9 C 3.28 g/m*3 -2.9 C 0 km/h
367 30-03-2020 07:30:00 -3 C 3.26 g/m*3 -3 C 0 km/h
368 30-03-2020 07:35:00 -3.1 C 3.24 g/m*3 -3.1 C 0 km/h
369 30-03-2020 07:40:00 -3.2 C 3.25 g/m*3 -3.2 C 0 km/h
370 30-03-2020 07:45:00 -3.3 C 3.23 g/m*3 -3.3 C 1.6 km/h
371 30-03-2020 07:50:00 -3.3 C 3.23 g/m*3 -3.3 C 0 km/h
372 30-03-2020 07:55:00 -3.4 C 3.21 g/m*3 -3.4 C 0 km/h
373 30-03-2020 08:00:00 -3.4 C 3.21 g/m*3 -3.4 C 0 km/h
374 30-03-2020 08:05:00 -3.4 C 3.25 g/m*3 -3.4 C 0 km/h
375 30-03-2020 08:10:00 -3.4 C 3.25 g/m*3 -3.4 C 0 km/h
Sensor: Nr:Datum:Temp:Abs-Feuchte:Windchill:Wind:
Aussen-T/F 376 30-03-2020 08:15:00 -3.3 C 3.27 g/m*3 -3.3 C 0 km/h
377 30-03-2020 08:20:00 -3.3 C 3.27 g/m*3 -3.3 C 0 km/h
378 30-03-2020 08:25:00 -3.3 C 3.27 g/m*3 -3.3 C 0 km/h
379 30-03-2020 08:30:00 -3.3 C 3.27 g/m*3 -3.3 C 1.6 km/h
380 30-03-2020 08:35:00 -3.2 C 3.29 g/m*3 -3.2 C 3.2 km/h
381 30-03-2020 08:40:00 -3.1 C 3.32 g/m*3 -3.1 C 0 km/h
382 30-03-2020 08:45:00 -3.1 C 3.32 g/m*3 -3.1 C 0 km/h
383 30-03-2020 08:50:00 -3 C 3.34 g/m*3 -3 C 0 km/h
384 30-03-2020 08:55:00 -2.9 C 3.32 g/m*3 -2.9 C 0 km/h
385 30-03-2020 09:00:00 -2.8 C 3.35 g/m*3 -2.8 C 0 km/h
386 30-03-2020 09:05:00 -2.7 C 3.33 g/m*3 -2.7 C 0 km/h
387 30-03-2020 09:10:00 -2.6 C 3.35 g/m*3 -2.6 C 1.6 km/h
388 30-03-2020 09:15:00 -2.5 C 3.34 g/m*3 -2.5 C 0 km/h
389 30-03-2020 09:20:00 -2.4 C 3.32 g/m*3 -2.4 C 3.2 km/h
390 30-03-2020 09:25:00 -2.3 C 3.34 g/m*3 -2.3 C 1.6 km/h
391 30-03-2020 09:30:00 -2.2 C 3.33 g/m*3 -2.2 C 1.6 km/h
392 30-03-2020 09:35:00 -2.1 C 3.35 g/m*3 -2.1 C 1.6 km/h
393 30-03-2020 09:40:00 -1.9 C 3.35 g/m*3 -1.9 C 3.2 km/h
394 30-03-2020 09:45:00 -1.8 C 3.38 g/m*3 -1.8 C 0 km/h
395 30-03-2020 09:50:00 -1.7 C 3.44 g/m*3 -1.7 C 0 km/h
396 30-03-2020 09:55:00 -1.7 C 3.44 g/m*3 -1.7 C 3.2 km/h
397 30-03-2020 10:00:00 -1.6 C 3.47 g/m*3 -1.6 C 3.2 km/h
398 30-03-2020 10:05:00 -1.5 C 3.45 g/m*3 -1.5 C 0 km/h
399 30-03-2020 10:10:00 -1.4 C 3.52 g/m*3 -1.4 C 0 km/h
400 30-03-2020 10:15:00 -1.3 C 3.54 g/m*3 -1.3 C 1.6 km/h
Sensor: Nr:Datum:Temp:Abs-Feuchte:Windchill:Wind:
Aussen-T/F 401 30-03-2020 10:20:00 -1.2 C 3.57 g/m*3 -1.2 C 1.6 km/h
402 30-03-2020 10:25:00 -1.1 C 3.5 g/m*3 -1.1 C 1.6 km/h
403 30-03-2020 10:30:00 -0.9 C 3.51 g/m*3 -0.9 C 1.6 km/h
404 30-03-2020 10:35:00 -0.7 C 3.46 g/m*3 -2.99 C 6.4 km/h
405 30-03-2020 10:40:00 -0.3 C 3.37 g/m*3 -4.69 C 14.5 km/h
406 30-03-2020 10:45:00 0.2 C 3.44 g/m*3 -1.95 C 6.4 km/h
407 30-03-2020 10:50:00 0.8 C 3.12 g/m*3 -2.67 C 11.3 km/h
408 30-03-2020 10:55:00 1.3 C 3.5 g/m*3 1.3 C 1.6 km/h
409 30-03-2020 11:00:00 1.4 C 3.2 g/m*3 -2.6 C 14.5 km/h
410 30-03-2020 11:05:00 1.9 C 3.04 g/m*3 -0.54 C 8.1 km/h
411 30-03-2020 11:10:00 2.2 C 3.04 g/m*3 2.2 C 3.2 km/h
412 30-03-2020 11:15:00 2.3 C 3.12 g/m*3 2.3 C 1.6 km/h
413 30-03-2020 11:20:00 2.4 C 2.97 g/m*3 -0.74 C 11.3 km/h
414 30-03-2020 11:25:00 2.7 C 2.91 g/m*3 2.7 C 4.8 km/h
415 30-03-2020 11:30:00 2.8 C 2.93 g/m*3 1.05 C 6.4 km/h
416 30-03-2020 11:35:00 3.1 C 2.93 g/m*3 0.87 C 8.1 km/h
417 30-03-2020 11:40:00 3.3 C 2.85 g/m*3 0.7 C 9.7 km/h
418 30-03-2020 11:45:00 3.3 C 2.79 g/m*3 1.63 C 6.4 km/h
419 30-03-2020 11:50:00 3.4 C 2.87 g/m*3 3.4 C 4.8 km/h
420 30-03-2020 11:55:00 3.6 C 2.72 g/m*3 1.46 C 8.1 km/h
421 30-03-2020 12:00:00 3.7 C 2.8 g/m*3 0.82 C 11.3 km/h
422 30-03-2020 12:05:00 3.8 C 2.7 g/m*3 3.8 C 4.8 km/h
423 30-03-2020 12:10:00 4 C 2.67 g/m*3 1.53 C 9.7 km/h
424 30-03-2020 12:15:00 4.1 C 2.69 g/m*3 4.1 C 4.8 km/h
425 30-03-2020 12:20:00 4.2 C 2.58 g/m*3 4.2 C 4.8 km/h
Sensor: Nr:Datum:Temp:Abs-Feuchte:Windchill:Wind:
Aussen-T/F 426 30-03-2020 12:25:00 4.3 C 2.46 g/m*3 4.3 C 4.8 km/h
427 30-03-2020 12:30:00 4.4 C 2.48 g/m*3 2.4 C 8.1 km/h
428 30-03-2020 12:35:00 4.6 C 2.51 g/m*3 1.91 C 11.3 km/h
429 30-03-2020 12:40:00 4.8 C 2.48 g/m*3 2.87 C 8.1 km/h
430 30-03-2020 12:45:00 4.9 C 2.5 g/m*3 4.9 C 3.2 km/h
431 30-03-2020 12:50:00 5.1 C 2.6 g/m*3 2.51 C 11.3 km/h
432 30-03-2020 12:55:00 5.1 C 2.46 g/m*3 5.1 C 4.8 km/h
433 30-03-2020 13:00:00 5.3 C 2.5 g/m*3 5.3 C 4.8 km/h
434 30-03-2020 13:05:00 5.5 C 2.6 g/m*3 3.7 C 8.1 km/h
435 30-03-2020 13:10:00 5.7 C 2.7 g/m*3 4.4 C 6.4 km/h
436 30-03-2020 13:15:00 5.9 C 2.74 g/m*3 4.63 C 6.4 km/h
437 30-03-2020 13:20:00 5.9 C 2.67 g/m*3 3.48 C 11.3 km/h
438 30-03-2020 13:25:00 5.9 C 2.6 g/m*3 3.8 C 9.7 km/h
439 30-03-2020 13:30:00 6 C 2.76 g/m*3 3.92 C 9.7 km/h
440 30-03-2020 13:35:00 6.2 C 2.72 g/m*3 4.15 C 9.7 km/h
441 30-03-2020 13:40:00 6.3 C 2.66 g/m*3 3.96 C 11.3 km/h
442 30-03-2020 13:45:00 6.4 C 2.68 g/m*3 6.4 C 3.2 km/h
443 30-03-2020 13:50:00 6.3 C 2.66 g/m*3 3.2 C 16.1 km/h
444 30-03-2020 13:55:00 6.4 C 2.68 g/m*3 4.75 C 8.1 km/h
445 30-03-2020 14:00:00 6.6 C 2.64 g/m*3 6.6 C 4.8 km/h
446 30-03-2020 14:05:00 6.7 C 2.66 g/m*3 5.56 C 6.4 km/h
447 30-03-2020 14:10:00 6.8 C 2.52 g/m*3 5.22 C 8.1 km/h
448 30-03-2020 14:15:00 6.8 C 2.52 g/m*3 5.67 C 6.4 km/h
449 30-03-2020 14:20:00 7.1 C 2.57 g/m*3 4.41 C 14.5 km/h
450 30-03-2020 14:25:00 7.3 C 2.61 g/m*3 4.23 C 17.7 km/h
Sensor: Nr:Datum:Temp:Abs-Feuchte:Windchill:Wind:
Aussen-T/F 451 30-03-2020 14:30:00 7.3 C 2.77 g/m*3 4.66 C 14.5 km/h
452 30-03-2020 14:35:00 7.3 C 2.69 g/m*3 5.47 C 9.7 km/h
453 30-03-2020 14:40:00 7.4 C 2.62 g/m*3 5.02 C 12.9 km/h
454 30-03-2020 14:45:00 7.6 C 2.82 g/m*3 5.53 C 11.3 km/h
455 30-03-2020 14:50:00 7.7 C 2.84 g/m*3 5.94 C 9.7 km/h
456 30-03-2020 14:55:00 7.9 C 2.96 g/m*3 5.89 C 11.3 km/h
457 30-03-2020 15:00:00 8.1 C 2.91 g/m*3 6.75 C 8.1 km/h
458 30-03-2020 15:05:00 7.9 C 2.87 g/m*3 5.18 C 16.1 km/h
459 30-03-2020 15:10:00 7.8 C 2.94 g/m*3 5.77 C 11.3 km/h
460 30-03-2020 15:15:00 7.8 C 2.94 g/m*3 5.06 C 16.1 km/h
461 30-03-2020 15:20:00 8 C 2.98 g/m*3 5.75 C 12.9 km/h
462 30-03-2020 15:25:00 8 C 2.98 g/m*3 5.3 C 16.1 km/h
463 30-03-2020 15:30:00 8 C 3.14 g/m*3 6.64 C 8.1 km/h
464 30-03-2020 15:35:00 8.2 C 3.18 g/m*3 5.99 C 12.9 km/h
465 30-03-2020 15:40:00 8.2 C 3.1 g/m*3 5.99 C 12.9 km/h
466 30-03-2020 15:45:00 8.3 C 3.12 g/m*3 5.68 C 16.1 km/h
467 30-03-2020 15:50:00 8.3 C 3.2 g/m*3 6.37 C 11.3 km/h
468 30-03-2020 15:55:00 8.3 C 3.12 g/m*3 6.12 C 12.9 km/h
469 30-03-2020 16:00:00 8.4 C 3.14 g/m*3 6.01 C 14.5 km/h
470 30-03-2020 16:05:00 8.6 C 3.35 g/m*3 6.48 C 12.9 km/h
471 30-03-2020 16:10:00 8.8 C 3.31 g/m*3 6.5 C 14.5 km/h
472 30-03-2020 16:15:00 9.2 C 3.3 g/m*3 6.99 C 14.5 km/h
473 30-03-2020 16:20:00 9.2 C 3.39 g/m*3 6.99 C 14.5 km/h
474 30-03-2020 16:25:00 9.3 C 3.42 g/m*3 7.33 C 12.9 km/h
475 30-03-2020 16:30:00 9 C 3.35 g/m*3 7.21 C 11.3 km/h
Sensor: Nr:Datum:Temp:Abs-Feuchte:Windchill:Wind:
Aussen-T/F 476 30-03-2020 16:35:00 8.8 C 3.39 g/m*3 6.97 C 11.3 km/h
477 30-03-2020 16:40:00 9.1 C 3.55 g/m*3 7.33 C 11.3 km/h
478 30-03-2020 16:45:00 9.4 C 3.62 g/m*3 7.97 C 9.7 km/h
479 30-03-2020 16:50:00 9.5 C 3.55 g/m*3 7.58 C 12.9 km/h
480 30-03-2020 16:55:00 9.4 C 3.62 g/m*3 7.46 C 12.9 km/h
481 30-03-2020 17:00:00 9.1 C 3.55 g/m*3 6.87 C 14.5 km/h
482 30-03-2020 17:05:00 9.2 C 3.75 g/m*3 6.99 C 14.5 km/h
483 30-03-2020 17:10:00 9.8 C 3.71 g/m*3 7.54 C 16.1 km/h
484 30-03-2020 17:15:00 9.9 C 3.73 g/m*3 7.48 C 17.7 km/h
485 30-03-2020 17:20:00 9.8 C 3.62 g/m*3 7.54 C 16.1 km/h
486 30-03-2020 17:25:00 9.9 C 3.64 g/m*3 7.85 C 14.5 km/h
487 30-03-2020 17:30:00 9.6 C 3.66 g/m*3 7.29 C 16.1 km/h
488 30-03-2020 17:35:00 9.7 C 3.78 g/m*3 7.41 C 16.1 km/h
489 30-03-2020 17:40:00 9.7 C 3.87 g/m*3 7.23 C 17.7 km/h
490 30-03-2020 17:45:00 9.4 C 3.89 g/m*3 7.24 C 14.5 km/h
491 30-03-2020 17:50:00 9.2 C 3.93 g/m*3 6.61 C 17.7 km/h
492 30-03-2020 17:55:00 8.9 C 3.94 g/m*3 6.85 C 12.9 km/h
493 30-03-2020 18:00:00 8.8 C 4 g/m*3 5.34 C 25.7 km/h
494 30-03-2020 18:05:00 8.5 C 3.93 g/m*3 6.36 C 12.9 km/h
495 30-03-2020 18:10:00 8.2 C 3.94 g/m*3 6.25 C 11.3 km/h
496 30-03-2020 18:15:00 7.9 C 4.02 g/m*3 6.18 C 9.7 km/h
497 30-03-2020 18:20:00 8.1 C 4.16 g/m*3 6.13 C 11.3 km/h
498 30-03-2020 18:25:00 8.4 C 4.16 g/m*3 6.24 C 12.9 km/h
499 30-03-2020 18:30:00 8.7 C 4.15 g/m*3 6.85 C 11.3 km/h
500 30-03-2020 18:35:00 8.9 C 4.2 g/m*3 7.09 C 11.3 km/h
Sensor: Nr:Datum:Temp:Abs-Feuchte:Windchill:Wind:
Aussen-T/F 501 30-03-2020 18:40:00 8.8 C 4.09 g/m*3 6.3 C 16.1 km/h
502 30-03-2020 18:45:00 8.7 C 4.15 g/m*3 6.6 C 12.9 km/h
503 30-03-2020 18:50:00 8.7 C 4.24 g/m*3 7.46 C 8.1 km/h
504 30-03-2020 18:55:00 8.8 C 4.26 g/m*3 6.97 C 11.3 km/h
505 30-03-2020 19:00:00 8.6 C 4.21 g/m*3 6.73 C 11.3 km/h
506 30-03-2020 19:05:00 8.5 C 4.27 g/m*3 6.36 C 12.9 km/h
507 30-03-2020 19:10:00 8.3 C 4.21 g/m*3 5.89 C 14.5 km/h
508 30-03-2020 19:15:00 8.1 C 4.24 g/m*3 6.42 C 9.7 km/h
509 30-03-2020 19:20:00 7.8 C 4.24 g/m*3 7.8 C 4.8 km/h
510 30-03-2020 19:25:00 7.6 C 4.19 g/m*3 6.16 C 8.1 km/h
511 30-03-2020 19:30:00 7.4 C 4.21 g/m*3 5.58 C 9.7 km/h
512 30-03-2020 19:35:00 7.3 C 4.27 g/m*3 5.81 C 8.1 km/h
513 30-03-2020 19:40:00 7.2 C 4.24 g/m*3 7.2 C 4.8 km/h
514 30-03-2020 19:45:00 7 C 4.26 g/m*3 7 C 3.2 km/h
515 30-03-2020 19:50:00 6.8 C 4.28 g/m*3 6.8 C 1.6 km/h
516 30-03-2020 19:55:00 6.4 C 4.32 g/m*3 6.4 C 0 km/h
517 30-03-2020 20:00:00 5.9 C 4.25 g/m*3 5.9 C 0 km/h
518 30-03-2020 20:05:00 5.4 C 4.26 g/m*3 5.4 C 0 km/h
519 30-03-2020 20:10:00 4.9 C 4.19 g/m*3 4.9 C 0 km/h
520 30-03-2020 20:15:00 4.6 C 4.23 g/m*3 4.6 C 0 km/h
521 30-03-2020 20:20:00 4.3 C 4.22 g/m*3 4.3 C 1.6 km/h
522 30-03-2020 20:25:00 4.2 C 4.32 g/m*3 4.2 C 1.6 km/h
523 30-03-2020 20:30:00 4.1 C 4.35 g/m*3 4.1 C 3.2 km/h
524 30-03-2020 20:35:00 3.9 C 4.36 g/m*3 3.9 C 4.8 km/h
525 30-03-2020 20:40:00 3.8 C 4.33 g/m*3 3.8 C 4.8 km/h
Sensor: Nr:Datum:Temp:Abs-Feuchte:Windchill:Wind:
Aussen-T/F 526 30-03-2020 20:45:00 3.7 C 4.3 g/m*3 3.7 C 1.6 km/h
527 30-03-2020 20:50:00 3.6 C 4.33 g/m*3 3.6 C 4.8 km/h
528 30-03-2020 20:55:00 3.6 C 4.39 g/m*3 3.6 C 4.8 km/h
529 30-03-2020 21:00:00 3.5 C 4.43 g/m*3 1.86 C 6.4 km/h
530 30-03-2020 21:05:00 3.6 C 4.52 g/m*3 3.6 C 4.8 km/h
531 30-03-2020 21:10:00 3.6 C 4.52 g/m*3 3.6 C 4.8 km/h
532 30-03-2020 21:15:00 3.7 C 4.55 g/m*3 3.7 C 4.8 km/h
533 30-03-2020 21:20:00 3.7 C 4.61 g/m*3 3.7 C 4.8 km/h
534 30-03-2020 21:25:00 3.8 C 4.64 g/m*3 3.8 C 4.8 km/h
535 30-03-2020 21:30:00 3.8 C 4.64 g/m*3 3.8 C 3.2 km/h
536 30-03-2020 21:35:00 3.9 C 4.67 g/m*3 3.9 C 1.6 km/h
537 30-03-2020 21:40:00 4 C 4.7 g/m*3 4 C 0 km/h
538 30-03-2020 21:45:00 4 C 4.7 g/m*3 4 C 3.2 km/h
539 30-03-2020 21:50:00 4 C 4.7 g/m*3 4 C 3.2 km/h
540 30-03-2020 21:55:00 4.1 C 4.74 g/m*3 4.1 C 1.6 km/h
541 30-03-2020 22:00:00 4 C 4.7 g/m*3 4 C 0 km/h
542 30-03-2020 22:05:00 4 C 4.77 g/m*3 4 C 0 km/h
543 30-03-2020 22:10:00 3.9 C 4.74 g/m*3 3.9 C 0 km/h
544 30-03-2020 22:15:00 4 C 4.7 g/m*3 4 C 3.2 km/h
545 30-03-2020 22:20:00 4 C 4.7 g/m*3 4 C 0 km/h
546 30-03-2020 22:25:00 4.1 C 4.8 g/m*3 4.1 C 0 km/h
547 30-03-2020 22:30:00 4.1 C 4.67 g/m*3 4.1 C 3.2 km/h
548 30-03-2020 22:35:00 4.1 C 4.67 g/m*3 4.1 C 0 km/h
549 30-03-2020 22:40:00 4.2 C 4.7 g/m*3 4.2 C 0 km/h
550 30-03-2020 22:45:00 4.2 C 4.64 g/m*3 4.2 C 3.2 km/h
Sensor: Nr:Datum:Temp:Abs-Feuchte:Windchill:Wind:
Aussen-T/F 551 30-03-2020 22:50:00 4.3 C 4.67 g/m*3 4.3 C 1.6 km/h
552 30-03-2020 22:55:00 4.3 C 4.74 g/m*3 4.3 C 0 km/h
553 30-03-2020 23:00:00 4.3 C 4.67 g/m*3 4.3 C 4.8 km/h
554 30-03-2020 23:05:00 4.3 C 4.67 g/m*3 4.3 C 0 km/h
555 30-03-2020 23:10:00 4.3 C 4.67 g/m*3 4.3 C 3.2 km/h
556 30-03-2020 23:15:00 4.4 C 4.7 g/m*3 4.4 C 0 km/h
557 30-03-2020 23:20:00 4.4 C 4.77 g/m*3 4.4 C 0 km/h
558 30-03-2020 23:25:00 4.4 C 4.7 g/m*3 4.4 C 1.6 km/h
559 30-03-2020 23:30:00 4.4 C 4.7 g/m*3 4.4 C 0 km/h
560 30-03-2020 23:35:00 4.4 C 4.7 g/m*3 4.4 C 3.2 km/h
561 30-03-2020 23:40:00 4.4 C 4.77 g/m*3 4.4 C 1.6 km/h
562 30-03-2020 23:45:00 4.4 C 4.77 g/m*3 4.4 C 1.6 km/h
563 30-03-2020 23:50:00 4.4 C 4.77 g/m*3 4.4 C 0 km/h
564 30-03-2020 23:55:00 4.4 C 4.7 g/m*3 4.4 C 1.6 km/h
565 31-03-2020 00:00:00 4.4 C 4.7 g/m*3 4.4 C 1.6 km/h
566 31-03-2020 00:05:00 4.4 C 4.7 g/m*3 4.4 C 0 km/h
567 31-03-2020 00:10:00 4.4 C 4.7 g/m*3 4.4 C 0 km/h
568 31-03-2020 00:15:00 4.5 C 4.73 g/m*3 4.5 C 3.2 km/h
569 31-03-2020 00:20:00 4.5 C 4.73 g/m*3 4.5 C 3.2 km/h
570 31-03-2020 00:25:00 4.5 C 4.8 g/m*3 4.5 C 3.2 km/h
571 31-03-2020 00:30:00 4.5 C 4.8 g/m*3 4.5 C 1.6 km/h
572 31-03-2020 00:35:00 4.4 C 4.77 g/m*3 4.4 C 0 km/h
573 31-03-2020 00:40:00 4.5 C 4.8 g/m*3 4.5 C 0 km/h
574 31-03-2020 00:45:00 4.5 C 4.8 g/m*3 4.5 C 0 km/h
575 31-03-2020 00:50:00 4.6 C 4.83 g/m*3 4.6 C 0 km/h
Sensor: Nr:Datum:Temp:Abs-Feuchte:Windchill:Wind:
Aussen-T/F 576 31-03-2020 00:55:00 4.6 C 4.96 g/m*3 4.6 C 4.8 km/h
577 31-03-2020 01:00:00 4.7 C 5 g/m*3 4.7 C 0 km/h
578 31-03-2020 01:05:00 4.7 C 5.06 g/m*3 4.7 C 1.6 km/h
579 31-03-2020 01:10:00 4.7 C 5.06 g/m*3 4.7 C 1.6 km/h
580 31-03-2020 01:15:00 4.7 C 5.06 g/m*3 4.7 C 1.6 km/h
581 31-03-2020 01:20:00 4.7 C 5.13 g/m*3 4.7 C 1.6 km/h
582 31-03-2020 01:25:00 4.6 C 5.16 g/m*3 4.6 C 1.6 km/h
583 31-03-2020 01:30:00 4.5 C 5.19 g/m*3 4.5 C 3.2 km/h
584 31-03-2020 01:35:00 4.5 C 5.26 g/m*3 4.5 C 0 km/h
585 31-03-2020 01:40:00 4.5 C 5.26 g/m*3 3.02 C 6.4 km/h
586 31-03-2020 01:45:00 4.5 C 5.32 g/m*3 4.5 C 1.6 km/h
587 31-03-2020 01:50:00 4.6 C 5.36 g/m*3 4.6 C 1.6 km/h
588 31-03-2020 01:55:00 4.6 C 5.43 g/m*3 4.6 C 4.8 km/h
589 31-03-2020 02:00:00 4.6 C 5.43 g/m*3 4.6 C 3.2 km/h
590 31-03-2020 02:05:00 4.5 C 5.32 g/m*3 4.5 C 0 km/h
591 31-03-2020 02:10:00 4.4 C 5.35 g/m*3 4.4 C 4.8 km/h
592 31-03-2020 02:15:00 4.3 C 5.32 g/m*3 4.3 C 4.8 km/h
593 31-03-2020 02:20:00 4.2 C 5.35 g/m*3 4.2 C 3.2 km/h
594 31-03-2020 02:25:00 4.1 C 5.31 g/m*3 4.1 C 0 km/h
595 31-03-2020 02:30:00 4.1 C 5.38 g/m*3 4.1 C 0 km/h
596 31-03-2020 02:35:00 4.1 C 5.38 g/m*3 4.1 C 0 km/h
597 31-03-2020 02:40:00 4 C 5.34 g/m*3 4 C 0 km/h
598 31-03-2020 02:45:00 3.9 C 5.31 g/m*3 3.9 C 0 km/h
599 31-03-2020 02:50:00 3.8 C 5.27 g/m*3 3.8 C 0 km/h
600 31-03-2020 02:55:00 3.6 C 5.2 g/m*3 3.6 C 0 km/h
Sensor: Nr:Datum:Temp:Abs-Feuchte:Windchill:Wind:
Aussen-T/F 601 31-03-2020 03:00:00 3.4 C 5.19 g/m*3 3.4 C 1.6 km/h
602 31-03-2020 03:05:00 3.4 C 5.25 g/m*3 3.4 C 0 km/h
603 31-03-2020 03:10:00 3.3 C 5.22 g/m*3 3.3 C 0 km/h
604 31-03-2020 03:15:00 3.2 C 5.18 g/m*3 3.2 C 3.2 km/h
605 31-03-2020 03:20:00 3.2 C 5.24 g/m*3 3.2 C 3.2 km/h
606 31-03-2020 03:25:00 3.1 C 5.21 g/m*3 3.1 C 1.6 km/h
607 31-03-2020 03:30:00 3.1 C 5.27 g/m*3 3.1 C 1.6 km/h
608 31-03-2020 03:35:00 3.1 C 5.27 g/m*3 3.1 C 1.6 km/h
609 31-03-2020 03:40:00 3.1 C 5.27 g/m*3 3.1 C 0 km/h
610 31-03-2020 03:45:00 3 C 5.23 g/m*3 3 C 0 km/h
611 31-03-2020 03:50:00 2.9 C 5.2 g/m*3 2.9 C 0 km/h
612 31-03-2020 03:55:00 2.9 C 5.26 g/m*3 2.9 C 0 km/h
613 31-03-2020 04:00:00 3 C 5.29 g/m*3 3 C 0 km/h
614 31-03-2020 04:05:00 3.1 C 5.39 g/m*3 3.1 C 0 km/h
615 31-03-2020 04:10:00 3.2 C 5.42 g/m*3 3.2 C 0 km/h
616 31-03-2020 04:15:00 3.2 C 5.42 g/m*3 3.2 C 0 km/h
617 31-03-2020 04:20:00 3.3 C 5.46 g/m*3 3.3 C 1.6 km/h
618 31-03-2020 04:25:00 3.4 C 5.5 g/m*3 3.4 C 0 km/h
619 31-03-2020 04:30:00 3.4 C 5.5 g/m*3 3.4 C 0 km/h
620 31-03-2020 04:35:00 3.4 C 5.5 g/m*3 3.4 C 0 km/h
621 31-03-2020 04:40:00 3.5 C 5.53 g/m*3 3.5 C 0 km/h
622 31-03-2020 04:45:00 3.5 C 5.53 g/m*3 3.5 C 0 km/h
623 31-03-2020 04:50:00 3.6 C 5.57 g/m*3 3.6 C 1.6 km/h
624 31-03-2020 04:55:00 3.6 C 5.57 g/m*3 3.6 C 0 km/h
625 31-03-2020 05:00:00 3.7 C 5.61 g/m*3 3.7 C 0 km/h
Sensor: Nr:Datum:Temp:Abs-Feuchte:Windchill:Wind:
Aussen-T/F 626 31-03-2020 05:05:00 3.7 C 5.61 g/m*3 3.7 C 0 km/h
627 31-03-2020 05:10:00 3.7 C 5.55 g/m*3 3.7 C 0 km/h
628 31-03-2020 05:15:00 3.7 C 5.55 g/m*3 3.7 C 0 km/h
629 31-03-2020 05:20:00 3.6 C 5.51 g/m*3 3.6 C 0 km/h
630 31-03-2020 05:25:00 3.4 C 5.44 g/m*3 3.4 C 0 km/h
631 31-03-2020 05:30:00 3.3 C 5.4 g/m*3 3.3 C 0 km/h
632 31-03-2020 05:35:00 3.2 C 5.36 g/m*3 3.2 C 1.6 km/h
633 31-03-2020 05:40:00 3.1 C 5.27 g/m*3 3.1 C 1.6 km/h
634 31-03-2020 05:45:00 2.8 C 5.16 g/m*3 2.8 C 1.6 km/h
635 31-03-2020 05:50:00 2.7 C 5.13 g/m*3 2.7 C 0 km/h
636 31-03-2020 05:55:00 2.4 C 5.02 g/m*3 2.4 C 3.2 km/h
637 31-03-2020 06:00:00 2.3 C 4.99 g/m*3 2.3 C 3.2 km/h
638 31-03-2020 06:05:00 2.2 C 5.01 g/m*3 2.2 C 1.6 km/h
639 31-03-2020 06:10:00 2.1 C 4.98 g/m*3 2.1 C 1.6 km/h
640 31-03-2020 06:15:00 1.9 C 4.91 g/m*3 1.9 C 0 km/h
641 31-03-2020 06:20:00 1.9 C 4.97 g/m*3 1.9 C 0 km/h
642 31-03-2020 06:25:00 1.9 C 4.97 g/m*3 1.9 C 0 km/h
643 31-03-2020 06:30:00 2 C 5.06 g/m*3 2 C 0 km/h
644 31-03-2020 06:35:00 2.2 C 5.18 g/m*3 2.2 C 0 km/h
645 31-03-2020 06:40:00 2.3 C 5.22 g/m*3 2.3 C 0 km/h
646 31-03-2020 06:45:00 2.3 C 5.22 g/m*3 2.3 C 0 km/h
647 31-03-2020 06:50:00 2.4 C 5.25 g/m*3 2.4 C 0 km/h
648 31-03-2020 06:55:00 2.5 C 5.29 g/m*3 2.5 C 0 km/h
649 31-03-2020 07:00:00 2.6 C 5.32 g/m*3 2.6 C 0 km/h
650 31-03-2020 07:05:00 2.6 C 5.32 g/m*3 2.6 C 0 km/h
Sensor: Nr:Datum:Temp:Abs-Feuchte:Windchill:Wind:
Aussen-T/F 651 31-03-2020 07:10:00 2.7 C 5.36 g/m*3 2.7 C 0 km/h
652 31-03-2020 07:15:00 2.7 C 5.36 g/m*3 2.7 C 0 km/h
653 31-03-2020 07:20:00 2.7 C 5.36 g/m*3 2.7 C 0 km/h
654 31-03-2020 07:25:00 2.7 C 5.36 g/m*3 2.7 C 0 km/h
655 31-03-2020 07:30:00 2.7 C 5.36 g/m*3 2.7 C 0 km/h
656 31-03-2020 07:35:00 2.7 C 5.36 g/m*3 2.7 C 0 km/h
657 31-03-2020 07:40:00 2.7 C 5.36 g/m*3 2.7 C 0 km/h
658 31-03-2020 07:45:00 2.6 C 5.27 g/m*3 2.6 C 0 km/h
659 31-03-2020 07:50:00 2.6 C 5.32 g/m*3 2.6 C 0 km/h
660 31-03-2020 07:55:00 2.6 C 5.32 g/m*3 2.6 C 0 km/h
661 31-03-2020 08:00:00 2.7 C 5.36 g/m*3 2.7 C 0 km/h
662 31-03-2020 08:05:00 2.8 C 5.4 g/m*3 2.8 C 0 km/h
663 31-03-2020 08:10:00 2.9 C 5.43 g/m*3 2.9 C 0 km/h
664 31-03-2020 08:15:00 3.1 C 5.57 g/m*3 3.1 C 0 km/h
665 31-03-2020 08:20:00 3.3 C 5.58 g/m*3 3.3 C 0 km/h
666 31-03-2020 08:25:00 3.4 C 5.62 g/m*3 3.4 C 0 km/h
667 31-03-2020 08:30:00 3.6 C 5.63 g/m*3 3.6 C 0 km/h
668 31-03-2020 08:35:00 3.7 C 5.67 g/m*3 3.7 C 1.6 km/h
669 31-03-2020 08:40:00 3.8 C 5.58 g/m*3 2.21 C 6.4 km/h
670 31-03-2020 08:45:00 3.9 C 5.49 g/m*3 1.82 C 8.1 km/h
671 31-03-2020 08:50:00 4.1 C 5.44 g/m*3 2.05 C 8.1 km/h
672 31-03-2020 08:55:00 4.2 C 5.35 g/m*3 2.67 C 6.4 km/h
673 31-03-2020 09:00:00 4.3 C 5.25 g/m*3 1.55 C 11.3 km/h
674 31-03-2020 09:05:00 4.4 C 5.22 g/m*3 2.4 C 8.1 km/h
675 31-03-2020 09:10:00 4.4 C 5.09 g/m*3 4.4 C 4.8 km/h
Sensor: Nr:Datum:Temp:Abs-Feuchte:Windchill:Wind:
Aussen-T/F 676 31-03-2020 09:15:00 4.4 C 5.09 g/m*3 2.9 C 6.4 km/h
677 31-03-2020 09:20:00 4.4 C 5.03 g/m*3 2.01 C 9.7 km/h
678 31-03-2020 09:25:00 4.5 C 5.06 g/m*3 2.52 C 8.1 km/h
679 31-03-2020 09:30:00 4.5 C 5.06 g/m*3 4.5 C 4.8 km/h
680 31-03-2020 09:35:00 4.6 C 5.03 g/m*3 2.64 C 8.1 km/h
681 31-03-2020 09:40:00 4.6 C 4.96 g/m*3 3.13 C 6.4 km/h
682 31-03-2020 09:45:00 4.6 C 5.03 g/m*3 4.6 C 4.8 km/h
683 31-03-2020 09:50:00 4.7 C 4.86 g/m*3 1.73 C 12.9 km/h
684 31-03-2020 09:55:00 4.8 C 5.03 g/m*3 4.8 C 4.8 km/h
685 31-03-2020 10:00:00 4.9 C 5 g/m*3 3.48 C 6.4 km/h
686 31-03-2020 10:05:00 4.9 C 4.86 g/m*3 2.27 C 11.3 km/h
687 31-03-2020 10:10:00 4.9 C 4.93 g/m*3 2.27 C 11.3 km/h
688 31-03-2020 10:15:00 4.9 C 4.93 g/m*3 2.99 C 8.1 km/h
689 31-03-2020 10:20:00 4.9 C 4.93 g/m*3 2.27 C 11.3 km/h
690 31-03-2020 10:25:00 4.9 C 4.86 g/m*3 4.9 C 4.8 km/h
691 31-03-2020 10:30:00 4.8 C 4.83 g/m*3 4.8 C 4.8 km/h
692 31-03-2020 10:35:00 4.8 C 4.83 g/m*3 1.58 C 14.5 km/h
693 31-03-2020 10:40:00 4.8 C 4.76 g/m*3 2.49 C 9.7 km/h
694 31-03-2020 10:45:00 4.8 C 4.76 g/m*3 2.49 C 9.7 km/h
695 31-03-2020 10:50:00 4.8 C 4.69 g/m*3 2.87 C 8.1 km/h
696 31-03-2020 10:55:00 4.8 C 4.69 g/m*3 2.49 C 9.7 km/h
697 31-03-2020 11:00:00 4.8 C 4.69 g/m*3 2.49 C 9.7 km/h
698 31-03-2020 11:05:00 4.8 C 4.69 g/m*3 2.87 C 8.1 km/h
699 31-03-2020 11:10:00 4.8 C 4.63 g/m*3 1.11 C 17.7 km/h
700 31-03-2020 11:15:00 4.9 C 4.59 g/m*3 2.61 C 9.7 km/h
Sensor: Nr:Datum:Temp:Abs-Feuchte:Windchill:Wind:
Aussen-T/F 701 31-03-2020 11:20:00 5.1 C 4.65 g/m*3 2.84 C 9.7 km/h
702 31-03-2020 11:25:00 5.2 C 4.61 g/m*3 2.96 C 9.7 km/h
703 31-03-2020 11:30:00 5.4 C 4.6 g/m*3 4.06 C 6.4 km/h
704 31-03-2020 11:35:00 5.5 C 4.57 g/m*3 3.32 C 9.7 km/h
705 31-03-2020 11:40:00 5.6 C 4.52 g/m*3 2.83 C 12.9 km/h
706 31-03-2020 11:45:00 5.6 C 4.52 g/m*3 2.83 C 12.9 km/h
707 31-03-2020 11:50:00 5.6 C 4.52 g/m*3 2.33 C 16.1 km/h
708 31-03-2020 11:55:00 5.7 C 4.41 g/m*3 2.95 C 12.9 km/h
709 31-03-2020 12:00:00 5.8 C 4.44 g/m*3 4.52 C 6.4 km/h
710 31-03-2020 12:05:00 5.9 C 4.4 g/m*3 4.17 C 8.1 km/h
711 31-03-2020 12:10:00 6 C 4.43 g/m*3 6 C 3.2 km/h
712 31-03-2020 12:15:00 6.3 C 4.29 g/m*3 3.68 C 12.9 km/h
713 31-03-2020 12:20:00 6.6 C 4.23 g/m*3 4.32 C 11.3 km/h
714 31-03-2020 12:25:00 6.6 C 4.15 g/m*3 3.57 C 16.1 km/h
715 31-03-2020 12:30:00 6.8 C 4.21 g/m*3 4.29 C 12.9 km/h
716 31-03-2020 12:35:00 6.9 C 4.08 g/m*3 4.68 C 11.3 km/h
717 31-03-2020 12:40:00 7.2 C 4.24 g/m*3 4.31 C 16.1 km/h
718 31-03-2020 12:45:00 7.2 C 4.16 g/m*3 4.77 C 12.9 km/h
719 31-03-2020 12:50:00 7.2 C 4.16 g/m*3 5.04 C 11.3 km/h
720 31-03-2020 12:55:00 7.2 C 4.24 g/m*3 5.35 C 9.7 km/h
721 31-03-2020 13:00:00 7.2 C 4.08 g/m*3 4.53 C 14.5 km/h
722 31-03-2020 13:05:00 7.1 C 3.98 g/m*3 5.23 C 9.7 km/h
723 31-03-2020 13:10:00 6.9 C 3.93 g/m*3 5.34 C 8.1 km/h
724 31-03-2020 13:15:00 7 C 3.95 g/m*3 5.11 C 9.7 km/h
725 31-03-2020 13:20:00 7 C 3.8 g/m*3 4.8 C 11.3 km/h
Sensor: Nr:Datum:Temp:Abs-Feuchte:Windchill:Wind:
Aussen-T/F 726 31-03-2020 13:25:00 7.1 C 3.82 g/m*3 4.65 C 12.9 km/h
727 31-03-2020 13:30:00 7.2 C 3.77 g/m*3 5.69 C 8.1 km/h
728 31-03-2020 13:35:00 7.4 C 3.82 g/m*3 5.02 C 12.9 km/h
729 31-03-2020 13:40:00 7.7 C 3.73 g/m*3 4.73 C 17.7 km/h
730 31-03-2020 13:45:00 7.7 C 3.57 g/m*3 5.38 C 12.9 km/h
731 31-03-2020 13:50:00 7.8 C 3.59 g/m*3 5.51 C 12.9 km/h
732 31-03-2020 13:55:00 8 C 3.55 g/m*3 5.75 C 12.9 km/h
733 31-03-2020 14:00:00 8.2 C 3.6 g/m*3 5.55 C 16.1 km/h
734 31-03-2020 14:05:00 8.2 C 3.6 g/m*3 5.99 C 12.9 km/h
735 31-03-2020 14:10:00 8.2 C 3.68 g/m*3 5.76 C 14.5 km/h
736 31-03-2020 14:15:00 8.5 C 3.76 g/m*3 6.61 C 11.3 km/h
737 31-03-2020 14:20:00 8.8 C 3.92 g/m*3 6.97 C 11.3 km/h
738 31-03-2020 14:25:00 8.8 C 3.83 g/m*3 5.93 C 19.3 km/h
739 31-03-2020 14:30:00 8.7 C 3.81 g/m*3 6.17 C 16.1 km/h
740 31-03-2020 14:35:00 8.8 C 3.74 g/m*3 6.72 C 12.9 km/h
741 31-03-2020 14:40:00 8.7 C 3.63 g/m*3 6.17 C 16.1 km/h
742 31-03-2020 14:45:00 8.8 C 3.66 g/m*3 6.72 C 12.9 km/h
743 31-03-2020 14:50:00 8.8 C 3.66 g/m*3 6.5 C 14.5 km/h
744 31-03-2020 14:55:00 8.8 C 3.66 g/m*3 6.97 C 11.3 km/h
745 31-03-2020 15:00:00 8.9 C 3.68 g/m*3 6.85 C 12.9 km/h
746 31-03-2020 15:05:00 8.9 C 3.42 g/m*3 7.09 C 11.3 km/h
747 31-03-2020 15:10:00 8.8 C 3.66 g/m*3 6.3 C 16.1 km/h
748 31-03-2020 15:15:00 8.9 C 3.59 g/m*3 6.62 C 14.5 km/h
749 31-03-2020 15:20:00 8.9 C 3.59 g/m*3 6.62 C 14.5 km/h
750 31-03-2020 15:25:00 9 C 3.61 g/m*3 8.21 C 6.4 km/h
Sensor: Nr:Datum:Temp:Abs-Feuchte:Windchill:Wind:
Aussen-T/F 751 31-03-2020 15:30:00 9.1 C 3.64 g/m*3 7.33 C 11.3 km/h
752 31-03-2020 15:35:00 9.1 C 3.55 g/m*3 7.33 C 11.3 km/h
753 31-03-2020 15:40:00 9.1 C 3.55 g/m*3 6.31 C 19.3 km/h
754 31-03-2020 15:45:00 9.2 C 3.57 g/m*3 7.21 C 12.9 km/h
755 31-03-2020 15:50:00 9.3 C 3.5 g/m*3 7.12 C 14.5 km/h
756 31-03-2020 15:55:00 9.3 C 3.5 g/m*3 7.33 C 12.9 km/h
757 31-03-2020 16:00:00 9.5 C 3.64 g/m*3 7.58 C 12.9 km/h
758 31-03-2020 16:05:00 9.6 C 3.57 g/m*3 7.94 C 11.3 km/h
759 31-03-2020 16:10:00 9.6 C 3.48 g/m*3 6.94 C 19.3 km/h
760 31-03-2020 16:15:00 9.6 C 3.57 g/m*3 8.52 C 8.1 km/h
761 31-03-2020 16:20:00 9.7 C 3.6 g/m*3 7.41 C 16.1 km/h
762 31-03-2020 16:25:00 9.8 C 3.43 g/m*3 7.54 C 16.1 km/h
763 31-03-2020 16:30:00 9.9 C 3.45 g/m*3 7.66 C 16.1 km/h
764 31-03-2020 16:35:00 10 C 3.66 g/m*3 8.19 C 12.9 km/h
765 31-03-2020 16:40:00 10.1 C 3.5 g/m*3 7.42 C 20.9 km/h
766 31-03-2020 16:45:00 9.9 C 3.36 g/m*3 8.06 C 12.9 km/h
767 31-03-2020 16:50:00 10 C 3.57 g/m*3 7.61 C 17.7 km/h
768 31-03-2020 16:55:00 10.1 C 3.5 g/m*3 7.57 C 19.3 km/h
769 31-03-2020 17:00:00 10 C 3.38 g/m*3 8.42 C 11.3 km/h
770 31-03-2020 17:05:00 10.2 C 3.71 g/m*3 9.22 C 8.1 km/h
771 31-03-2020 17:10:00 10.6 C 3.51 g/m*3 9.69 C 8.1 km/h
772 31-03-2020 17:15:00 10.9 C 3.58 g/m*3 10.04 C 8.1 km/h
773 31-03-2020 17:20:00 11.2 C 3.65 g/m*3 11.2 C 9.7 km/h
774 31-03-2020 17:25:00 11.3 C 3.67 g/m*3 11.3 C 9.7 km/h
775 31-03-2020 17:30:00 11.3 C 3.47 g/m*3 11.3 C 6.4 km/h
Sensor: Nr:Datum:Temp:Abs-Feuchte:Windchill:Wind:
Aussen-T/F 776 31-03-2020 17:35:00 11.1 C 3.53 g/m*3 11.1 C 16.1 km/h
777 31-03-2020 17:40:00 11.1 C 3.53 g/m*3 11.1 C 6.4 km/h
778 31-03-2020 17:45:00 11 C 3.6 g/m*3 9.4 C 12.9 km/h
779 31-03-2020 17:50:00 10.9 C 3.38 g/m*3 8.9 C 16.1 km/h
780 31-03-2020 17:55:00 10.5 C 3.39 g/m*3 8.59 C 14.5 km/h
781 31-03-2020 18:00:00 10.5 C 3.39 g/m*3 8.8 C 12.9 km/h
782 31-03-2020 18:05:00 10.7 C 3.44 g/m*3 8.65 C 16.1 km/h
783 31-03-2020 18:10:00 10.8 C 3.56 g/m*3 10.8 C 4.8 km/h
784 31-03-2020 18:15:00 11.2 C 3.65 g/m*3 11.2 C 3.2 km/h
785 31-03-2020 18:20:00 11.3 C 3.57 g/m*3 11.3 C 16.1 km/h
786 31-03-2020 18:25:00 10.9 C 3.48 g/m*3 9.28 C 12.9 km/h
787 31-03-2020 18:30:00 10.7 C 3.63 g/m*3 9.52 C 9.7 km/h
788 31-03-2020 18:35:00 10.7 C 3.54 g/m*3 9.81 C 8.1 km/h
789 31-03-2020 18:40:00 10.6 C 3.51 g/m*3 9.14 C 11.3 km/h
790 31-03-2020 18:45:00 10.6 C 3.61 g/m*3 10.6 C 4.8 km/h
791 31-03-2020 18:50:00 10.7 C 3.44 g/m*3 10.18 C 6.4 km/h
792 31-03-2020 18:55:00 10.6 C 3.51 g/m*3 10.6 C 4.8 km/h
793 31-03-2020 19:00:00 10.6 C 3.51 g/m*3 9.69 C 8.1 km/h
794 31-03-2020 19:05:00 10.3 C 3.54 g/m*3 8.78 C 11.3 km/h
795 31-03-2020 19:10:00 10.1 C 3.4 g/m*3 8.8 C 9.7 km/h
796 31-03-2020 19:15:00 10.1 C 3.5 g/m*3 10.1 C 3.2 km/h
797 31-03-2020 19:20:00 10.1 C 3.5 g/m*3 9.1 C 8.1 km/h
798 31-03-2020 19:25:00 9.9 C 3.45 g/m*3 9.9 C 3.2 km/h
799 31-03-2020 19:30:00 9.8 C 3.53 g/m*3 9.8 C 4.8 km/h
800 31-03-2020 19:35:00 9.7 C 3.78 g/m*3 9.7 C 1.6 km/h
Sensor: Nr:Datum:Temp:Abs-Feuchte:Windchill:Wind:
Aussen-T/F 801 31-03-2020 19:40:00 9.4 C 3.71 g/m*3 9.4 C 1.6 km/h
802 31-03-2020 19:45:00 9.2 C 3.93 g/m*3 9.2 C 1.6 km/h
803 31-03-2020 19:50:00 8.7 C 4.06 g/m*3 8.7 C 3.2 km/h
804 31-03-2020 19:55:00 8.2 C 4.02 g/m*3 8.2 C 3.2 km/h
805 31-03-2020 20:00:00 7.6 C 4.11 g/m*3 7.6 C 4.8 km/h
806 31-03-2020 20:05:00 7 C 4.03 g/m*3 7 C 4.8 km/h
807 31-03-2020 20:10:00 6.5 C 4.05 g/m*3 6.5 C 3.2 km/h
808 31-03-2020 20:15:00 6.1 C 4.09 g/m*3 6.1 C 3.2 km/h
809 31-03-2020 20:20:00 5.7 C 3.99 g/m*3 5.7 C 4.8 km/h
810 31-03-2020 20:25:00 5.3 C 4.02 g/m*3 5.3 C 4.8 km/h
811 31-03-2020 20:30:00 5.1 C 4.04 g/m*3 5.1 C 4.8 km/h
812 31-03-2020 20:35:00 4.8 C 4.02 g/m*3 4.8 C 3.2 km/h
813 31-03-2020 20:40:00 4.6 C 4.04 g/m*3 4.6 C 3.2 km/h
814 31-03-2020 20:45:00 4.4 C 3.98 g/m*3 4.4 C 3.2 km/h
815 31-03-2020 20:50:00 4.2 C 3.99 g/m*3 4.2 C 4.8 km/h
816 31-03-2020 20:55:00 4.1 C 4.03 g/m*3 4.1 C 4.8 km/h
817 31-03-2020 21:00:00 3.9 C 3.98 g/m*3 3.9 C 4.8 km/h
818 31-03-2020 21:05:00 3.8 C 4.02 g/m*3 3.8 C 3.2 km/h
819 31-03-2020 21:10:00 3.7 C 3.99 g/m*3 3.7 C 1.6 km/h
820 31-03-2020 21:15:00 3.6 C 3.96 g/m*3 3.6 C 3.2 km/h
821 31-03-2020 21:20:00 3.5 C 3.94 g/m*3 3.5 C 4.8 km/h
822 31-03-2020 21:25:00 3.4 C 3.97 g/m*3 3.4 C 4.8 km/h
823 31-03-2020 21:30:00 3.3 C 3.88 g/m*3 3.3 C 3.2 km/h
824 31-03-2020 21:35:00 3.3 C 3.94 g/m*3 3.3 C 3.2 km/h
825 31-03-2020 21:40:00 3.2 C 3.98 g/m*3 3.2 C 3.2 km/h
Sensor: Nr:Datum:Temp:Abs-Feuchte:Windchill:Wind:
Aussen-T/F 826 31-03-2020 21:45:00 3.1 C 3.95 g/m*3 1.4 C 6.4 km/h
827 31-03-2020 21:50:00 3 C 3.92 g/m*3 3 C 4.8 km/h
828 31-03-2020 21:55:00 2.9 C 3.9 g/m*3 2.9 C 3.2 km/h
829 31-03-2020 22:00:00 2.8 C 3.87 g/m*3 2.8 C 4.8 km/h
830 31-03-2020 22:05:00 2.8 C 3.93 g/m*3 2.8 C 3.2 km/h
831 31-03-2020 22:10:00 2.7 C 3.9 g/m*3 2.7 C 4.8 km/h
832 31-03-2020 22:15:00 2.6 C 3.94 g/m*3 2.6 C 4.8 km/h
833 31-03-2020 22:20:00 2.5 C 3.91 g/m*3 2.5 C 4.8 km/h
834 31-03-2020 22:25:00 2.4 C 3.88 g/m*3 2.4 C 4.8 km/h
835 31-03-2020 22:30:00 2.3 C 3.86 g/m*3 2.3 C 4.8 km/h
836 31-03-2020 22:35:00 2.3 C 3.91 g/m*3 2.3 C 4.8 km/h
837 31-03-2020 22:40:00 2.2 C 3.89 g/m*3 2.2 C 4.8 km/h
838 31-03-2020 22:45:00 2.2 C 3.94 g/m*3 2.2 C 4.8 km/h
839 31-03-2020 22:50:00 2.1 C 3.86 g/m*3 2.1 C 4.8 km/h
840 31-03-2020 22:55:00 2 C 3.89 g/m*3 2 C 3.2 km/h
841 31-03-2020 23:00:00 1.9 C 3.86 g/m*3 1.9 C 4.8 km/h
842 31-03-2020 23:05:00 1.8 C 3.89 g/m*3 1.8 C 3.2 km/h
843 31-03-2020 23:10:00 1.7 C 3.87 g/m*3 1.7 C 4.8 km/h
844 31-03-2020 23:15:00 1.7 C 3.92 g/m*3 1.7 C 4.8 km/h
845 31-03-2020 23:20:00 1.6 C 3.89 g/m*3 1.6 C 3.2 km/h
846 31-03-2020 23:25:00 1.4 C 3.89 g/m*3 1.4 C 3.2 km/h
847 31-03-2020 23:30:00 1.3 C 3.87 g/m*3 1.3 C 4.8 km/h
848 31-03-2020 23:35:00 1.2 C 3.84 g/m*3 1.2 C 4.8 km/h
849 31-03-2020 23:40:00 1.2 C 3.89 g/m*3 1.2 C 4.8 km/h
850 31-03-2020 23:45:00 1.1 C 3.87 g/m*3 1.1 C 3.2 km/h
Sensor: Nr:Datum:Temp:Abs-Feuchte:Windchill:Wind:
Aussen-T/F 851 31-03-2020 23:50:00 1.1 C 3.87 g/m*3 1.1 C 3.2 km/h
852 31-03-2020 23:55:00 1.1 C 3.87 g/m*3 1.1 C 3.2 km/h
853 01-04-2020 00:00:00 1 C 3.84 g/m*3 1 C 3.2 km/h
854 01-04-2020 00:05:00 0.9 C 3.81 g/m*3 0.9 C 1.6 km/h
855 01-04-2020 00:10:00 0.8 C 3.84 g/m*3 0.8 C 1.6 km/h
856 01-04-2020 00:15:00 0.8 C 3.84 g/m*3 0.8 C 3.2 km/h
857 01-04-2020 00:20:00 0.7 C 3.81 g/m*3 0.7 C 3.2 km/h
858 01-04-2020 00:25:00 0.6 C 3.79 g/m*3 0.6 C 4.8 km/h
859 01-04-2020 00:30:00 0.6 C 3.79 g/m*3 0.6 C 4.8 km/h
860 01-04-2020 00:35:00 0.4 C 3.74 g/m*3 0.4 C 1.6 km/h
861 01-04-2020 00:40:00 0.4 C 3.74 g/m*3 0.4 C 3.2 km/h
862 01-04-2020 00:45:00 0.3 C 3.76 g/m*3 0.3 C 4.8 km/h
863 01-04-2020 00:50:00 0.3 C 3.71 g/m*3 0.3 C 0 km/h
864 01-04-2020 00:55:00 0.3 C 3.76 g/m*3 0.3 C 3.2 km/h
865 01-04-2020 01:00:00 0.2 C 3.73 g/m*3 0.2 C 3.2 km/h
866 01-04-2020 01:05:00 0.2 C 3.78 g/m*3 0.2 C 3.2 km/h
867 01-04-2020 01:10:00 0.1 C 3.76 g/m*3 0.1 C 3.2 km/h
868 01-04-2020 01:15:00 0.1 C 3.81 g/m*3 0.1 C 0 km/h
869 01-04-2020 01:20:00 0 C 3.78 g/m*3 0 C 0 km/h
870 01-04-2020 01:25:00 -0.1 C 3.75 g/m*3 -0.1 C 0 km/h
871 01-04-2020 01:30:00 -0.2 C 3.73 g/m*3 -0.2 C 0 km/h
872 01-04-2020 01:35:00 -0.2 C 3.73 g/m*3 -0.2 C 1.6 km/h
873 01-04-2020 01:40:00 -0.3 C 3.75 g/m*3 -0.3 C 0 km/h
874 01-04-2020 01:45:00 -0.4 C 3.72 g/m*3 -0.4 C 0 km/h
875 01-04-2020 01:50:00 -0.5 C 3.7 g/m*3 -0.5 C 0 km/h
Sensor: Nr:Datum:Temp:Abs-Feuchte:Windchill:Wind:
Aussen-T/F 876 01-04-2020 01:55:00 -0.6 C 3.67 g/m*3 -0.6 C 0 km/h
877 01-04-2020 02:00:00 -0.7 C 3.65 g/m*3 -0.7 C 0 km/h
878 01-04-2020 02:05:00 -0.8 C 3.62 g/m*3 -0.8 C 0 km/h
879 01-04-2020 02:10:00 -0.8 C 3.67 g/m*3 -0.8 C 0 km/h
880 01-04-2020 02:15:00 -0.9 C 3.64 g/m*3 -0.9 C 0 km/h
881 01-04-2020 02:20:00 -0.9 C 3.64 g/m*3 -0.9 C 0 km/h
882 01-04-2020 02:25:00 -1 C 3.62 g/m*3 -1 C 0 km/h
883 01-04-2020 02:30:00 -1.1 C 3.59 g/m*3 -1.1 C 0 km/h
884 01-04-2020 02:35:00 -1.1 C 3.59 g/m*3 -1.1 C 0 km/h
885 01-04-2020 02:40:00 -1.2 C 3.57 g/m*3 -1.2 C 0 km/h
886 01-04-2020 02:45:00 -1.2 C 3.61 g/m*3 -1.2 C 0 km/h
887 01-04-2020 02:50:00 -1.3 C 3.59 g/m*3 -1.3 C 0 km/h
888 01-04-2020 02:55:00 -1.3 C 3.59 g/m*3 -1.3 C 0 km/h
889 01-04-2020 03:00:00 -1.3 C 3.59 g/m*3 -1.3 C 0 km/h
890 01-04-2020 03:05:00 -1.4 C 3.52 g/m*3 -1.4 C 0 km/h
891 01-04-2020 03:10:00 -1.4 C 3.52 g/m*3 -1.4 C 0 km/h
892 01-04-2020 03:15:00 -1.5 C 3.49 g/m*3 -1.5 C 0 km/h
893 01-04-2020 03:20:00 -1.6 C 3.51 g/m*3 -1.6 C 0 km/h
894 01-04-2020 03:25:00 -1.7 C 3.49 g/m*3 -1.7 C 0 km/h
895 01-04-2020 03:30:00 -1.7 C 3.49 g/m*3 -1.7 C 0 km/h
896 01-04-2020 03:35:00 -1.7 C 3.49 g/m*3 -1.7 C 0 km/h
897 01-04-2020 03:40:00 -1.8 C 3.46 g/m*3 -1.8 C 0 km/h
898 01-04-2020 03:45:00 -1.8 C 3.42 g/m*3 -1.8 C 0 km/h
899 01-04-2020 03:50:00 -1.9 C 3.44 g/m*3 -1.9 C 0 km/h
900 01-04-2020 03:55:00 -1.9 C 3.44 g/m*3 -1.9 C 0 km/h
Sensor: Nr:Datum:Temp:Abs-Feuchte:Windchill:Wind:
Aussen-T/F 901 01-04-2020 04:00:00 -1.9 C 3.44 g/m*3 -1.9 C 0 km/h
902 01-04-2020 04:05:00 -1.9 C 3.44 g/m*3 -1.9 C 0 km/h
903 01-04-2020 04:10:00 -2 C 3.41 g/m*3 -2 C 0 km/h
904 01-04-2020 04:15:00 -2.1 C 3.39 g/m*3 -2.1 C 0 km/h
905 01-04-2020 04:20:00 -2.1 C 3.39 g/m*3 -2.1 C 0 km/h
906 01-04-2020 04:25:00 -2.2 C 3.33 g/m*3 -2.2 C 0 km/h
907 01-04-2020 04:30:00 -2.2 C 3.37 g/m*3 -2.2 C 0 km/h
908 01-04-2020 04:35:00 -2.3 C 3.34 g/m*3 -2.3 C 0 km/h
909 01-04-2020 04:40:00 -2.3 C 3.34 g/m*3 -2.3 C 0 km/h
910 01-04-2020 04:45:00 -2.3 C 3.34 g/m*3 -2.3 C 0 km/h
911 01-04-2020 04:50:00 -2.4 C 3.32 g/m*3 -2.4 C 0 km/h
912 01-04-2020 04:55:00 -2.4 C 3.32 g/m*3 -2.4 C 0 km/h
913 01-04-2020 05:00:00 -2.4 C 3.36 g/m*3 -2.4 C 0 km/h
914 01-04-2020 05:05:00 -2.5 C 3.34 g/m*3 -2.5 C 0 km/h
915 01-04-2020 05:10:00 -2.6 C 3.31 g/m*3 -2.6 C 0 km/h
916 01-04-2020 05:15:00 -2.6 C 3.31 g/m*3 -2.6 C 0 km/h
917 01-04-2020 05:20:00 -2.7 C 3.29 g/m*3 -2.7 C 0 km/h
918 01-04-2020 05:25:00 -2.7 C 3.33 g/m*3 -2.7 C 0 km/h
919 01-04-2020 05:30:00 -2.7 C 3.33 g/m*3 -2.7 C 0 km/h
920 01-04-2020 05:35:00 -2.7 C 3.33 g/m*3 -2.7 C 0 km/h
921 01-04-2020 05:40:00 -2.7 C 3.33 g/m*3 -2.7 C 0 km/h
922 01-04-2020 05:45:00 -2.8 C 3.31 g/m*3 -2.8 C 0 km/h
923 01-04-2020 05:50:00 -2.8 C 3.31 g/m*3 -2.8 C 0 km/h
924 01-04-2020 05:55:00 -2.8 C 3.31 g/m*3 -2.8 C 0 km/h
925 01-04-2020 06:00:00 -2.9 C 3.28 g/m*3 -2.9 C 0 km/h
Sensor: Nr:Datum:Temp:Abs-Feuchte:Windchill:Wind:
Aussen-T/F 926 01-04-2020 06:05:00 -2.9 C 3.28 g/m*3 -2.9 C 0 km/h
927 01-04-2020 06:10:00 -2.9 C 3.32 g/m*3 -2.9 C 0 km/h
928 01-04-2020 06:15:00 -3 C 3.3 g/m*3 -3 C 0 km/h
929 01-04-2020 06:20:00 -3 C 3.3 g/m*3 -3 C 0 km/h
930 01-04-2020 06:25:00 -3.1 C 3.28 g/m*3 -3.1 C 0 km/h
931 01-04-2020 06:30:00 -3.1 C 3.28 g/m*3 -3.1 C 0 km/h
932 01-04-2020 06:35:00 -3.1 C 3.32 g/m*3 -3.1 C 0 km/h
933 01-04-2020 06:40:00 -3.1 C 3.32 g/m*3 -3.1 C 0 km/h
934 01-04-2020 06:45:00 -3.1 C 3.32 g/m*3 -3.1 C 0 km/h
935 01-04-2020 06:50:00 -3.2 C 3.29 g/m*3 -3.2 C 0 km/h
936 01-04-2020 06:55:00 -3.2 C 3.29 g/m*3 -3.2 C 0 km/h
937 01-04-2020 07:00:00 -3.2 C 3.29 g/m*3 -3.2 C 0 km/h
938 01-04-2020 07:05:00 -3.3 C 3.27 g/m*3 -3.3 C 0 km/h
939 01-04-2020 07:10:00 -3.3 C 3.27 g/m*3 -3.3 C 0 km/h
940 01-04-2020 07:15:00 -3.4 C 3.25 g/m*3 -3.4 C 0 km/h
941 01-04-2020 07:20:00 -3.4 C 3.25 g/m*3 -3.4 C 0 km/h
942 01-04-2020 07:25:00 -3.4 C 3.25 g/m*3 -3.4 C 0 km/h
943 01-04-2020 07:30:00 -3.4 C 3.28 g/m*3 -3.4 C 0 km/h
944 01-04-2020 07:35:00 -3.3 C 3.31 g/m*3 -3.3 C 0 km/h
945 01-04-2020 07:40:00 -3.3 C 3.27 g/m*3 -3.3 C 0 km/h
946 01-04-2020 07:45:00 -3.3 C 3.27 g/m*3 -3.3 C 0 km/h
947 01-04-2020 07:50:00 -3.3 C 3.31 g/m*3 -3.3 C 0 km/h
948 01-04-2020 07:55:00 -3.3 C 3.31 g/m*3 -3.3 C 0 km/h
949 01-04-2020 08:00:00 -3.2 C 3.33 g/m*3 -3.2 C 0 km/h
950 01-04-2020 08:05:00 -3.2 C 3.33 g/m*3 -3.2 C 0 km/h
Sensor: Nr:Datum:Temp:Abs-Feuchte:Windchill:Wind:
Aussen-T/F 951 01-04-2020 08:10:00 -3.2 C 3.33 g/m*3 -3.2 C 0 km/h
952 01-04-2020 08:15:00 -3.1 C 3.39 g/m*3 -3.1 C 0 km/h
953 01-04-2020 08:20:00 -2.9 C 3.44 g/m*3 -2.9 C 0 km/h
954 01-04-2020 08:25:00 -2.9 C 3.44 g/m*3 -2.9 C 0 km/h
955 01-04-2020 08:30:00 -2.9 C 3.4 g/m*3 -2.9 C 0 km/h
956 01-04-2020 08:35:00 -2.8 C 3.43 g/m*3 -2.8 C 0 km/h
957 01-04-2020 08:40:00 -2.8 C 3.43 g/m*3 -2.8 C 0 km/h
958 01-04-2020 08:45:00 -2.8 C 3.43 g/m*3 -2.8 C 0 km/h
959 01-04-2020 08:50:00 -2.8 C 3.43 g/m*3 -2.8 C 0 km/h
960 01-04-2020 08:55:00 -2.7 C 3.45 g/m*3 -2.7 C 0 km/h
961 01-04-2020 09:00:00 -2.6 C 3.43 g/m*3 -2.6 C 0 km/h
962 01-04-2020 09:05:00 -2.6 C 3.43 g/m*3 -2.6 C 0 km/h
963 01-04-2020 09:10:00 -2.4 C 3.48 g/m*3 -2.4 C 0 km/h
964 01-04-2020 09:15:00 -2.3 C 3.51 g/m*3 -2.3 C 0 km/h
965 01-04-2020 09:20:00 -2.3 C 3.51 g/m*3 -2.3 C 0 km/h
966 01-04-2020 09:25:00 -2.2 C 3.53 g/m*3 -2.2 C 0 km/h
967 01-04-2020 09:30:00 -2.1 C 3.56 g/m*3 -2.1 C 0 km/h
968 01-04-2020 09:35:00 -1.9 C 3.57 g/m*3 -1.9 C 0 km/h
969 01-04-2020 09:40:00 -1.8 C 3.59 g/m*3 -1.8 C 0 km/h
970 01-04-2020 09:45:00 -1.7 C 3.62 g/m*3 -1.7 C 1.6 km/h
971 01-04-2020 09:50:00 -1.7 C 3.62 g/m*3 -1.7 C 1.6 km/h
972 01-04-2020 09:55:00 -1.6 C 3.64 g/m*3 -1.6 C 0 km/h
973 01-04-2020 10:00:00 -1.4 C 3.69 g/m*3 -1.4 C 1.6 km/h
974 01-04-2020 10:05:00 -1.3 C 3.72 g/m*3 -1.3 C 0 km/h
975 01-04-2020 10:10:00 -1.1 C 3.77 g/m*3 -1.1 C 0 km/h
Sensor: Nr:Datum:Temp:Abs-Feuchte:Windchill:Wind:
Aussen-T/F 976 01-04-2020 10:15:00 -0.9 C 3.82 g/m*3 -0.9 C 0 km/h
977 01-04-2020 10:20:00 -0.6 C 3.9 g/m*3 -0.6 C 0 km/h
978 01-04-2020 10:25:00 -0.3 C 3.94 g/m*3 -0.3 C 0 km/h
979 01-04-2020 10:30:00 -0.1 C 3.99 g/m*3 -0.1 C 0 km/h
980 01-04-2020 10:35:00 0.2 C 4.03 g/m*3 0.2 C 0 km/h
981 01-04-2020 10:40:00 0.6 C 4.14 g/m*3 0.6 C 0 km/h
982 01-04-2020 10:45:00 0.9 C 4.18 g/m*3 0.9 C 0 km/h
983 01-04-2020 10:50:00 1.3 C 4.19 g/m*3 1.3 C 0 km/h
984 01-04-2020 10:55:00 1.8 C 4.28 g/m*3 1.8 C 0 km/h
985 01-04-2020 11:00:00 2.3 C 4.31 g/m*3 2.3 C 0 km/h
986 01-04-2020 11:05:00 2.6 C 4.34 g/m*3 2.6 C 0 km/h
987 01-04-2020 11:10:00 2.8 C 4.34 g/m*3 2.8 C 0 km/h
988 01-04-2020 11:15:00 3.1 C 4.25 g/m*3 3.1 C 0 km/h
989 01-04-2020 11:20:00 3.3 C 4.19 g/m*3 3.3 C 0 km/h
990 01-04-2020 11:25:00 3.7 C 3.99 g/m*3 3.7 C 0 km/h
991 01-04-2020 11:30:00 3.9 C 3.92 g/m*3 3.9 C 3.2 km/h
992 01-04-2020 11:35:00 4.3 C 3.76 g/m*3 4.3 C 1.6 km/h
993 01-04-2020 11:40:00 4.7 C 3.93 g/m*3 4.7 C 3.2 km/h
994 01-04-2020 11:45:00 5.1 C 3.9 g/m*3 5.1 C 3.2 km/h
995 01-04-2020 11:50:00 5.4 C 3.77 g/m*3 5.4 C 0 km/h
996 01-04-2020 11:55:00 5.7 C 3.56 g/m*3 5.7 C 3.2 km/h
997 01-04-2020 12:00:00 6 C 3.63 g/m*3 6 C 1.6 km/h
998 01-04-2020 12:05:00 6.3 C 3.55 g/m*3 6.3 C 1.6 km/h
999 01-04-2020 12:10:00 6.7 C 3.65 g/m*3 5.56 C 6.4 km/h
1000 01-04-2020 12:15:00 6.8 C 3.59 g/m*3 6.8 C 4.8 km/h
Sensor: Nr:Datum:Temp:Abs-Feuchte:Windchill:Wind:
Aussen-T/F 1001 01-04-2020 12:20:00 7.1 C 3.59 g/m*3 5.23 C 9.7 km/h
1002 01-04-2020 12:25:00 7.3 C 3.71 g/m*3 5.47 C 9.7 km/h
1003 01-04-2020 12:30:00 7.6 C 3.63 g/m*3 6.6 C 6.4 km/h
1004 01-04-2020 12:35:00 7.7 C 3.65 g/m*3 7.7 C 4.8 km/h
1005 01-04-2020 12:40:00 7.8 C 3.59 g/m*3 6.83 C 6.4 km/h
1006 01-04-2020 12:45:00 7.9 C 3.53 g/m*3 7.9 C 4.8 km/h
1007 01-04-2020 12:50:00 8.1 C 3.66 g/m*3 7.17 C 6.4 km/h
1008 01-04-2020 12:55:00 8.2 C 3.6 g/m*3 7.29 C 6.4 km/h
1009 01-04-2020 13:00:00 8.3 C 3.71 g/m*3 7.41 C 6.4 km/h
1010 01-04-2020 13:05:00 8.6 C 3.61 g/m*3 7.75 C 6.4 km/h
1011 01-04-2020 13:10:00 8.6 C 3.61 g/m*3 8.6 C 4.8 km/h
1012 01-04-2020 13:15:00 8.7 C 3.63 g/m*3 8.7 C 4.8 km/h
1013 01-04-2020 13:20:00 8.8 C 3.57 g/m*3 6.72 C 12.9 km/h
1014 01-04-2020 13:25:00 8.7 C 3.46 g/m*3 6.6 C 12.9 km/h
1015 01-04-2020 13:30:00 8.7 C 3.55 g/m*3 7.46 C 8.1 km/h
1016 01-04-2020 13:35:00 8.8 C 3.57 g/m*3 8.8 C 3.2 km/h
1017 01-04-2020 13:40:00 8.9 C 3.59 g/m*3 8.9 C 3.2 km/h
1018 01-04-2020 13:45:00 9.2 C 3.57 g/m*3 9.2 C 4.8 km/h
1019 01-04-2020 13:50:00 9.2 C 3.57 g/m*3 8.45 C 6.4 km/h
1020 01-04-2020 13:55:00 9.2 C 3.57 g/m*3 8.05 C 8.1 km/h
1021 01-04-2020 14:00:00 9.2 C 3.57 g/m*3 7.73 C 9.7 km/h
1022 01-04-2020 14:05:00 9.3 C 3.59 g/m*3 8.16 C 8.1 km/h
1023 01-04-2020 14:10:00 9.4 C 3.62 g/m*3 8.68 C 6.4 km/h
1024 01-04-2020 14:15:00 9.5 C 3.55 g/m*3 8.79 C 6.4 km/h
1025 01-04-2020 14:20:00 9.8 C 3.71 g/m*3 8.45 C 9.7 km/h
Sensor: Nr:Datum:Temp:Abs-Feuchte:Windchill:Wind:
Aussen-T/F 1026 01-04-2020 14:25:00 9.9 C 3.73 g/m*3 8.87 C 8.1 km/h
1027 01-04-2020 14:30:00 10.1 C 3.59 g/m*3 10.1 C 4.8 km/h
1028 01-04-2020 14:35:00 10.3 C 3.54 g/m*3 8.34 C 14.5 km/h
1029 01-04-2020 14:40:00 10.3 C 3.45 g/m*3 9.34 C 8.1 km/h
1030 01-04-2020 14:45:00 10.3 C 3.54 g/m*3 9.72 C 6.4 km/h
1031 01-04-2020 14:50:00 10.3 C 3.26 g/m*3 9.04 C 9.7 km/h
1032 01-04-2020 14:55:00 10.3 C 3.26 g/m*3 9.72 C 6.4 km/h
1033 01-04-2020 15:00:00 10.3 C 3.26 g/m*3 9.34 C 8.1 km/h
1034 01-04-2020 15:05:00 10.2 C 3.24 g/m*3 10.2 C 4.8 km/h
1035 01-04-2020 15:10:00 10.3 C 3.35 g/m*3 9.72 C 6.4 km/h
1036 01-04-2020 15:15:00 10.4 C 3.47 g/m*3 9.46 C 8.1 km/h
1037 01-04-2020 15:20:00 10.7 C 3.34 g/m*3 10.18 C 6.4 km/h
1038 01-04-2020 15:25:00 10.8 C 3.26 g/m*3 9.64 C 9.7 km/h
1039 01-04-2020 15:30:00 10.7 C 3.24 g/m*3 10.18 C 6.4 km/h
1040 01-04-2020 15:35:00 10.7 C 3.24 g/m*3 10.7 C 3.2 km/h
1041 01-04-2020 15:40:00 10.8 C 3.26 g/m*3 9.93 C 8.1 km/h
1042 01-04-2020 15:45:00 10.9 C 3.08 g/m*3 9.76 C 9.7 km/h
1043 01-04-2020 15:50:00 11 C 3.1 g/m*3 10.52 C 6.4 km/h
1044 01-04-2020 15:55:00 11.1 C 3.12 g/m*3 11.1 C 4.8 km/h
1045 01-04-2020 16:00:00 11.1 C 3.32 g/m*3 11.1 C 6.4 km/h
1046 01-04-2020 16:05:00 11.1 C 3.32 g/m*3 11.1 C 3.2 km/h
1047 01-04-2020 16:10:00 11.2 C 3.45 g/m*3 11.2 C 4.8 km/h
1048 01-04-2020 16:15:00 11.4 C 3.39 g/m*3 11.4 C 8.1 km/h
1049 01-04-2020 16:20:00 11.5 C 3.31 g/m*3 11.5 C 8.1 km/h
1050 01-04-2020 16:25:00 11.6 C 3.22 g/m*3 11.6 C 4.8 km/h
Sensor: Nr:Datum:Temp:Abs-Feuchte:Windchill:Wind:
Aussen-T/F 1051 01-04-2020 16:30:00 11.6 C 3.22 g/m*3 11.6 C 6.4 km/h
1052 01-04-2020 16:35:00 11.7 C 3.14 g/m*3 11.7 C 4.8 km/h
1053 01-04-2020 16:40:00 11.8 C 3.47 g/m*3 11.8 C 3.2 km/h
1054 01-04-2020 16:45:00 12.2 C 3.45 g/m*3 12.2 C 3.2 km/h
1055 01-04-2020 16:50:00 12.6 C 3.54 g/m*3 12.6 C 9.7 km/h
1056 01-04-2020 16:55:00 12.6 C 3.65 g/m*3 12.6 C 8.1 km/h
1057 01-04-2020 17:00:00 12.6 C 3.54 g/m*3 12.6 C 8.1 km/h
1058 01-04-2020 17:05:00 12.4 C 3.5 g/m*3 12.4 C 9.7 km/h
1059 01-04-2020 17:10:00 12.9 C 4.06 g/m*3 12.9 C 3.2 km/h
1060 01-04-2020 17:15:00 13.2 C 3.79 g/m*3 13.2 C 6.4 km/h
1061 01-04-2020 17:20:00 13.2 C 3.67 g/m*3 13.2 C 6.4 km/h
1062 01-04-2020 17:25:00 13.3 C 3.81 g/m*3 13.3 C 8.1 km/h
1063 01-04-2020 17:30:00 13.2 C 3.56 g/m*3 13.2 C 6.4 km/h
1064 01-04-2020 17:35:00 13.3 C 3.58 g/m*3 13.3 C 3.2 km/h
1065 01-04-2020 17:40:00 13.3 C 3.58 g/m*3 13.3 C 8.1 km/h
1066 01-04-2020 17:45:00 13.2 C 3.67 g/m*3 13.2 C 6.4 km/h
1067 01-04-2020 17:50:00 13.2 C 3.67 g/m*3 13.2 C 4.8 km/h
1068 01-04-2020 17:55:00 13.1 C 3.65 g/m*3 13.1 C 9.7 km/h
1069 01-04-2020 18:00:00 12.9 C 3.61 g/m*3 12.9 C 8.1 km/h
1070 01-04-2020 18:05:00 12.6 C 3.65 g/m*3 12.6 C 9.7 km/h
1071 01-04-2020 18:10:00 12.5 C 3.63 g/m*3 12.5 C 8.1 km/h
1072 01-04-2020 18:15:00 12.6 C 3.65 g/m*3 12.6 C 8.1 km/h
1073 01-04-2020 18:20:00 12.7 C 3.67 g/m*3 12.7 C 6.4 km/h
1074 01-04-2020 18:25:00 12.9 C 3.72 g/m*3 12.9 C 6.4 km/h
1075 01-04-2020 18:30:00 12.9 C 3.61 g/m*3 12.9 C 4.8 km/h
Sensor: Nr:Datum:Temp:Abs-Feuchte:Windchill:Wind:
Aussen-T/F 1076 01-04-2020 18:35:00 13 C 3.74 g/m*3 13 C 4.8 km/h
1077 01-04-2020 18:40:00 13.1 C 3.77 g/m*3 13.1 C 4.8 km/h
1078 01-04-2020 18:45:00 13.2 C 3.67 g/m*3 13.2 C 4.8 km/h
1079 01-04-2020 18:50:00 13.2 C 3.67 g/m*3 13.2 C 4.8 km/h
1080 01-04-2020 18:55:00 13.2 C 3.79 g/m*3 13.2 C 3.2 km/h
1081 01-04-2020 19:00:00 13.3 C 3.7 g/m*3 13.3 C 6.4 km/h
1082 01-04-2020 19:05:00 13 C 3.74 g/m*3 13 C 4.8 km/h
1083 01-04-2020 19:10:00 12.8 C 3.7 g/m*3 12.8 C 6.4 km/h
1084 01-04-2020 19:15:00 12.7 C 3.67 g/m*3 12.7 C 6.4 km/h
1085 01-04-2020 19:20:00 12.4 C 3.71 g/m*3 12.4 C 6.4 km/h
1086 01-04-2020 19:25:00 12.2 C 3.67 g/m*3 12.2 C 6.4 km/h
1087 01-04-2020 19:30:00 11.8 C 3.58 g/m*3 11.8 C 9.7 km/h
1088 01-04-2020 19:35:00 11.5 C 3.62 g/m*3 11.5 C 4.8 km/h
1089 01-04-2020 19:40:00 11.2 C 3.55 g/m*3 11.2 C 4.8 km/h
1090 01-04-2020 19:45:00 10.9 C 3.58 g/m*3 10.04 C 8.1 km/h
1091 01-04-2020 19:50:00 10.7 C 3.54 g/m*3 10.7 C 4.8 km/h
1092 01-04-2020 19:55:00 10.4 C 3.76 g/m*3 10.4 C 1.6 km/h
1093 01-04-2020 20:00:00 10.1 C 3.59 g/m*3 9.48 C 6.4 km/h
1094 01-04-2020 20:05:00 9.7 C 3.69 g/m*3 9.7 C 4.8 km/h
1095 01-04-2020 20:10:00 9.4 C 3.8 g/m*3 9.4 C 1.6 km/h
1096 01-04-2020 20:15:00 9.2 C 3.48 g/m*3 7.46 C 11.3 km/h
1097 01-04-2020 20:20:00 9.1 C 3.46 g/m*3 8.33 C 6.4 km/h
1098 01-04-2020 20:25:00 9.1 C 3.64 g/m*3 9.1 C 4.8 km/h
1099 01-04-2020 20:30:00 8.8 C 3.83 g/m*3 8.8 C 1.6 km/h
1100 01-04-2020 20:35:00 8.4 C 3.9 g/m*3 8.4 C 0 km/h
Sensor: Nr:Datum:Temp:Abs-Feuchte:Windchill:Wind:
Aussen-T/F 1101 01-04-2020 20:40:00 7.8 C 4 g/m*3 6.83 C 6.4 km/h
1102 01-04-2020 20:45:00 7.4 C 4.06 g/m*3 7.4 C 4.8 km/h
1103 01-04-2020 20:50:00 6.9 C 4.16 g/m*3 5.79 C 6.4 km/h
1104 01-04-2020 20:55:00 6.6 C 4.08 g/m*3 5.44 C 6.4 km/h
1105 01-04-2020 21:00:00 6.3 C 4.07 g/m*3 5.1 C 6.4 km/h
1106 01-04-2020 21:05:00 6 C 4.06 g/m*3 6 C 4.8 km/h
1107 01-04-2020 21:10:00 5.7 C 4.06 g/m*3 4.4 C 6.4 km/h
1108 01-04-2020 21:15:00 5.6 C 4.03 g/m*3 4.29 C 6.4 km/h
1109 01-04-2020 21:20:00 5.4 C 4.12 g/m*3 5.4 C 4.8 km/h
1110 01-04-2020 21:25:00 5.3 C 4.09 g/m*3 5.3 C 4.8 km/h
1111 01-04-2020 21:30:00 5.2 C 4.06 g/m*3 5.2 C 4.8 km/h
1112 01-04-2020 21:35:00 5.1 C 4.1 g/m*3 5.1 C 4.8 km/h
1113 01-04-2020 21:40:00 5 C 4.08 g/m*3 3.59 C 6.4 km/h
1114 01-04-2020 21:45:00 4.9 C 4.12 g/m*3 4.9 C 1.6 km/h
1115 01-04-2020 21:50:00 4.7 C 4.13 g/m*3 4.7 C 3.2 km/h
1116 01-04-2020 21:55:00 4.6 C 4.17 g/m*3 4.6 C 4.8 km/h
1117 01-04-2020 22:00:00 4.4 C 4.05 g/m*3 4.4 C 4.8 km/h
1118 01-04-2020 22:05:00 4.3 C 4.09 g/m*3 4.3 C 4.8 km/h
1119 01-04-2020 22:10:00 4.2 C 4.12 g/m*3 4.2 C 4.8 km/h
1120 01-04-2020 22:15:00 4 C 4.07 g/m*3 4 C 4.8 km/h
1121 01-04-2020 22:20:00 3.9 C 4.11 g/m*3 3.9 C 3.2 km/h
1122 01-04-2020 22:25:00 3.7 C 4.11 g/m*3 3.7 C 1.6 km/h
1123 01-04-2020 22:30:00 3.6 C 4.09 g/m*3 3.6 C 3.2 km/h
1124 01-04-2020 22:35:00 3.5 C 4.06 g/m*3 3.5 C 3.2 km/h
1125 01-04-2020 22:40:00 3.5 C 4.06 g/m*3 3.5 C 0 km/h
Sensor: Nr:Datum:Temp:Abs-Feuchte:Windchill:Wind:
Aussen-T/F 1126 01-04-2020 22:45:00 3.4 C 4.03 g/m*3 3.4 C 1.6 km/h
1127 01-04-2020 22:50:00 3.3 C 4.06 g/m*3 3.3 C 0 km/h
1128 01-04-2020 22:55:00 3.2 C 4.1 g/m*3 3.2 C 0 km/h
1129 01-04-2020 23:00:00 3.1 C 4.13 g/m*3 3.1 C 1.6 km/h
1130 01-04-2020 23:05:00 2.9 C 4.13 g/m*3 2.9 C 1.6 km/h
1131 01-04-2020 23:10:00 2.7 C 4.08 g/m*3 2.7 C 1.6 km/h
1132 01-04-2020 23:15:00 2.7 C 4.14 g/m*3 2.7 C 0 km/h
1133 01-04-2020 23:20:00 2.7 C 4.14 g/m*3 2.7 C 0 km/h
1134 01-04-2020 23:25:00 2.6 C 4.17 g/m*3 2.6 C 0 km/h
1135 01-04-2020 23:30:00 2.4 C 4.05 g/m*3 2.4 C 0 km/h
1136 01-04-2020 23:35:00 2.3 C 4.03 g/m*3 2.3 C 0 km/h
1137 01-04-2020 23:40:00 2.2 C 4.06 g/m*3 2.2 C 0 km/h
1138 01-04-2020 23:45:00 2 C 4.06 g/m*3 2 C 1.6 km/h
1139 01-04-2020 23:50:00 1.9 C 4.03 g/m*3 1.9 C 1.6 km/h
1140 01-04-2020 23:55:00 1.8 C 4 g/m*3 1.8 C 3.2 km/h
1141 02-04-2020 00:00:00 1.8 C 4 g/m*3 1.8 C 1.6 km/h
1142 02-04-2020 00:05:00 1.6 C 4 g/m*3 1.6 C 0 km/h
1143 02-04-2020 00:10:00 1.4 C 3.95 g/m*3 1.4 C 0 km/h
1144 02-04-2020 00:15:00 1.3 C 3.92 g/m*3 1.3 C 0 km/h
1145 02-04-2020 00:20:00 1.3 C 3.92 g/m*3 1.3 C 0 km/h
1146 02-04-2020 00:25:00 1.2 C 3.89 g/m*3 1.2 C 0 km/h
1147 02-04-2020 00:30:00 1.1 C 3.92 g/m*3 1.1 C 3.2 km/h
1148 02-04-2020 00:35:00 1 C 3.89 g/m*3 1 C 1.6 km/h
1149 02-04-2020 00:40:00 1 C 3.94 g/m*3 1 C 3.2 km/h
1150 02-04-2020 00:45:00 1 C 3.94 g/m*3 1 C 3.2 km/h
Sensor: Nr:Datum:Temp:Abs-Feuchte:Windchill:Wind:
Aussen-T/F 1151 02-04-2020 00:50:00 1 C 3.94 g/m*3 1 C 0 km/h
1152 02-04-2020 00:55:00 0.9 C 3.92 g/m*3 0.9 C 1.6 km/h
1153 02-04-2020 01:00:00 0.8 C 3.94 g/m*3 0.8 C 0 km/h
1154 02-04-2020 01:05:00 0.8 C 3.94 g/m*3 0.8 C 0 km/h
1155 02-04-2020 01:10:00 0.7 C 3.92 g/m*3 0.7 C 0 km/h
1156 02-04-2020 01:15:00 0.6 C 3.94 g/m*3 0.6 C 0 km/h
1157 02-04-2020 01:20:00 0.5 C 3.91 g/m*3 0.5 C 0 km/h
1158 02-04-2020 01:25:00 0.3 C 3.91 g/m*3 0.3 C 0 km/h
1159 02-04-2020 01:30:00 0.3 C 3.91 g/m*3 0.3 C 0 km/h
1160 02-04-2020 01:35:00 0.2 C 3.88 g/m*3 0.2 C 0 km/h
1161 02-04-2020 01:40:00 0.2 C 3.88 g/m*3 0.2 C 0 km/h
1162 02-04-2020 01:45:00 0.2 C 3.88 g/m*3 0.2 C 0 km/h
1163 02-04-2020 01:50:00 0.1 C 3.9 g/m*3 0.1 C 0 km/h
1164 02-04-2020 01:55:00 0.1 C 3.9 g/m*3 0.1 C 0 km/h
1165 02-04-2020 02:00:00 0 C 3.88 g/m*3 0 C 0 km/h
1166 02-04-2020 02:05:00 0 C 3.88 g/m*3 0 C 0 km/h
1167 02-04-2020 02:10:00 0.1 C 3.9 g/m*3 0.1 C 0 km/h
1168 02-04-2020 02:15:00 0 C 3.88 g/m*3 0 C 0 km/h
1169 02-04-2020 02:20:00 -0.1 C 3.85 g/m*3 -0.1 C 0 km/h
1170 02-04-2020 02:25:00 -0.1 C 3.85 g/m*3 -0.1 C 0 km/h
1171 02-04-2020 02:30:00 -0.2 C 3.87 g/m*3 -0.2 C 0 km/h
1172 02-04-2020 02:35:00 -0.3 C 3.84 g/m*3 -0.3 C 0 km/h
1173 02-04-2020 02:40:00 -0.3 C 3.84 g/m*3 -0.3 C 0 km/h
1174 02-04-2020 02:45:00 -0.4 C 3.82 g/m*3 -0.4 C 0 km/h
1175 02-04-2020 02:50:00 -0.4 C 3.82 g/m*3 -0.4 C 0 km/h
Sensor: Nr:Datum:Temp:Abs-Feuchte:Windchill:Wind:
Aussen-T/F 1176 02-04-2020 02:55:00 -0.5 C 3.84 g/m*3 -0.5 C 0 km/h
1177 02-04-2020 03:00:00 -0.6 C 3.81 g/m*3 -0.6 C 0 km/h
1178 02-04-2020 03:05:00 -0.6 C 3.81 g/m*3 -0.6 C 0 km/h
1179 02-04-2020 03:10:00 -0.6 C 3.81 g/m*3 -0.6 C 0 km/h
1180 02-04-2020 03:15:00 -0.5 C 3.84 g/m*3 -0.5 C 1.6 km/h
1181 02-04-2020 03:20:00 -0.5 C 3.84 g/m*3 -0.5 C 0 km/h
1182 02-04-2020 03:25:00 -0.5 C 3.84 g/m*3 -0.5 C 0 km/h
1183 02-04-2020 03:30:00 -0.6 C 3.81 g/m*3 -0.6 C 0 km/h
1184 02-04-2020 03:35:00 -0.6 C 3.81 g/m*3 -0.6 C 0 km/h
1185 02-04-2020 03:40:00 -0.6 C 3.81 g/m*3 -0.6 C 0 km/h
1186 02-04-2020 03:45:00 -0.6 C 3.81 g/m*3 -0.6 C 0 km/h
1187 02-04-2020 03:50:00 -0.6 C 3.86 g/m*3 -0.6 C 0 km/h
1188 02-04-2020 03:55:00 -0.7 C 3.83 g/m*3 -0.7 C 0 km/h
1189 02-04-2020 04:00:00 -0.7 C 3.78 g/m*3 -0.7 C 0 km/h
1190 02-04-2020 04:05:00 -0.8 C 3.8 g/m*3 -0.8 C 0 km/h
1191 02-04-2020 04:10:00 -0.7 C 3.83 g/m*3 -0.7 C 1.6 km/h
1192 02-04-2020 04:15:00 -0.7 C 3.83 g/m*3 -0.7 C 0 km/h
1193 02-04-2020 04:20:00 -0.6 C 3.86 g/m*3 -0.6 C 0 km/h
1194 02-04-2020 04:25:00 -0.6 C 3.86 g/m*3 -0.6 C 0 km/h
1195 02-04-2020 04:30:00 -0.6 C 3.86 g/m*3 -0.6 C 0 km/h
1196 02-04-2020 04:35:00 -0.7 C 3.78 g/m*3 -0.7 C 0 km/h
1197 02-04-2020 04:40:00 -0.9 C 3.73 g/m*3 -0.9 C 0 km/h
1198 02-04-2020 04:45:00 -1.1 C 3.73 g/m*3 -1.1 C 1.6 km/h
1199 02-04-2020 04:50:00 -1.2 C 3.7 g/m*3 -1.2 C 0 km/h
1200 02-04-2020 04:55:00 -1.3 C 3.67 g/m*3 -1.3 C 0 km/h
Sensor: Nr:Datum:Temp:Abs-Feuchte:Windchill:Wind:
Aussen-T/F 1201 02-04-2020 05:00:00 -1.4 C 3.69 g/m*3 -1.4 C 0 km/h
1202 02-04-2020 05:05:00 -1.4 C 3.69 g/m*3 -1.4 C 0 km/h
1203 02-04-2020 05:10:00 -1.5 C 3.67 g/m*3 -1.5 C 0 km/h
1204 02-04-2020 05:15:00 -1.6 C 3.68 g/m*3 -1.6 C 0 km/h
1205 02-04-2020 05:20:00 -1.6 C 3.68 g/m*3 -1.6 C 0 km/h
1206 02-04-2020 05:25:00 -1.6 C 3.68 g/m*3 -1.6 C 0 km/h
1207 02-04-2020 05:30:00 -1.6 C 3.68 g/m*3 -1.6 C 0 km/h
1208 02-04-2020 05:35:00 -1.6 C 3.68 g/m*3 -1.6 C 0 km/h
1209 02-04-2020 05:40:00 -1.7 C 3.66 g/m*3 -1.7 C 0 km/h
1210 02-04-2020 05:45:00 -1.7 C 3.7 g/m*3 -1.7 C 0 km/h
1211 02-04-2020 05:50:00 -1.6 C 3.73 g/m*3 -1.6 C 0 km/h
1212 02-04-2020 05:55:00 -1.5 C 3.75 g/m*3 -1.5 C 0 km/h
1213 02-04-2020 06:00:00 -1.5 C 3.75 g/m*3 -1.5 C 0 km/h
1214 02-04-2020 06:05:00 -1.6 C 3.73 g/m*3 -1.6 C 0 km/h
1215 02-04-2020 06:10:00 -1.6 C 3.73 g/m*3 -1.6 C 0 km/h
1216 02-04-2020 06:15:00 -1.7 C 3.66 g/m*3 -1.7 C 0 km/h
1217 02-04-2020 06:20:00 -1.8 C 3.63 g/m*3 -1.8 C 0 km/h
1218 02-04-2020 06:25:00 -1.8 C 3.68 g/m*3 -1.8 C 0 km/h
1219 02-04-2020 06:30:00 -1.8 C 3.72 g/m*3 -1.8 C 0 km/h
1220 02-04-2020 06:35:00 -1.7 C 3.75 g/m*3 -1.7 C 0 km/h
1221 02-04-2020 06:40:00 -1.8 C 3.68 g/m*3 -1.8 C 0 km/h
1222 02-04-2020 06:45:00 -1.8 C 3.68 g/m*3 -1.8 C 0 km/h
1223 02-04-2020 06:50:00 -1.8 C 3.72 g/m*3 -1.8 C 0 km/h
1224 02-04-2020 06:55:00 -1.8 C 3.72 g/m*3 -1.8 C 0 km/h
1225 02-04-2020 07:00:00 -1.8 C 3.68 g/m*3 -1.8 C 0 km/h
Sensor: Nr:Datum:Temp:Abs-Feuchte:Windchill:Wind:
Aussen-T/F 1226 02-04-2020 07:05:00 -1.9 C 3.65 g/m*3 -1.9 C 0 km/h
1227 02-04-2020 07:10:00 -2 C 3.63 g/m*3 -2 C 0 km/h
1228 02-04-2020 07:15:00 -2 C 3.67 g/m*3 -2 C 0 km/h
1229 02-04-2020 07:20:00 -1.9 C 3.69 g/m*3 -1.9 C 0 km/h
1230 02-04-2020 07:25:00 -1.9 C 3.69 g/m*3 -1.9 C 0 km/h
1231 02-04-2020 07:30:00 -1.9 C 3.69 g/m*3 -1.9 C 0 km/h
1232 02-04-2020 07:35:00 -1.9 C 3.74 g/m*3 -1.9 C 1.6 km/h
1233 02-04-2020 07:40:00 -1.9 C 3.69 g/m*3 -1.9 C 1.6 km/h
1234 02-04-2020 07:45:00 -1.9 C 3.69 g/m*3 -1.9 C 0 km/h
1235 02-04-2020 07:50:00 -1.9 C 3.69 g/m*3 -1.9 C 1.6 km/h
1236 02-04-2020 07:55:00 -1.8 C 3.76 g/m*3 -1.8 C 0 km/h
1237 02-04-2020 08:00:00 -1.8 C 3.76 g/m*3 -1.8 C 0 km/h
1238 02-04-2020 08:05:00 -1.7 C 3.79 g/m*3 -1.7 C 0 km/h
1239 02-04-2020 08:10:00 -1.5 C 3.84 g/m*3 -1.5 C 1.6 km/h
1240 02-04-2020 08:15:00 -1.3 C 3.9 g/m*3 -1.3 C 0 km/h
1241 02-04-2020 08:20:00 -1.3 C 3.85 g/m*3 -1.3 C 0 km/h
1242 02-04-2020 08:25:00 -1.3 C 3.85 g/m*3 -1.3 C 0 km/h
1243 02-04-2020 08:30:00 -1.3 C 3.85 g/m*3 -1.3 C 0 km/h
1244 02-04-2020 08:35:00 -1.3 C 3.85 g/m*3 -1.3 C 0 km/h
1245 02-04-2020 08:40:00 -1.3 C 3.85 g/m*3 -1.3 C 0 km/h
1246 02-04-2020 08:45:00 -1.2 C 3.88 g/m*3 -1.2 C 0 km/h
1247 02-04-2020 08:50:00 -1.2 C 3.88 g/m*3 -1.2 C 0 km/h
1248 02-04-2020 08:55:00 -1.1 C 3.91 g/m*3 -1.1 C 0 km/h
1249 02-04-2020 09:00:00 -1.1 C 3.91 g/m*3 -1.1 C 0 km/h
1250 02-04-2020 09:05:00 -1 C 3.93 g/m*3 -1 C 1.6 km/h
Sensor: Nr:Datum:Temp:Abs-Feuchte:Windchill:Wind:
Aussen-T/F 1251 02-04-2020 09:10:00 -1 C 3.93 g/m*3 -1 C 0 km/h
1252 02-04-2020 09:15:00 -0.9 C 3.96 g/m*3 -0.9 C 0 km/h
1253 02-04-2020 09:20:00 -0.8 C 3.99 g/m*3 -0.8 C 0 km/h
1254 02-04-2020 09:25:00 -0.7 C 4.02 g/m*3 -0.7 C 0 km/h
1255 02-04-2020 09:30:00 -0.7 C 4.02 g/m*3 -0.7 C 0 km/h
1256 02-04-2020 09:35:00 -0.6 C 4.04 g/m*3 -0.6 C 0 km/h
1257 02-04-2020 09:40:00 -0.4 C 4.1 g/m*3 -0.4 C 0 km/h
1258 02-04-2020 09:45:00 -0.3 C 4.13 g/m*3 -0.3 C 0 km/h
1259 02-04-2020 09:50:00 -0.2 C 4.16 g/m*3 -0.2 C 0 km/h
1260 02-04-2020 09:55:00 0 C 4.22 g/m*3 0 C 0 km/h
1261 02-04-2020 10:00:00 0.2 C 4.27 g/m*3 0.2 C 0 km/h
1262 02-04-2020 10:05:00 0.3 C 4.3 g/m*3 0.3 C 0 km/h
1263 02-04-2020 10:10:00 0.5 C 4.36 g/m*3 0.5 C 0 km/h
1264 02-04-2020 10:15:00 0.7 C 4.42 g/m*3 0.7 C 0 km/h
1265 02-04-2020 10:20:00 0.8 C 4.45 g/m*3 0.8 C 0 km/h
1266 02-04-2020 10:25:00 1.1 C 4.55 g/m*3 1.1 C 0 km/h
1267 02-04-2020 10:30:00 1.3 C 4.56 g/m*3 1.3 C 0 km/h
1268 02-04-2020 10:35:00 1.6 C 4.65 g/m*3 1.6 C 0 km/h
1269 02-04-2020 10:40:00 1.9 C 4.69 g/m*3 1.9 C 0 km/h
1270 02-04-2020 10:45:00 2.3 C 4.76 g/m*3 2.3 C 0 km/h
1271 02-04-2020 10:50:00 2.8 C 4.81 g/m*3 2.8 C 0 km/h
1272 02-04-2020 10:55:00 3.2 C 4.82 g/m*3 3.2 C 0 km/h
1273 02-04-2020 11:00:00 3.7 C 4.92 g/m*3 3.7 C 0 km/h
1274 02-04-2020 11:05:00 4 C 4.96 g/m*3 4 C 0 km/h
1275 02-04-2020 11:10:00 4.3 C 4.93 g/m*3 4.3 C 0 km/h
Sensor: Nr:Datum:Temp:Abs-Feuchte:Windchill:Wind:
Aussen-T/F 1276 02-04-2020 11:15:00 4.6 C 4.9 g/m*3 4.6 C 0 km/h
1277 02-04-2020 11:20:00 4.9 C 4.86 g/m*3 4.9 C 0 km/h
1278 02-04-2020 11:25:00 5.3 C 4.92 g/m*3 5.3 C 3.2 km/h
1279 02-04-2020 11:30:00 5.6 C 4.88 g/m*3 5.6 C 3.2 km/h
1280 02-04-2020 11:35:00 5.9 C 4.98 g/m*3 5.9 C 1.6 km/h
1281 02-04-2020 11:40:00 6.3 C 4.89 g/m*3 6.3 C 3.2 km/h
1282 02-04-2020 11:45:00 6.6 C 4.91 g/m*3 6.6 C 1.6 km/h
1283 02-04-2020 11:50:00 6.9 C 5 g/m*3 6.9 C 3.2 km/h
1284 02-04-2020 11:55:00 7.2 C 4.95 g/m*3 7.2 C 1.6 km/h
1285 02-04-2020 12:00:00 7.5 C 5.04 g/m*3 7.5 C 3.2 km/h
1286 02-04-2020 12:05:00 7.8 C 4.9 g/m*3 6.83 C 6.4 km/h
1287 02-04-2020 12:10:00 8.1 C 4.99 g/m*3 8.1 C 3.2 km/h
1288 02-04-2020 12:15:00 8.3 C 4.97 g/m*3 8.3 C 3.2 km/h
1289 02-04-2020 12:20:00 8.6 C 4.9 g/m*3 8.6 C 4.8 km/h
1290 02-04-2020 12:25:00 8.8 C 4.96 g/m*3 8.8 C 4.8 km/h
1291 02-04-2020 12:30:00 9.1 C 4.97 g/m*3 9.1 C 1.6 km/h
1292 02-04-2020 12:35:00 9.2 C 4.91 g/m*3 9.2 C 1.6 km/h
1293 02-04-2020 12:40:00 9.4 C 4.52 g/m*3 9.4 C 3.2 km/h
1294 02-04-2020 12:45:00 9.6 C 4.76 g/m*3 8.91 C 6.4 km/h
1295 02-04-2020 12:50:00 9.7 C 4.79 g/m*3 9.7 C 3.2 km/h
1296 02-04-2020 12:55:00 9.9 C 4.67 g/m*3 8.87 C 8.1 km/h
1297 02-04-2020 13:00:00 10 C 4.6 g/m*3 10 C 4.8 km/h
1298 02-04-2020 13:05:00 10.1 C 4.63 g/m*3 8.8 C 9.7 km/h
1299 02-04-2020 13:10:00 10.2 C 4.76 g/m*3 8.92 C 9.7 km/h
1300 02-04-2020 13:15:00 10.5 C 4.66 g/m*3 9.95 C 6.4 km/h
Sensor: Nr:Datum:Temp:Abs-Feuchte:Windchill:Wind:
Aussen-T/F 1301 02-04-2020 13:20:00 10.7 C 4.52 g/m*3 10.18 C 6.4 km/h
1302 02-04-2020 13:25:00 10.8 C 4.45 g/m*3 10.29 C 6.4 km/h
1303 02-04-2020 13:30:00 10.8 C 4.15 g/m*3 9.38 C 11.3 km/h
1304 02-04-2020 13:35:00 11 C 4.4 g/m*3 11 C 4.8 km/h
1305 02-04-2020 13:40:00 11.2 C 4.56 g/m*3 11.2 C 12.9 km/h
1306 02-04-2020 13:45:00 11.3 C 4.59 g/m*3 11.3 C 12.9 km/h
1307 02-04-2020 13:50:00 11.4 C 4.31 g/m*3 11.4 C 6.4 km/h
1308 02-04-2020 13:55:00 11.4 C 4.41 g/m*3 11.4 C 8.1 km/h
1309 02-04-2020 14:00:00 11.6 C 4.57 g/m*3 11.6 C 9.7 km/h
1310 02-04-2020 14:05:00 11.7 C 4.6 g/m*3 11.7 C 9.7 km/h
1311 02-04-2020 14:10:00 11.8 C 4.53 g/m*3 11.8 C 6.4 km/h
1312 02-04-2020 14:15:00 11.9 C 4.55 g/m*3 11.9 C 8.1 km/h
1313 02-04-2020 14:20:00 12.1 C 4.61 g/m*3 12.1 C 11.3 km/h
1314 02-04-2020 14:25:00 12.3 C 4.67 g/m*3 12.3 C 6.4 km/h
1315 02-04-2020 14:30:00 12.6 C 4.65 g/m*3 12.6 C 4.8 km/h
1316 02-04-2020 14:35:00 12.7 C 4.68 g/m*3 12.7 C 8.1 km/h
1317 02-04-2020 14:40:00 12.8 C 4.82 g/m*3 12.8 C 8.1 km/h
1318 02-04-2020 14:45:00 12.8 C 4.7 g/m*3 12.8 C 11.3 km/h
1319 02-04-2020 14:50:00 12.8 C 4.7 g/m*3 12.8 C 8.1 km/h
1320 02-04-2020 14:55:00 12.7 C 4.79 g/m*3 12.7 C 11.3 km/h
1321 02-04-2020 15:00:00 12.8 C 4.7 g/m*3 12.8 C 6.4 km/h
1322 02-04-2020 15:05:00 12.9 C 4.85 g/m*3 12.9 C 9.7 km/h
1323 02-04-2020 15:10:00 13.1 C 4.79 g/m*3 13.1 C 9.7 km/h
1324 02-04-2020 15:15:00 13.2 C 4.59 g/m*3 13.2 C 8.1 km/h
1325 02-04-2020 15:20:00 13.2 C 4.59 g/m*3 13.2 C 8.1 km/h
Sensor: Nr:Datum:Temp:Abs-Feuchte:Windchill:Wind:
Aussen-T/F 1326 02-04-2020 15:25:00 13.2 C 4.59 g/m*3 13.2 C 9.7 km/h
1327 02-04-2020 15:30:00 13.3 C 4.74 g/m*3 13.3 C 16.1 km/h
1328 02-04-2020 15:35:00 13.3 C 4.74 g/m*3 13.3 C 8.1 km/h
1329 02-04-2020 15:40:00 13.4 C 4.65 g/m*3 13.4 C 8.1 km/h
1330 02-04-2020 15:45:00 13.5 C 4.68 g/m*3 13.5 C 9.7 km/h
1331 02-04-2020 15:50:00 13.6 C 4.71 g/m*3 13.6 C 9.7 km/h
1332 02-04-2020 15:55:00 13.6 C 4.83 g/m*3 13.6 C 8.1 km/h
1333 02-04-2020 16:00:00 13.6 C 4.71 g/m*3 13.6 C 6.4 km/h
1334 02-04-2020 16:05:00 13.8 C 4.89 g/m*3 13.8 C 4.8 km/h
1335 02-04-2020 16:10:00 13.9 C 4.92 g/m*3 13.9 C 6.4 km/h
1336 02-04-2020 16:15:00 13.8 C 4.89 g/m*3 13.8 C 14.5 km/h
1337 02-04-2020 16:20:00 13.4 C 4.88 g/m*3 13.4 C 11.3 km/h
1338 02-04-2020 16:25:00 13.2 C 5.05 g/m*3 13.2 C 9.7 km/h
1339 02-04-2020 16:30:00 13.3 C 4.97 g/m*3 13.3 C 12.9 km/h
1340 02-04-2020 16:35:00 13.3 C 4.97 g/m*3 13.3 C 14.5 km/h
1341 02-04-2020 16:40:00 13.5 C 5.03 g/m*3 13.5 C 11.3 km/h
1342 02-04-2020 16:45:00 13.6 C 5.06 g/m*3 13.6 C 11.3 km/h
1343 02-04-2020 16:50:00 13.7 C 4.97 g/m*3 13.7 C 16.1 km/h
1344 02-04-2020 16:55:00 13.7 C 5.09 g/m*3 13.7 C 11.3 km/h
1345 02-04-2020 17:00:00 13.8 C 5.12 g/m*3 13.8 C 14.5 km/h
1346 02-04-2020 17:05:00 13.9 C 5.27 g/m*3 13.9 C 11.3 km/h
1347 02-04-2020 17:10:00 13.9 C 5.15 g/m*3 13.9 C 12.9 km/h
1348 02-04-2020 17:15:00 14 C 5.31 g/m*3 14 C 9.7 km/h
1349 02-04-2020 17:20:00 14 C 5.19 g/m*3 14 C 14.5 km/h
1350 02-04-2020 17:25:00 13.7 C 5.21 g/m*3 13.7 C 17.7 km/h
Sensor: Nr:Datum:Temp:Abs-Feuchte:Windchill:Wind:
Aussen-T/F 1351 02-04-2020 17:30:00 13.4 C 5.35 g/m*3 13.4 C 12.9 km/h
1352 02-04-2020 17:35:00 13.4 C 5.35 g/m*3 13.4 C 14.5 km/h
1353 02-04-2020 17:40:00 13.4 C 5.35 g/m*3 13.4 C 9.7 km/h
1354 02-04-2020 17:45:00 13.3 C 5.31 g/m*3 13.3 C 16.1 km/h
1355 02-04-2020 17:50:00 13.2 C 5.51 g/m*3 13.2 C 12.9 km/h
1356 02-04-2020 17:55:00 13 C 5.56 g/m*3 13 C 12.9 km/h
1357 02-04-2020 18:00:00 12.8 C 5.6 g/m*3 12.8 C 16.1 km/h
1358 02-04-2020 18:05:00 12.7 C 5.57 g/m*3 12.7 C 14.5 km/h
1359 02-04-2020 18:10:00 12.5 C 5.5 g/m*3 12.5 C 14.5 km/h
1360 02-04-2020 18:15:00 12.4 C 5.57 g/m*3 12.4 C 11.3 km/h
1361 02-04-2020 18:20:00 12.4 C 5.57 g/m*3 12.4 C 14.5 km/h
1362 02-04-2020 18:25:00 12.3 C 5.43 g/m*3 12.3 C 9.7 km/h
1363 02-04-2020 18:30:00 12.2 C 5.5 g/m*3 12.2 C 17.7 km/h
1364 02-04-2020 18:35:00 12.1 C 5.36 g/m*3 12.1 C 9.7 km/h
1365 02-04-2020 18:40:00 11.9 C 5.4 g/m*3 11.9 C 14.5 km/h
1366 02-04-2020 18:45:00 11.8 C 5.26 g/m*3 11.8 C 14.5 km/h
1367 02-04-2020 18:50:00 11.7 C 5.33 g/m*3 11.7 C 9.7 km/h
1368 02-04-2020 18:55:00 11.6 C 5.3 g/m*3 11.6 C 9.7 km/h
1369 02-04-2020 19:00:00 11.4 C 5.13 g/m*3 11.4 C 11.3 km/h
1370 02-04-2020 19:05:00 11.3 C 5.2 g/m*3 11.3 C 12.9 km/h
1371 02-04-2020 19:10:00 11.3 C 5.2 g/m*3 11.3 C 6.4 km/h
1372 02-04-2020 19:15:00 11.1 C 5.14 g/m*3 11.1 C 8.1 km/h
1373 02-04-2020 19:20:00 10.9 C 5.07 g/m*3 10.04 C 8.1 km/h
1374 02-04-2020 19:25:00 10.8 C 5.14 g/m*3 10.29 C 6.4 km/h
1375 02-04-2020 19:30:00 10.7 C 5.11 g/m*3 9.04 C 12.9 km/h
Sensor: Nr:Datum:Temp:Abs-Feuchte:Windchill:Wind:
Aussen-T/F 1376 02-04-2020 19:35:00 10.5 C 5.04 g/m*3 9.28 C 9.7 km/h
1377 02-04-2020 19:40:00 10.3 C 5.08 g/m*3 10.3 C 4.8 km/h
1378 02-04-2020 19:45:00 10.1 C 5.01 g/m*3 9.48 C 6.4 km/h
1379 02-04-2020 19:50:00 10 C 4.98 g/m*3 9.37 C 6.4 km/h
1380 02-04-2020 19:55:00 9.8 C 4.92 g/m*3 9.14 C 6.4 km/h
1381 02-04-2020 20:00:00 9.6 C 5.04 g/m*3 9.6 C 4.8 km/h
1382 02-04-2020 20:05:00 9.4 C 4.97 g/m*3 9.4 C 3.2 km/h
1383 02-04-2020 20:10:00 9.2 C 5 g/m*3 7.73 C 9.7 km/h
1384 02-04-2020 20:15:00 9.1 C 4.97 g/m*3 7.33 C 11.3 km/h
1385 02-04-2020 20:20:00 9 C 5.03 g/m*3 7.21 C 11.3 km/h
1386 02-04-2020 20:25:00 8.9 C 5.08 g/m*3 8.9 C 1.6 km/h
1387 02-04-2020 20:30:00 8.7 C 5.02 g/m*3 7.46 C 8.1 km/h
1388 02-04-2020 20:35:00 8.6 C 5.07 g/m*3 6.73 C 11.3 km/h
1389 02-04-2020 20:40:00 8.5 C 5.04 g/m*3 8.5 C 1.6 km/h
1390 02-04-2020 20:45:00 8.3 C 5.06 g/m*3 8.3 C 3.2 km/h
1391 02-04-2020 20:50:00 8.2 C 5.02 g/m*3 7.29 C 6.4 km/h
1392 02-04-2020 20:55:00 8 C 5.04 g/m*3 8 C 3.2 km/h
1393 02-04-2020 21:00:00 7.7 C 5.03 g/m*3 7.7 C 1.6 km/h
1394 02-04-2020 21:05:00 7.4 C 5.01 g/m*3 7.4 C 3.2 km/h
1395 02-04-2020 21:10:00 7.3 C 5.06 g/m*3 7.3 C 3.2 km/h
1396 02-04-2020 21:15:00 7.1 C 5.07 g/m*3 7.1 C 3.2 km/h
1397 02-04-2020 21:20:00 6.8 C 5.05 g/m*3 6.8 C 4.8 km/h
1398 02-04-2020 21:25:00 6.6 C 5.06 g/m*3 6.6 C 4.8 km/h
1399 02-04-2020 21:30:00 6.4 C 5.07 g/m*3 6.4 C 4.8 km/h
1400 02-04-2020 21:35:00 6.2 C 5.07 g/m*3 6.2 C 4.8 km/h
Sensor: Nr:Datum:Temp:Abs-Feuchte:Windchill:Wind:
Aussen-T/F 1401 02-04-2020 21:40:00 6.2 C 5.07 g/m*3 6.2 C 4.8 km/h
1402 02-04-2020 21:45:00 6.1 C 5.04 g/m*3 6.1 C 4.8 km/h
1403 02-04-2020 21:50:00 6 C 5.08 g/m*3 6 C 3.2 km/h
1404 02-04-2020 21:55:00 5.9 C 5.05 g/m*3 5.9 C 4.8 km/h
1405 02-04-2020 22:00:00 5.8 C 5.01 g/m*3 5.8 C 3.2 km/h
1406 02-04-2020 22:05:00 5.9 C 5.05 g/m*3 5.9 C 4.8 km/h
1407 02-04-2020 22:10:00 5.9 C 5.05 g/m*3 5.9 C 3.2 km/h
1408 02-04-2020 22:15:00 6 C 5.08 g/m*3 6 C 3.2 km/h
1409 02-04-2020 22:20:00 6.1 C 5.11 g/m*3 6.1 C 3.2 km/h
1410 02-04-2020 22:25:00 6 C 5.08 g/m*3 6 C 3.2 km/h
1411 02-04-2020 22:30:00 5.9 C 5.12 g/m*3 5.9 C 3.2 km/h
1412 02-04-2020 22:35:00 5.9 C 5.12 g/m*3 5.9 C 3.2 km/h
1413 02-04-2020 22:40:00 5.8 C 5.09 g/m*3 5.8 C 4.8 km/h
1414 02-04-2020 22:45:00 5.7 C 5.12 g/m*3 5.7 C 4.8 km/h
1415 02-04-2020 22:50:00 5.7 C 5.12 g/m*3 5.7 C 4.8 km/h
1416 02-04-2020 22:55:00 5.7 C 5.12 g/m*3 5.7 C 3.2 km/h
1417 02-04-2020 23:00:00 5.6 C 5.16 g/m*3 5.6 C 4.8 km/h
1418 02-04-2020 23:05:00 5.6 C 5.16 g/m*3 5.6 C 4.8 km/h
1419 02-04-2020 23:10:00 5.6 C 5.16 g/m*3 5.6 C 4.8 km/h
1420 02-04-2020 23:15:00 5.6 C 5.16 g/m*3 5.6 C 4.8 km/h
1421 02-04-2020 23:20:00 5.6 C 5.23 g/m*3 5.6 C 4.8 km/h
1422 02-04-2020 23:25:00 5.5 C 5.2 g/m*3 5.5 C 4.8 km/h
1423 02-04-2020 23:30:00 5.4 C 5.16 g/m*3 5.4 C 4.8 km/h
1424 02-04-2020 23:35:00 5.3 C 5.2 g/m*3 5.3 C 4.8 km/h
1425 02-04-2020 23:40:00 5.1 C 5.13 g/m*3 5.1 C 3.2 km/h
Sensor: Nr:Datum:Temp:Abs-Feuchte:Windchill:Wind:
Aussen-T/F 1426 02-04-2020 23:45:00 4.9 C 5.06 g/m*3 4.9 C 0 km/h
1427 02-04-2020 23:50:00 4.6 C 5.03 g/m*3 4.6 C 1.6 km/h
1428 02-04-2020 23:55:00 4.3 C 4.99 g/m*3 4.3 C 1.6 km/h
1429 03-04-2020 00:00:00 4.2 C 5.03 g/m*3 4.2 C 1.6 km/h
1430 03-04-2020 00:05:00 3.9 C 4.93 g/m*3 3.9 C 0 km/h
1431 03-04-2020 00:10:00 3.7 C 4.92 g/m*3 3.7 C 0 km/h
1432 03-04-2020 00:15:00 3.4 C 4.89 g/m*3 3.4 C 0 km/h
1433 03-04-2020 00:20:00 3.3 C 4.85 g/m*3 3.3 C 1.6 km/h
1434 03-04-2020 00:25:00 3.3 C 4.91 g/m*3 3.3 C 3.2 km/h
1435 03-04-2020 00:30:00 3.3 C 4.97 g/m*3 3.3 C 1.6 km/h
1436 03-04-2020 00:35:00 3.3 C 4.91 g/m*3 3.3 C 0 km/h
1437 03-04-2020 00:40:00 3.3 C 4.91 g/m*3 3.3 C 3.2 km/h
1438 03-04-2020 00:45:00 3.4 C 5.01 g/m*3 3.4 C 3.2 km/h
1439 03-04-2020 00:50:00 3.4 C 4.95 g/m*3 3.4 C 1.6 km/h
1440 03-04-2020 00:55:00 3.2 C 4.88 g/m*3 1.51 C 6.4 km/h
1441 03-04-2020 01:00:00 3.2 C 4.88 g/m*3 3.2 C 1.6 km/h
1442 03-04-2020 01:05:00 3.1 C 4.85 g/m*3 3.1 C 3.2 km/h
1443 03-04-2020 01:10:00 2.9 C 4.84 g/m*3 2.9 C 3.2 km/h
1444 03-04-2020 01:15:00 3 C 4.88 g/m*3 1.28 C 6.4 km/h
1445 03-04-2020 01:20:00 2.9 C 4.84 g/m*3 2.9 C 1.6 km/h
1446 03-04-2020 01:25:00 2.9 C 4.9 g/m*3 0.64 C 8.1 km/h
1447 03-04-2020 01:30:00 3 C 4.93 g/m*3 0.76 C 8.1 km/h
1448 03-04-2020 01:35:00 3.1 C 4.97 g/m*3 0.87 C 8.1 km/h
1449 03-04-2020 01:40:00 3.2 C 4.94 g/m*3 0.58 C 9.7 km/h
1450 03-04-2020 01:45:00 3.1 C 4.91 g/m*3 3.1 C 3.2 km/h
Sensor: Nr:Datum:Temp:Abs-Feuchte:Windchill:Wind:
Aussen-T/F 1451 03-04-2020 01:50:00 3 C 4.88 g/m*3 0.76 C 8.1 km/h
1452 03-04-2020 01:55:00 2.9 C 4.84 g/m*3 2.9 C 4.8 km/h
1453 03-04-2020 02:00:00 2.9 C 4.9 g/m*3 2.9 C 1.6 km/h
1454 03-04-2020 02:05:00 2.8 C 4.87 g/m*3 2.8 C 1.6 km/h
1455 03-04-2020 02:10:00 2.8 C 4.87 g/m*3 2.8 C 1.6 km/h
1456 03-04-2020 02:15:00 2.8 C 4.87 g/m*3 1.05 C 6.4 km/h
1457 03-04-2020 02:20:00 2.9 C 4.96 g/m*3 2.9 C 4.8 km/h
1458 03-04-2020 02:25:00 3.1 C 4.97 g/m*3 3.1 C 4.8 km/h
1459 03-04-2020 02:30:00 3.2 C 5 g/m*3 3.2 C 4.8 km/h
1460 03-04-2020 02:35:00 3.3 C 5.04 g/m*3 3.3 C 1.6 km/h
1461 03-04-2020 02:40:00 3.4 C 5.01 g/m*3 3.4 C 3.2 km/h
1462 03-04-2020 02:45:00 3.3 C 4.97 g/m*3 3.3 C 0 km/h
1463 03-04-2020 02:50:00 3.3 C 4.97 g/m*3 3.3 C 1.6 km/h
1464 03-04-2020 02:55:00 3.4 C 5.01 g/m*3 3.4 C 3.2 km/h
1465 03-04-2020 03:00:00 3.4 C 5.07 g/m*3 3.4 C 0 km/h
1466 03-04-2020 03:05:00 3.6 C 5.14 g/m*3 3.6 C 1.6 km/h
1467 03-04-2020 03:10:00 3.7 C 5.17 g/m*3 3.7 C 1.6 km/h
1468 03-04-2020 03:15:00 3.8 C 5.14 g/m*3 3.8 C 1.6 km/h
1469 03-04-2020 03:20:00 3.9 C 5.18 g/m*3 3.9 C 0 km/h
1470 03-04-2020 03:25:00 4.1 C 5.25 g/m*3 4.1 C 4.8 km/h
1471 03-04-2020 03:30:00 4.2 C 5.28 g/m*3 4.2 C 1.6 km/h
1472 03-04-2020 03:35:00 4.4 C 5.29 g/m*3 2.9 C 6.4 km/h
1473 03-04-2020 03:40:00 4.7 C 5.26 g/m*3 2.76 C 8.1 km/h
1474 03-04-2020 03:45:00 4.8 C 5.3 g/m*3 3.36 C 6.4 km/h
1475 03-04-2020 03:50:00 4.9 C 5.33 g/m*3 3.48 C 6.4 km/h
Sensor: Nr:Datum:Temp:Abs-Feuchte:Windchill:Wind:
Aussen-T/F 1476 03-04-2020 03:55:00 4.9 C 5.33 g/m*3 4.9 C 3.2 km/h
1477 03-04-2020 04:00:00 4.9 C 5.33 g/m*3 4.9 C 4.8 km/h
1478 03-04-2020 04:05:00 5.1 C 5.4 g/m*3 3.71 C 6.4 km/h
1479 03-04-2020 04:10:00 5.3 C 5.41 g/m*3 5.3 C 3.2 km/h
1480 03-04-2020 04:15:00 5.4 C 5.37 g/m*3 3.2 C 9.7 km/h
1481 03-04-2020 04:20:00 5.4 C 5.3 g/m*3 3.58 C 8.1 km/h
1482 03-04-2020 04:25:00 5.4 C 5.3 g/m*3 5.4 C 1.6 km/h
1483 03-04-2020 04:30:00 5.4 C 5.3 g/m*3 5.4 C 1.6 km/h
1484 03-04-2020 04:35:00 5.4 C 5.37 g/m*3 5.4 C 0 km/h
1485 03-04-2020 04:40:00 5.4 C 5.44 g/m*3 5.4 C 0 km/h
1486 03-04-2020 04:45:00 5.3 C 5.41 g/m*3 5.3 C 0 km/h
1487 03-04-2020 04:50:00 5.2 C 5.37 g/m*3 5.2 C 0 km/h
1488 03-04-2020 04:55:00 5.2 C 5.44 g/m*3 5.2 C 0 km/h
1489 03-04-2020 05:00:00 5.1 C 5.4 g/m*3 5.1 C 0 km/h
1490 03-04-2020 05:05:00 5.1 C 5.4 g/m*3 5.1 C 0 km/h
1491 03-04-2020 05:10:00 5.1 C 5.4 g/m*3 5.1 C 1.6 km/h
1492 03-04-2020 05:15:00 5.2 C 5.44 g/m*3 5.2 C 0 km/h
1493 03-04-2020 05:20:00 5.2 C 5.44 g/m*3 5.2 C 3.2 km/h
1494 03-04-2020 05:25:00 5.3 C 5.48 g/m*3 5.3 C 1.6 km/h
1495 03-04-2020 05:30:00 5.3 C 5.48 g/m*3 5.3 C 0 km/h
1496 03-04-2020 05:35:00 5.3 C 5.41 g/m*3 5.3 C 1.6 km/h
1497 03-04-2020 05:40:00 5.4 C 5.44 g/m*3 4.06 C 6.4 km/h
1498 03-04-2020 05:45:00 5.5 C 5.48 g/m*3 5.5 C 1.6 km/h
1499 03-04-2020 05:50:00 5.6 C 5.51 g/m*3 4.29 C 6.4 km/h
1500 03-04-2020 05:55:00 5.6 C 5.59 g/m*3 5.6 C 4.8 km/h
Sensor: Nr:Datum:Temp:Abs-Feuchte:Windchill:Wind:
Aussen-T/F 1501 03-04-2020 06:00:00 5.7 C 5.55 g/m*3 4.4 C 6.4 km/h
1502 03-04-2020 06:05:00 5.7 C 5.48 g/m*3 4.4 C 6.4 km/h
1503 03-04-2020 06:10:00 5.8 C 5.59 g/m*3 5.8 C 4.8 km/h
1504 03-04-2020 06:15:00 5.7 C 5.55 g/m*3 5.7 C 3.2 km/h
1505 03-04-2020 06:20:00 5.7 C 5.55 g/m*3 5.7 C 3.2 km/h
1506 03-04-2020 06:25:00 5.7 C 5.55 g/m*3 5.7 C 4.8 km/h
1507 03-04-2020 06:30:00 5.7 C 5.55 g/m*3 5.7 C 3.2 km/h
1508 03-04-2020 06:35:00 5.7 C 5.62 g/m*3 5.7 C 0 km/h
1509 03-04-2020 06:40:00 5.6 C 5.59 g/m*3 5.6 C 3.2 km/h
1510 03-04-2020 06:45:00 5.6 C 5.59 g/m*3 5.6 C 0 km/h
1511 03-04-2020 06:50:00 5.6 C 5.59 g/m*3 4.29 C 6.4 km/h
1512 03-04-2020 06:55:00 5.7 C 5.55 g/m*3 3.56 C 9.7 km/h
1513 03-04-2020 07:00:00 5.8 C 5.59 g/m*3 4.05 C 8.1 km/h
1514 03-04-2020 07:05:00 6 C 5.59 g/m*3 3.92 C 9.7 km/h
1515 03-04-2020 07:10:00 6 C 5.59 g/m*3 4.28 C 8.1 km/h
1516 03-04-2020 07:15:00 6.1 C 5.55 g/m*3 3.43 C 12.9 km/h
1517 03-04-2020 07:20:00 6.1 C 5.55 g/m*3 3.72 C 11.3 km/h
1518 03-04-2020 07:25:00 6.1 C 5.55 g/m*3 4.86 C 6.4 km/h
1519 03-04-2020 07:30:00 6.1 C 5.63 g/m*3 4.4 C 8.1 km/h
1520 03-04-2020 07:35:00 6.1 C 5.63 g/m*3 4.86 C 6.4 km/h
1521 03-04-2020 07:40:00 6.1 C 5.63 g/m*3 4.86 C 6.4 km/h
1522 03-04-2020 07:45:00 6.1 C 5.63 g/m*3 6.1 C 4.8 km/h
1523 03-04-2020 07:50:00 6.1 C 5.7 g/m*3 6.1 C 4.8 km/h
1524 03-04-2020 07:55:00 6.1 C 5.7 g/m*3 6.1 C 1.6 km/h
1525 03-04-2020 08:00:00 6.1 C 5.7 g/m*3 4.4 C 8.1 km/h
Sensor: Nr:Datum:Temp:Abs-Feuchte:Windchill:Wind:
Aussen-T/F 1526 03-04-2020 08:05:00 6.2 C 5.66 g/m*3 4.52 C 8.1 km/h
1527 03-04-2020 08:10:00 6.2 C 5.66 g/m*3 4.15 C 9.7 km/h
1528 03-04-2020 08:15:00 6.3 C 5.7 g/m*3 4.27 C 9.7 km/h
1529 03-04-2020 08:20:00 6.3 C 5.7 g/m*3 3.96 C 11.3 km/h
1530 03-04-2020 08:25:00 6.3 C 5.7 g/m*3 4.27 C 9.7 km/h
1531 03-04-2020 08:30:00 6.4 C 5.74 g/m*3 4.75 C 8.1 km/h
1532 03-04-2020 08:35:00 6.4 C 5.74 g/m*3 4.08 C 11.3 km/h
1533 03-04-2020 08:40:00 6.4 C 5.74 g/m*3 3.8 C 12.9 km/h
1534 03-04-2020 08:45:00 6.6 C 5.81 g/m*3 4.63 C 9.7 km/h
1535 03-04-2020 08:50:00 6.7 C 5.85 g/m*3 4.75 C 9.7 km/h
1536 03-04-2020 08:55:00 6.8 C 5.89 g/m*3 4.87 C 9.7 km/h
1537 03-04-2020 09:00:00 7 C 5.97 g/m*3 5.46 C 8.1 km/h
1538 03-04-2020 09:05:00 7.1 C 5.93 g/m*3 5.23 C 9.7 km/h
1539 03-04-2020 09:10:00 7.2 C 5.97 g/m*3 5.35 C 9.7 km/h
1540 03-04-2020 09:15:00 7.3 C 6 g/m*3 5.81 C 8.1 km/h
1541 03-04-2020 09:20:00 7.4 C 6.04 g/m*3 6.37 C 6.4 km/h
1542 03-04-2020 09:25:00 7.6 C 6.12 g/m*3 5.82 C 9.7 km/h
1543 03-04-2020 09:30:00 7.7 C 6.16 g/m*3 6.28 C 8.1 km/h
1544 03-04-2020 09:35:00 7.8 C 6.12 g/m*3 5.77 C 11.3 km/h
1545 03-04-2020 09:40:00 7.8 C 6.12 g/m*3 6.83 C 6.4 km/h
1546 03-04-2020 09:45:00 8 C 6.2 g/m*3 8 C 4.8 km/h
1547 03-04-2020 09:50:00 8.1 C 6.24 g/m*3 7.17 C 6.4 km/h
1548 03-04-2020 09:55:00 8.2 C 6.2 g/m*3 7.29 C 6.4 km/h
1549 03-04-2020 10:00:00 8.3 C 6.32 g/m*3 6.99 C 8.1 km/h
1550 03-04-2020 10:05:00 8.5 C 6.4 g/m*3 7.22 C 8.1 km/h
Sensor: Nr:Datum:Temp:Abs-Feuchte:Windchill:Wind:
Aussen-T/F 1551 03-04-2020 10:10:00 8.7 C 6.4 g/m*3 7.87 C 6.4 km/h
1552 03-04-2020 10:15:00 8.8 C 6.44 g/m*3 7.58 C 8.1 km/h
1553 03-04-2020 10:20:00 8.9 C 6.48 g/m*3 7.69 C 8.1 km/h
1554 03-04-2020 10:25:00 9.1 C 6.48 g/m*3 7.93 C 8.1 km/h
1555 03-04-2020 10:30:00 9.2 C 6.52 g/m*3 7.73 C 9.7 km/h
1556 03-04-2020 10:35:00 9.2 C 6.52 g/m*3 7.46 C 11.3 km/h
1557 03-04-2020 10:40:00 9.3 C 6.56 g/m*3 8.16 C 8.1 km/h
1558 03-04-2020 10:45:00 9.4 C 6.6 g/m*3 7.97 C 9.7 km/h
1559 03-04-2020 10:50:00 9.6 C 6.6 g/m*3 7.94 C 11.3 km/h
1560 03-04-2020 10:55:00 9.8 C 6.68 g/m*3 7.94 C 12.9 km/h
1561 03-04-2020 11:00:00 9.9 C 6.72 g/m*3 8.56 C 9.7 km/h
1562 03-04-2020 11:05:00 10.3 C 6.8 g/m*3 9.04 C 9.7 km/h
1563 03-04-2020 11:10:00 10.6 C 6.73 g/m*3 9.4 C 9.7 km/h
1564 03-04-2020 11:15:00 10.8 C 6.82 g/m*3 9.64 C 9.7 km/h
1565 03-04-2020 11:20:00 10.9 C 6.76 g/m*3 9.51 C 11.3 km/h
1566 03-04-2020 11:25:00 10.9 C 6.66 g/m*3 9.51 C 11.3 km/h
1567 03-04-2020 11:30:00 10.8 C 6.52 g/m*3 10.29 C 6.4 km/h
1568 03-04-2020 11:35:00 10.9 C 6.47 g/m*3 10.04 C 8.1 km/h
1569 03-04-2020 11:40:00 11.2 C 6.49 g/m*3 11.2 C 14.5 km/h
1570 03-04-2020 11:45:00 11.3 C 6.43 g/m*3 11.3 C 14.5 km/h
1571 03-04-2020 11:50:00 11.3 C 6.43 g/m*3 11.3 C 12.9 km/h
1572 03-04-2020 11:55:00 11.3 C 6.43 g/m*3 11.3 C 16.1 km/h
1573 03-04-2020 12:00:00 11.2 C 6.39 g/m*3 11.2 C 19.3 km/h
1574 03-04-2020 12:05:00 11.2 C 6.49 g/m*3 11.2 C 11.3 km/h
1575 03-04-2020 12:10:00 11.2 C 6.39 g/m*3 11.2 C 9.7 km/h
Sensor: Nr:Datum:Temp:Abs-Feuchte:Windchill:Wind:
Aussen-T/F 1576 03-04-2020 12:15:00 11.2 C 6.39 g/m*3 11.2 C 9.7 km/h
1577 03-04-2020 12:20:00 11.3 C 6.43 g/m*3 11.3 C 9.7 km/h
1578 03-04-2020 12:25:00 11.5 C 6.3 g/m*3 11.5 C 12.9 km/h
1579 03-04-2020 12:30:00 11.7 C 6.38 g/m*3 11.7 C 8.1 km/h
1580 03-04-2020 12:35:00 11.6 C 6.13 g/m*3 11.6 C 12.9 km/h
1581 03-04-2020 12:40:00 11.5 C 6.09 g/m*3 11.5 C 12.9 km/h
1582 03-04-2020 12:45:00 11.3 C 6.22 g/m*3 11.3 C 12.9 km/h
1583 03-04-2020 12:50:00 11.3 C 6.12 g/m*3 11.3 C 11.3 km/h
1584 03-04-2020 12:55:00 11.2 C 6.18 g/m*3 11.2 C 11.3 km/h
1585 03-04-2020 13:00:00 11.2 C 6.28 g/m*3 11.2 C 9.7 km/h
1586 03-04-2020 13:05:00 11.3 C 6.43 g/m*3 11.3 C 11.3 km/h
1587 03-04-2020 13:10:00 11.4 C 6.36 g/m*3 11.4 C 9.7 km/h
1588 03-04-2020 13:15:00 11.5 C 6.3 g/m*3 11.5 C 12.9 km/h
1589 03-04-2020 13:20:00 11.6 C 6.13 g/m*3 11.6 C 11.3 km/h
1590 03-04-2020 13:25:00 11.7 C 6.17 g/m*3 11.7 C 11.3 km/h
1591 03-04-2020 13:30:00 11.7 C 5.96 g/m*3 11.7 C 12.9 km/h
1592 03-04-2020 13:35:00 11.6 C 6.03 g/m*3 11.6 C 12.9 km/h
1593 03-04-2020 13:40:00 11.6 C 6.03 g/m*3 11.6 C 16.1 km/h
1594 03-04-2020 13:45:00 11.7 C 6.28 g/m*3 11.7 C 8.1 km/h
1595 03-04-2020 13:50:00 11.8 C 6.31 g/m*3 11.8 C 9.7 km/h
1596 03-04-2020 13:55:00 11.8 C 6.1 g/m*3 11.8 C 11.3 km/h
1597 03-04-2020 14:00:00 11.8 C 5.89 g/m*3 11.8 C 11.3 km/h
1598 03-04-2020 14:05:00 11.8 C 5.89 g/m*3 11.8 C 12.9 km/h
1599 03-04-2020 14:10:00 11.7 C 5.86 g/m*3 11.7 C 11.3 km/h
1600 03-04-2020 14:15:00 11.7 C 5.86 g/m*3 11.7 C 12.9 km/h
Sensor: Nr:Datum:Temp:Abs-Feuchte:Windchill:Wind:
Aussen-T/F 1601 03-04-2020 14:20:00 11.6 C 5.82 g/m*3 11.6 C 12.9 km/h
1602 03-04-2020 14:25:00 11.6 C 5.92 g/m*3 11.6 C 8.1 km/h
1603 03-04-2020 14:30:00 11.7 C 6.38 g/m*3 11.7 C 6.4 km/h
1604 03-04-2020 14:35:00 11.6 C 6.44 g/m*3 11.6 C 8.1 km/h
1605 03-04-2020 14:40:00 11.6 C 6.24 g/m*3 11.6 C 12.9 km/h
1606 03-04-2020 14:45:00 11.6 C 6.13 g/m*3 11.6 C 9.7 km/h
1607 03-04-2020 14:50:00 11.6 C 5.92 g/m*3 11.6 C 8.1 km/h
1608 03-04-2020 14:55:00 11.7 C 5.86 g/m*3 11.7 C 12.9 km/h
1609 03-04-2020 15:00:00 11.7 C 5.75 g/m*3 11.7 C 11.3 km/h
1610 03-04-2020 15:05:00 11.8 C 5.79 g/m*3 11.8 C 12.9 km/h
1611 03-04-2020 15:10:00 11.8 C 5.79 g/m*3 11.8 C 14.5 km/h
1612 03-04-2020 15:15:00 11.7 C 5.75 g/m*3 11.7 C 12.9 km/h
1613 03-04-2020 15:20:00 11.7 C 5.65 g/m*3 11.7 C 11.3 km/h
1614 03-04-2020 15:25:00 11.7 C 5.86 g/m*3 11.7 C 9.7 km/h
1615 03-04-2020 15:30:00 11.7 C 6.07 g/m*3 11.7 C 9.7 km/h
1616 03-04-2020 15:35:00 11.7 C 6.07 g/m*3 11.7 C 8.1 km/h
1617 03-04-2020 15:40:00 11.7 C 6.07 g/m*3 11.7 C 8.1 km/h
1618 03-04-2020 15:45:00 11.8 C 6 g/m*3 11.8 C 11.3 km/h
1619 03-04-2020 15:50:00 11.8 C 6.1 g/m*3 11.8 C 11.3 km/h
1620 03-04-2020 15:55:00 11.9 C 5.72 g/m*3 11.9 C 11.3 km/h
1621 03-04-2020 16:00:00 12.1 C 5.79 g/m*3 12.1 C 11.3 km/h
1622 03-04-2020 16:05:00 12.2 C 5.61 g/m*3 12.2 C 11.3 km/h
1623 03-04-2020 16:10:00 12.2 C 5.5 g/m*3 12.2 C 9.7 km/h
1624 03-04-2020 16:15:00 12.3 C 5.43 g/m*3 12.3 C 11.3 km/h
1625 03-04-2020 16:20:00 12.3 C 5.43 g/m*3 12.3 C 12.9 km/h
Sensor: Nr:Datum:Temp:Abs-Feuchte:Windchill:Wind:
Aussen-T/F 1626 03-04-2020 16:25:00 12.2 C 5.4 g/m*3 12.2 C 14.5 km/h
1627 03-04-2020 16:30:00 12.2 C 5.5 g/m*3 12.2 C 14.5 km/h
1628 03-04-2020 16:35:00 12.3 C 5.32 g/m*3 12.3 C 12.9 km/h
1629 03-04-2020 16:40:00 12.3 C 5.43 g/m*3 12.3 C 11.3 km/h
1630 03-04-2020 16:45:00 12.3 C 5.32 g/m*3 12.3 C 16.1 km/h
1631 03-04-2020 16:50:00 12.3 C 5.32 g/m*3 12.3 C 9.7 km/h
1632 03-04-2020 16:55:00 12.3 C 5.21 g/m*3 12.3 C 17.7 km/h
1633 03-04-2020 17:00:00 12.1 C 5.15 g/m*3 12.1 C 16.1 km/h
1634 03-04-2020 17:05:00 12.1 C 5.36 g/m*3 12.1 C 11.3 km/h
1635 03-04-2020 17:10:00 12.1 C 5.36 g/m*3 12.1 C 11.3 km/h
1636 03-04-2020 17:15:00 12.1 C 5.25 g/m*3 12.1 C 14.5 km/h
1637 03-04-2020 17:20:00 12.1 C 5.25 g/m*3 12.1 C 14.5 km/h
1638 03-04-2020 17:25:00 12.2 C 5.29 g/m*3 12.2 C 9.7 km/h
1639 03-04-2020 17:30:00 12.2 C 5.4 g/m*3 12.2 C 9.7 km/h
1640 03-04-2020 17:35:00 12.2 C 5.29 g/m*3 12.2 C 16.1 km/h
1641 03-04-2020 17:40:00 12.3 C 5.21 g/m*3 12.3 C 9.7 km/h
1642 03-04-2020 17:45:00 12.2 C 5.29 g/m*3 12.2 C 11.3 km/h
1643 03-04-2020 17:50:00 12.1 C 5.36 g/m*3 12.1 C 14.5 km/h
1644 03-04-2020 17:55:00 11.9 C 5.3 g/m*3 11.9 C 12.9 km/h
1645 03-04-2020 18:00:00 11.8 C 5.26 g/m*3 11.8 C 14.5 km/h
1646 03-04-2020 18:05:00 11.7 C 5.33 g/m*3 11.7 C 16.1 km/h
1647 03-04-2020 18:10:00 11.7 C 5.33 g/m*3 11.7 C 8.1 km/h
1648 03-04-2020 18:15:00 11.7 C 5.44 g/m*3 11.7 C 9.7 km/h
1649 03-04-2020 18:20:00 11.7 C 5.44 g/m*3 11.7 C 12.9 km/h
1650 03-04-2020 18:25:00 11.6 C 5.51 g/m*3 11.6 C 16.1 km/h
Sensor: Nr:Datum:Temp:Abs-Feuchte:Windchill:Wind:
Aussen-T/F 1651 03-04-2020 18:30:00 11.5 C 5.37 g/m*3 11.5 C 9.7 km/h
1652 03-04-2020 18:35:00 11.4 C 5.44 g/m*3 11.4 C 9.7 km/h
1653 03-04-2020 18:40:00 11.4 C 5.34 g/m*3 11.4 C 8.1 km/h
1654 03-04-2020 18:45:00 11.3 C 5.41 g/m*3 11.3 C 9.7 km/h
1655 03-04-2020 18:50:00 11.2 C 5.47 g/m*3 11.2 C 12.9 km/h
1656 03-04-2020 18:55:00 11.2 C 5.47 g/m*3 11.2 C 11.3 km/h
1657 03-04-2020 19:00:00 11.2 C 5.57 g/m*3 11.2 C 9.7 km/h
1658 03-04-2020 19:05:00 11.1 C 5.64 g/m*3 11.1 C 6.4 km/h
1659 03-04-2020 19:10:00 11 C 5.61 g/m*3 9.88 C 9.7 km/h
1660 03-04-2020 19:15:00 10.9 C 5.57 g/m*3 9.51 C 11.3 km/h
1661 03-04-2020 19:20:00 10.8 C 5.63 g/m*3 9.38 C 11.3 km/h
1662 03-04-2020 19:25:00 10.8 C 5.44 g/m*3 9.93 C 8.1 km/h
1663 03-04-2020 19:30:00 10.7 C 5.4 g/m*3 9.52 C 9.7 km/h
1664 03-04-2020 19:35:00 10.6 C 5.27 g/m*3 8.92 C 12.9 km/h
1665 03-04-2020 19:40:00 10.6 C 5.37 g/m*3 9.4 C 9.7 km/h
1666 03-04-2020 19:45:00 10.4 C 5.3 g/m*3 9.16 C 9.7 km/h
1667 03-04-2020 19:50:00 10.4 C 5.3 g/m*3 9.16 C 9.7 km/h
1668 03-04-2020 19:55:00 10.3 C 5.36 g/m*3 9.34 C 8.1 km/h
1669 03-04-2020 20:00:00 10.3 C 5.36 g/m*3 9.04 C 9.7 km/h
1670 03-04-2020 20:05:00 10.2 C 5.42 g/m*3 10.2 C 3.2 km/h
1671 03-04-2020 20:10:00 10.1 C 5.39 g/m*3 9.1 C 8.1 km/h
1672 03-04-2020 20:15:00 9.9 C 5.32 g/m*3 9.25 C 6.4 km/h
1673 03-04-2020 20:20:00 9.9 C 5.32 g/m*3 9.9 C 4.8 km/h
1674 03-04-2020 20:25:00 9.8 C 5.2 g/m*3 7.94 C 12.9 km/h
1675 03-04-2020 20:30:00 9.8 C 5.1 g/m*3 7.94 C 12.9 km/h
Sensor: Nr:Datum:Temp:Abs-Feuchte:Windchill:Wind:
Aussen-T/F 1676 03-04-2020 20:35:00 9.8 C 5.2 g/m*3 9.14 C 6.4 km/h
1677 03-04-2020 20:40:00 9.8 C 5.2 g/m*3 9.8 C 4.8 km/h
1678 03-04-2020 20:45:00 9.7 C 5.16 g/m*3 9.7 C 4.8 km/h
1679 03-04-2020 20:50:00 9.7 C 4.98 g/m*3 9.7 C 3.2 km/h
1680 03-04-2020 20:55:00 9.6 C 5.13 g/m*3 9.6 C 4.8 km/h
1681 03-04-2020 21:00:00 9.6 C 5.04 g/m*3 8.91 C 6.4 km/h
1682 03-04-2020 21:05:00 9.5 C 4.82 g/m*3 7.82 C 11.3 km/h
1683 03-04-2020 21:10:00 9.5 C 4.82 g/m*3 8.4 C 8.1 km/h
1684 03-04-2020 21:15:00 9.5 C 4.82 g/m*3 9.5 C 4.8 km/h
1685 03-04-2020 21:20:00 9.4 C 4.88 g/m*3 8.68 C 6.4 km/h
1686 03-04-2020 21:25:00 9.4 C 4.97 g/m*3 9.4 C 0 km/h
1687 03-04-2020 21:30:00 9.2 C 5.09 g/m*3 9.2 C 1.6 km/h
1688 03-04-2020 21:35:00 9.1 C 4.88 g/m*3 8.33 C 6.4 km/h
1689 03-04-2020 21:40:00 9 C 4.94 g/m*3 9 C 3.2 km/h
1690 03-04-2020 21:45:00 8.9 C 5.08 g/m*3 8.9 C 3.2 km/h
1691 03-04-2020 21:50:00 8.8 C 5.05 g/m*3 8.8 C 3.2 km/h
1692 03-04-2020 21:55:00 8.8 C 4.96 g/m*3 8.8 C 3.2 km/h
1693 03-04-2020 22:00:00 8.7 C 5.02 g/m*3 8.7 C 4.8 km/h
1694 03-04-2020 22:05:00 8.6 C 4.9 g/m*3 8.6 C 1.6 km/h
1695 03-04-2020 22:10:00 8.6 C 5.07 g/m*3 8.6 C 3.2 km/h
1696 03-04-2020 22:15:00 8.5 C 5.04 g/m*3 8.5 C 3.2 km/h
1697 03-04-2020 22:20:00 8.4 C 5.09 g/m*3 8.4 C 4.8 km/h
1698 03-04-2020 22:25:00 8.2 C 5.11 g/m*3 8.2 C 4.8 km/h
1699 03-04-2020 22:30:00 7.9 C 5.01 g/m*3 7.9 C 3.2 km/h
1700 03-04-2020 22:35:00 7.7 C 5.03 g/m*3 7.7 C 4.8 km/h
Sensor: Nr:Datum:Temp:Abs-Feuchte:Windchill:Wind:
Aussen-T/F 1701 03-04-2020 22:40:00 7.5 C 5.04 g/m*3 7.5 C 3.2 km/h
1702 03-04-2020 22:45:00 7.3 C 5.06 g/m*3 7.3 C 4.8 km/h
1703 03-04-2020 22:50:00 7.1 C 4.99 g/m*3 7.1 C 4.8 km/h
1704 03-04-2020 22:55:00 7.1 C 4.91 g/m*3 7.1 C 4.8 km/h
1705 03-04-2020 23:00:00 7 C 4.88 g/m*3 7 C 4.8 km/h
1706 03-04-2020 23:05:00 7 C 4.88 g/m*3 7 C 3.2 km/h
1707 03-04-2020 23:10:00 7.2 C 4.87 g/m*3 7.2 C 4.8 km/h
1708 03-04-2020 23:15:00 7.4 C 4.85 g/m*3 7.4 C 4.8 km/h
1709 03-04-2020 23:20:00 7.6 C 4.99 g/m*3 7.6 C 0 km/h
1710 03-04-2020 23:25:00 7.4 C 4.93 g/m*3 7.4 C 1.6 km/h
1711 03-04-2020 23:30:00 7 C 4.88 g/m*3 7 C 0 km/h
1712 03-04-2020 23:35:00 6.6 C 4.91 g/m*3 6.6 C 4.8 km/h
1713 03-04-2020 23:40:00 6.4 C 4.84 g/m*3 6.4 C 1.6 km/h
1714 03-04-2020 23:45:00 6.2 C 4.85 g/m*3 6.2 C 0 km/h
1715 03-04-2020 23:50:00 6 C 4.86 g/m*3 6 C 3.2 km/h
1716 03-04-2020 23:55:00 5.8 C 4.8 g/m*3 5.8 C 3.2 km/h
1717 04-04-2020 00:00:00 5.7 C 4.84 g/m*3 5.7 C 3.2 km/h
1718 04-04-2020 00:05:00 5.7 C 4.84 g/m*3 5.7 C 3.2 km/h
1719 04-04-2020 00:10:00 5.7 C 4.84 g/m*3 5.7 C 1.6 km/h
1720 04-04-2020 00:15:00 5.7 C 4.77 g/m*3 5.7 C 0 km/h
1721 04-04-2020 00:20:00 5.7 C 4.77 g/m*3 5.7 C 4.8 km/h
1722 04-04-2020 00:25:00 5.8 C 4.73 g/m*3 5.8 C 4.8 km/h
1723 04-04-2020 00:30:00 5.8 C 4.73 g/m*3 5.8 C 4.8 km/h
1724 04-04-2020 00:35:00 5.8 C 4.73 g/m*3 5.8 C 3.2 km/h
1725 04-04-2020 00:40:00 5.7 C 4.7 g/m*3 5.7 C 0 km/h
Sensor: Nr:Datum:Temp:Abs-Feuchte:Windchill:Wind:
Aussen-T/F 1726 04-04-2020 00:45:00 5.6 C 4.74 g/m*3 5.6 C 3.2 km/h
1727 04-04-2020 00:50:00 5.4 C 4.74 g/m*3 5.4 C 4.8 km/h
1728 04-04-2020 00:55:00 5.2 C 4.68 g/m*3 5.2 C 1.6 km/h
1729 04-04-2020 01:00:00 5.1 C 4.72 g/m*3 3.71 C 6.4 km/h
1730 04-04-2020 01:05:00 5.1 C 4.72 g/m*3 3.71 C 6.4 km/h
1731 04-04-2020 01:10:00 5.1 C 4.72 g/m*3 5.1 C 3.2 km/h
1732 04-04-2020 01:15:00 5 C 4.69 g/m*3 5 C 3.2 km/h
1733 04-04-2020 01:20:00 4.9 C 4.66 g/m*3 4.9 C 1.6 km/h
1734 04-04-2020 01:25:00 4.9 C 4.73 g/m*3 4.9 C 1.6 km/h
1735 04-04-2020 01:30:00 4.8 C 4.76 g/m*3 4.8 C 4.8 km/h
1736 04-04-2020 01:35:00 4.7 C 4.8 g/m*3 4.7 C 3.2 km/h
1737 04-04-2020 01:40:00 4.5 C 4.8 g/m*3 4.5 C 3.2 km/h
1738 04-04-2020 01:45:00 4.3 C 4.74 g/m*3 4.3 C 3.2 km/h
1739 04-04-2020 01:50:00 4.1 C 4.74 g/m*3 4.1 C 0 km/h
1740 04-04-2020 01:55:00 3.8 C 4.71 g/m*3 3.8 C 1.6 km/h
1741 04-04-2020 02:00:00 3.6 C 4.7 g/m*3 3.6 C 0 km/h
1742 04-04-2020 02:05:00 3.3 C 4.67 g/m*3 3.3 C 0 km/h
1743 04-04-2020 02:10:00 3 C 4.64 g/m*3 3 C 0 km/h
1744 04-04-2020 02:15:00 2.8 C 4.58 g/m*3 2.8 C 0 km/h
1745 04-04-2020 02:20:00 2.6 C 4.57 g/m*3 2.6 C 0 km/h
1746 04-04-2020 02:25:00 2.5 C 4.6 g/m*3 2.5 C 0 km/h
1747 04-04-2020 02:30:00 2.3 C 4.54 g/m*3 2.3 C 0 km/h
1748 04-04-2020 02:35:00 2.2 C 4.56 g/m*3 2.2 C 1.6 km/h
1749 04-04-2020 02:40:00 2.1 C 4.53 g/m*3 2.1 C 0 km/h
1750 04-04-2020 02:45:00 1.9 C 4.53 g/m*3 1.9 C 0 km/h
Sensor: Nr:Datum:Temp:Abs-Feuchte:Windchill:Wind:
Aussen-T/F 1751 04-04-2020 02:50:00 1.9 C 4.58 g/m*3 1.9 C 0 km/h
1752 04-04-2020 02:55:00 1.9 C 4.58 g/m*3 1.9 C 0 km/h
1753 04-04-2020 03:00:00 1.8 C 4.55 g/m*3 1.8 C 0 km/h
1754 04-04-2020 03:05:00 1.7 C 4.52 g/m*3 1.7 C 0 km/h
1755 04-04-2020 03:10:00 1.7 C 4.52 g/m*3 1.7 C 0 km/h
1756 04-04-2020 03:15:00 1.5 C 4.46 g/m*3 1.5 C 0 km/h
1757 04-04-2020 03:20:00 1.4 C 4.48 g/m*3 1.4 C 0 km/h
1758 04-04-2020 03:25:00 1.3 C 4.5 g/m*3 1.3 C 3.2 km/h
1759 04-04-2020 03:30:00 1.3 C 4.5 g/m*3 1.3 C 3.2 km/h
1760 04-04-2020 03:35:00 1.4 C 4.59 g/m*3 1.4 C 3.2 km/h
1761 04-04-2020 03:40:00 1.4 C 4.59 g/m*3 1.4 C 0 km/h
1762 04-04-2020 03:45:00 1.3 C 4.5 g/m*3 1.3 C 0 km/h
1763 04-04-2020 03:50:00 1.2 C 4.47 g/m*3 1.2 C 0 km/h
1764 04-04-2020 03:55:00 1 C 4.41 g/m*3 1 C 0 km/h
1765 04-04-2020 04:00:00 0.9 C 4.38 g/m*3 0.9 C 0 km/h
1766 04-04-2020 04:05:00 0.8 C 4.4 g/m*3 0.8 C 0 km/h
1767 04-04-2020 04:10:00 0.7 C 4.37 g/m*3 0.7 C 0 km/h
1768 04-04-2020 04:15:00 0.6 C 4.34 g/m*3 0.6 C 0 km/h
1769 04-04-2020 04:20:00 0.5 C 4.36 g/m*3 0.5 C 0 km/h
1770 04-04-2020 04:25:00 0.4 C 4.33 g/m*3 0.4 C 0 km/h
1771 04-04-2020 04:30:00 0.4 C 4.33 g/m*3 0.4 C 0 km/h
1772 04-04-2020 04:35:00 0.3 C 4.3 g/m*3 0.3 C 1.6 km/h
1773 04-04-2020 04:40:00 0.3 C 4.35 g/m*3 0.3 C 0 km/h
1774 04-04-2020 04:45:00 0.3 C 4.35 g/m*3 0.3 C 0 km/h
1775 04-04-2020 04:50:00 0.2 C 4.27 g/m*3 0.2 C 0 km/h
Sensor: Nr:Datum:Temp:Abs-Feuchte:Windchill:Wind:
Aussen-T/F 1776 04-04-2020 04:55:00 0.2 C 4.32 g/m*3 0.2 C 0 km/h
1777 04-04-2020 05:00:00 0.2 C 4.32 g/m*3 0.2 C 1.6 km/h
1778 04-04-2020 05:05:00 0.2 C 4.32 g/m*3 0.2 C 0 km/h
1779 04-04-2020 05:10:00 0.1 C 4.29 g/m*3 0.1 C 0 km/h
1780 04-04-2020 05:15:00 0.1 C 4.29 g/m*3 0.1 C 0 km/h
1781 04-04-2020 05:20:00 -0.1 C 4.23 g/m*3 -0.1 C 0 km/h
1782 04-04-2020 05:25:00 -0.1 C 4.28 g/m*3 -0.1 C 0 km/h
1783 04-04-2020 05:30:00 -0.1 C 4.28 g/m*3 -0.1 C 0 km/h
1784 04-04-2020 05:35:00 -0.1 C 4.28 g/m*3 -0.1 C 0 km/h
1785 04-04-2020 05:40:00 -0.2 C 4.25 g/m*3 -0.2 C 1.6 km/h
1786 04-04-2020 05:45:00 -0.2 C 4.25 g/m*3 -0.2 C 0 km/h
1787 04-04-2020 05:50:00 -0.2 C 4.25 g/m*3 -0.2 C 0 km/h
1788 04-04-2020 05:55:00 -0.2 C 4.25 g/m*3 -0.2 C 0 km/h
1789 04-04-2020 06:00:00 -0.2 C 4.25 g/m*3 -0.2 C 0 km/h
1790 04-04-2020 06:05:00 -0.3 C 4.22 g/m*3 -0.3 C 0 km/h
1791 04-04-2020 06:10:00 -0.4 C 4.19 g/m*3 -0.4 C 0 km/h
1792 04-04-2020 06:15:00 -0.4 C 4.19 g/m*3 -0.4 C 0 km/h
1793 04-04-2020 06:20:00 -0.4 C 4.24 g/m*3 -0.4 C 0 km/h
1794 04-04-2020 06:25:00 -0.5 C 4.17 g/m*3 -0.5 C 0 km/h
1795 04-04-2020 06:30:00 -0.4 C 4.24 g/m*3 -0.4 C 0 km/h
1796 04-04-2020 06:35:00 -0.6 C 4.14 g/m*3 -0.6 C 3.2 km/h
1797 04-04-2020 06:40:00 -0.4 C 4.24 g/m*3 -2.64 C 6.4 km/h
1798 04-04-2020 06:45:00 -0.4 C 4.24 g/m*3 -0.4 C 0 km/h
1799 04-04-2020 06:50:00 -0.4 C 4.24 g/m*3 -0.4 C 0 km/h
1800 04-04-2020 06:55:00 -0.6 C 4.18 g/m*3 -0.6 C 0 km/h
Sensor: Nr:Datum:Temp:Abs-Feuchte:Windchill:Wind:
Aussen-T/F 1801 04-04-2020 07:00:00 -0.6 C 4.18 g/m*3 -0.6 C 0 km/h
1802 04-04-2020 07:05:00 -0.7 C 4.15 g/m*3 -0.7 C 0 km/h
1803 04-04-2020 07:10:00 -0.7 C 4.15 g/m*3 -0.7 C 0 km/h
1804 04-04-2020 07:15:00 -0.7 C 4.15 g/m*3 -0.7 C 0 km/h
1805 04-04-2020 07:20:00 -0.8 C 4.13 g/m*3 -0.8 C 0 km/h
1806 04-04-2020 07:25:00 -0.8 C 4.17 g/m*3 -0.8 C 1.6 km/h
1807 04-04-2020 07:30:00 -0.8 C 4.17 g/m*3 -0.8 C 0 km/h
1808 04-04-2020 07:35:00 -0.8 C 4.17 g/m*3 -0.8 C 0 km/h
1809 04-04-2020 07:40:00 -0.8 C 4.13 g/m*3 -0.8 C 0 km/h
1810 04-04-2020 07:45:00 -0.8 C 4.13 g/m*3 -0.8 C 0 km/h
1811 04-04-2020 07:50:00 -0.8 C 4.17 g/m*3 -0.8 C 0 km/h
1812 04-04-2020 07:55:00 -0.9 C 4.14 g/m*3 -0.9 C 0 km/h
1813 04-04-2020 08:00:00 -0.9 C 4.14 g/m*3 -0.9 C 1.6 km/h
1814 04-04-2020 08:05:00 -0.9 C 4.14 g/m*3 -0.9 C 0 km/h
1815 04-04-2020 08:10:00 -0.8 C 4.17 g/m*3 -0.8 C 0 km/h
1816 04-04-2020 08:15:00 -0.8 C 4.22 g/m*3 -0.8 C 0 km/h
1817 04-04-2020 08:20:00 -0.7 C 4.25 g/m*3 -0.7 C 0 km/h
1818 04-04-2020 08:25:00 -0.6 C 4.28 g/m*3 -0.6 C 0 km/h
1819 04-04-2020 08:30:00 -0.4 C 4.34 g/m*3 -0.4 C 0 km/h
1820 04-04-2020 08:35:00 -0.3 C 4.37 g/m*3 -0.3 C 0 km/h
1821 04-04-2020 08:40:00 -0.3 C 4.37 g/m*3 -0.3 C 0 km/h
1822 04-04-2020 08:45:00 -0.2 C 4.4 g/m*3 -0.2 C 0 km/h
1823 04-04-2020 08:50:00 -0.1 C 4.43 g/m*3 -0.1 C 0 km/h
1824 04-04-2020 08:55:00 -0.1 C 4.43 g/m*3 -0.1 C 0 km/h
1825 04-04-2020 09:00:00 0 C 4.46 g/m*3 0 C 0 km/h
Sensor: Nr:Datum:Temp:Abs-Feuchte:Windchill:Wind:
Aussen-T/F 1826 04-04-2020 09:05:00 0.1 C 4.49 g/m*3 0.1 C 1.6 km/h
1827 04-04-2020 09:10:00 0.2 C 4.47 g/m*3 0.2 C 0 km/h
1828 04-04-2020 09:15:00 0.3 C 4.5 g/m*3 0.3 C 0 km/h
1829 04-04-2020 09:20:00 0.3 C 4.5 g/m*3 0.3 C 0 km/h
1830 04-04-2020 09:25:00 0.4 C 4.53 g/m*3 0.4 C 0 km/h
1831 04-04-2020 09:30:00 0.5 C 4.56 g/m*3 0.5 C 3.2 km/h
1832 04-04-2020 09:35:00 0.7 C 4.63 g/m*3 0.7 C 0 km/h
1833 04-04-2020 09:40:00 0.8 C 4.66 g/m*3 0.8 C 1.6 km/h
1834 04-04-2020 09:45:00 1 C 4.72 g/m*3 1 C 3.2 km/h
1835 04-04-2020 09:50:00 1.1 C 4.76 g/m*3 1.1 C 0 km/h
1836 04-04-2020 09:55:00 1.3 C 4.82 g/m*3 1.3 C 0 km/h
1837 04-04-2020 10:00:00 1.5 C 4.89 g/m*3 1.5 C 0 km/h
1838 04-04-2020 10:05:00 1.8 C 4.99 g/m*3 1.8 C 0 km/h
1839 04-04-2020 10:10:00 2 C 5 g/m*3 2 C 0 km/h
1840 04-04-2020 10:15:00 2.2 C 5.07 g/m*3 2.2 C 0 km/h
1841 04-04-2020 10:20:00 2.3 C 5.05 g/m*3 2.3 C 0 km/h
1842 04-04-2020 10:25:00 2.6 C 5.15 g/m*3 2.6 C 0 km/h
1843 04-04-2020 10:30:00 2.7 C 5.13 g/m*3 2.7 C 0 km/h
1844 04-04-2020 10:35:00 3 C 5.23 g/m*3 3 C 0 km/h
1845 04-04-2020 10:40:00 3.3 C 5.34 g/m*3 3.3 C 0 km/h
1846 04-04-2020 10:45:00 3.7 C 5.42 g/m*3 3.7 C 0 km/h
1847 04-04-2020 10:50:00 4 C 5.47 g/m*3 4 C 0 km/h
1848 04-04-2020 10:55:00 4.3 C 5.45 g/m*3 4.3 C 0 km/h
1849 04-04-2020 11:00:00 4.8 C 5.57 g/m*3 4.8 C 1.6 km/h
1850 04-04-2020 11:05:00 5.2 C 5.65 g/m*3 5.2 C 0 km/h
Sensor: Nr:Datum:Temp:Abs-Feuchte:Windchill:Wind:
Aussen-T/F 1851 04-04-2020 11:10:00 5.7 C 5.69 g/m*3 5.7 C 0 km/h
1852 04-04-2020 11:15:00 6.1 C 5.7 g/m*3 6.1 C 0 km/h
1853 04-04-2020 11:20:00 6.5 C 5.7 g/m*3 6.5 C 1.6 km/h
1854 04-04-2020 11:25:00 6.8 C 5.81 g/m*3 6.8 C 1.6 km/h
1855 04-04-2020 11:30:00 7.2 C 5.73 g/m*3 7.2 C 4.8 km/h
1856 04-04-2020 11:35:00 7.4 C 5.49 g/m*3 7.4 C 0 km/h
1857 04-04-2020 11:40:00 7.8 C 5.55 g/m*3 7.8 C 3.2 km/h
1858 04-04-2020 11:45:00 8.2 C 5.61 g/m*3 8.2 C 3.2 km/h
1859 04-04-2020 11:50:00 8.5 C 5.64 g/m*3 8.5 C 3.2 km/h
1860 04-04-2020 11:55:00 8.8 C 5.48 g/m*3 6.97 C 11.3 km/h
1861 04-04-2020 12:00:00 9 C 5.55 g/m*3 9 C 3.2 km/h
1862 04-04-2020 12:05:00 9.2 C 5.45 g/m*3 9.2 C 4.8 km/h
1863 04-04-2020 12:10:00 9.3 C 5.48 g/m*3 9.3 C 3.2 km/h
1864 04-04-2020 12:15:00 9.6 C 5.5 g/m*3 9.6 C 4.8 km/h
1865 04-04-2020 12:20:00 9.9 C 5.51 g/m*3 8.87 C 8.1 km/h
1866 04-04-2020 12:25:00 10.1 C 5.39 g/m*3 9.48 C 6.4 km/h
1867 04-04-2020 12:30:00 10.3 C 5.27 g/m*3 10.3 C 3.2 km/h
1868 04-04-2020 12:35:00 10.3 C 5.17 g/m*3 9.04 C 9.7 km/h
1869 04-04-2020 12:40:00 10.3 C 5.27 g/m*3 9.04 C 9.7 km/h
1870 04-04-2020 12:45:00 10.3 C 5.27 g/m*3 8.78 C 11.3 km/h
1871 04-04-2020 12:50:00 10.4 C 5.2 g/m*3 9.16 C 9.7 km/h
1872 04-04-2020 12:55:00 10.6 C 5.37 g/m*3 9.4 C 9.7 km/h
1873 04-04-2020 13:00:00 10.7 C 5.21 g/m*3 9.26 C 11.3 km/h
1874 04-04-2020 13:05:00 10.8 C 5.24 g/m*3 9.93 C 8.1 km/h
1875 04-04-2020 13:10:00 10.9 C 5.37 g/m*3 10.41 C 6.4 km/h
Sensor: Nr:Datum:Temp:Abs-Feuchte:Windchill:Wind:
Aussen-T/F 1876 04-04-2020 13:15:00 11.2 C 5.47 g/m*3 11.2 C 8.1 km/h
1877 04-04-2020 13:20:00 11.3 C 5.3 g/m*3 11.3 C 9.7 km/h
1878 04-04-2020 13:25:00 11.4 C 5.44 g/m*3 11.4 C 9.7 km/h
1879 04-04-2020 13:30:00 11.5 C 5.27 g/m*3 11.5 C 12.9 km/h
1880 04-04-2020 13:35:00 11.6 C 5.3 g/m*3 11.6 C 9.7 km/h
1881 04-04-2020 13:40:00 11.7 C 5.44 g/m*3 11.7 C 9.7 km/h
1882 04-04-2020 13:45:00 11.8 C 5.26 g/m*3 11.8 C 9.7 km/h
1883 04-04-2020 13:50:00 12 C 5.44 g/m*3 12 C 11.3 km/h
1884 04-04-2020 13:55:00 12.2 C 5.29 g/m*3 12.2 C 17.7 km/h
1885 04-04-2020 14:00:00 12.1 C 5.15 g/m*3 12.1 C 16.1 km/h
1886 04-04-2020 14:05:00 12.1 C 5.25 g/m*3 12.1 C 11.3 km/h
1887 04-04-2020 14:10:00 12.3 C 5.1 g/m*3 12.3 C 12.9 km/h
1888 04-04-2020 14:15:00 12.6 C 5.31 g/m*3 12.6 C 12.9 km/h
1889 04-04-2020 14:20:00 12.7 C 5.23 g/m*3 12.7 C 19.3 km/h
1890 04-04-2020 14:25:00 12.8 C 5.26 g/m*3 12.8 C 14.5 km/h
1891 04-04-2020 14:30:00 12.9 C 5.3 g/m*3 12.9 C 12.9 km/h
1892 04-04-2020 14:35:00 13 C 5.33 g/m*3 13 C 12.9 km/h
1893 04-04-2020 14:40:00 13.1 C 5.25 g/m*3 13.1 C 12.9 km/h
1894 04-04-2020 14:45:00 13.2 C 5.4 g/m*3 13.2 C 12.9 km/h
1895 04-04-2020 14:50:00 13.2 C 5.28 g/m*3 13.2 C 14.5 km/h
1896 04-04-2020 14:55:00 13.2 C 5.4 g/m*3 13.2 C 8.1 km/h
1897 04-04-2020 15:00:00 13.3 C 5.2 g/m*3 13.3 C 16.1 km/h
1898 04-04-2020 15:05:00 13.2 C 5.4 g/m*3 13.2 C 8.1 km/h
1899 04-04-2020 15:10:00 13.3 C 5.31 g/m*3 13.3 C 12.9 km/h
1900 04-04-2020 15:15:00 13.3 C 5.2 g/m*3 13.3 C 12.9 km/h
Sensor: Nr:Datum:Temp:Abs-Feuchte:Windchill:Wind:
Aussen-T/F 1901 04-04-2020 15:20:00 13.3 C 5.2 g/m*3 13.3 C 12.9 km/h
1902 04-04-2020 15:25:00 13.3 C 5.31 g/m*3 13.3 C 12.9 km/h
1903 04-04-2020 15:30:00 13.6 C 5.41 g/m*3 13.6 C 11.3 km/h
1904 04-04-2020 15:35:00 13.7 C 5.45 g/m*3 13.7 C 9.7 km/h
1905 04-04-2020 15:40:00 13.8 C 5.36 g/m*3 13.8 C 6.4 km/h
1906 04-04-2020 15:45:00 13.9 C 5.39 g/m*3 13.9 C 14.5 km/h
1907 04-04-2020 15:50:00 14 C 5.31 g/m*3 14 C 16.1 km/h
1908 04-04-2020 15:55:00 14 C 5.31 g/m*3 14 C 14.5 km/h
1909 04-04-2020 16:00:00 14.2 C 5.37 g/m*3 14.2 C 12.9 km/h
1910 04-04-2020 16:05:00 14.4 C 5.32 g/m*3 14.4 C 14.5 km/h
1911 04-04-2020 16:10:00 14.4 C 5.32 g/m*3 14.4 C 12.9 km/h
1912 04-04-2020 16:15:00 14.7 C 5.41 g/m*3 14.7 C 6.4 km/h
1913 04-04-2020 16:20:00 14.8 C 5.32 g/m*3 14.8 C 11.3 km/h
1914 04-04-2020 16:25:00 14.7 C 5.29 g/m*3 14.7 C 12.9 km/h
1915 04-04-2020 16:30:00 14.7 C 5.41 g/m*3 14.7 C 11.3 km/h
1916 04-04-2020 16:35:00 14.9 C 5.48 g/m*3 14.9 C 8.1 km/h
1917 04-04-2020 16:40:00 15.2 C 5.58 g/m*3 15.2 C 8.1 km/h
1918 04-04-2020 16:45:00 15.3 C 5.48 g/m*3 15.3 C 9.7 km/h
1919 04-04-2020 16:50:00 15.4 C 5.52 g/m*3 15.4 C 9.7 km/h
1920 04-04-2020 16:55:00 15.6 C 5.45 g/m*3 15.6 C 8.1 km/h
1921 04-04-2020 17:00:00 15.7 C 5.62 g/m*3 15.7 C 9.7 km/h
1922 04-04-2020 17:05:00 15.9 C 5.69 g/m*3 15.9 C 8.1 km/h
1923 04-04-2020 17:10:00 16.1 C 5.48 g/m*3 16.1 C 8.1 km/h
1924 04-04-2020 17:15:00 16.1 C 5.62 g/m*3 16.1 C 9.7 km/h
1925 04-04-2020 17:20:00 15.9 C 5.55 g/m*3 15.9 C 9.7 km/h
Sensor: Nr:Datum:Temp:Abs-Feuchte:Windchill:Wind:
Aussen-T/F 1926 04-04-2020 17:25:00 15.9 C 5.55 g/m*3 15.9 C 12.9 km/h
1927 04-04-2020 17:30:00 15.8 C 5.65 g/m*3 15.8 C 8.1 km/h
1928 04-04-2020 17:35:00 15.8 C 5.52 g/m*3 15.8 C 11.3 km/h
1929 04-04-2020 17:40:00 15.7 C 5.75 g/m*3 15.7 C 8.1 km/h
1930 04-04-2020 17:45:00 15.9 C 5.82 g/m*3 15.9 C 8.1 km/h
1931 04-04-2020 17:50:00 16 C 5.72 g/m*3 16 C 11.3 km/h
1932 04-04-2020 17:55:00 16.1 C 5.76 g/m*3 16.1 C 6.4 km/h
1933 04-04-2020 18:00:00 16.3 C 6.1 g/m*3 16.3 C 6.4 km/h
1934 04-04-2020 18:05:00 16.5 C 5.76 g/m*3 16.5 C 11.3 km/h
1935 04-04-2020 18:10:00 16.5 C 6.04 g/m*3 16.5 C 8.1 km/h
1936 04-04-2020 18:15:00 16.5 C 5.9 g/m*3 16.5 C 9.7 km/h
1937 04-04-2020 18:20:00 16.4 C 5.86 g/m*3 16.4 C 16.1 km/h
1938 04-04-2020 18:25:00 16.3 C 5.97 g/m*3 16.3 C 8.1 km/h
1939 04-04-2020 18:30:00 16.1 C 5.89 g/m*3 16.1 C 12.9 km/h
1940 04-04-2020 18:35:00 16.1 C 6.03 g/m*3 16.1 C 9.7 km/h
1941 04-04-2020 18:40:00 16.2 C 6.07 g/m*3 16.2 C 6.4 km/h
1942 04-04-2020 18:45:00 16.3 C 5.97 g/m*3 16.3 C 8.1 km/h
1943 04-04-2020 18:50:00 16.1 C 6.03 g/m*3 16.1 C 11.3 km/h
1944 04-04-2020 18:55:00 16 C 5.99 g/m*3 16 C 6.4 km/h
1945 04-04-2020 19:00:00 16 C 6.13 g/m*3 16 C 8.1 km/h
1946 04-04-2020 19:05:00 16 C 5.99 g/m*3 16 C 6.4 km/h
1947 04-04-2020 19:10:00 15.9 C 5.96 g/m*3 15.9 C 9.7 km/h
1948 04-04-2020 19:15:00 15.8 C 5.92 g/m*3 15.8 C 6.4 km/h
1949 04-04-2020 19:20:00 15.6 C 5.98 g/m*3 15.6 C 6.4 km/h
1950 04-04-2020 19:25:00 15.4 C 6.31 g/m*3 15.4 C 1.6 km/h
Sensor: Nr:Datum:Temp:Abs-Feuchte:Windchill:Wind:
Aussen-T/F 1951 04-04-2020 19:30:00 15.3 C 6.01 g/m*3 15.3 C 3.2 km/h
1952 04-04-2020 19:35:00 15.1 C 6.32 g/m*3 15.1 C 0 km/h
1953 04-04-2020 19:40:00 14.9 C 6.5 g/m*3 14.9 C 3.2 km/h
1954 04-04-2020 19:45:00 14.4 C 6.43 g/m*3 14.4 C 3.2 km/h
1955 04-04-2020 19:50:00 13.9 C 6.35 g/m*3 13.9 C 4.8 km/h
1956 04-04-2020 19:55:00 13.2 C 6.2 g/m*3 13.2 C 4.8 km/h
1957 04-04-2020 20:00:00 12.6 C 6.2 g/m*3 12.6 C 6.4 km/h
1958 04-04-2020 20:05:00 12.1 C 6.11 g/m*3 12.1 C 6.4 km/h
1959 04-04-2020 20:10:00 11.7 C 6.07 g/m*3 11.7 C 4.8 km/h
1960 04-04-2020 20:15:00 11.3 C 6.02 g/m*3 11.3 C 6.4 km/h
1961 04-04-2020 20:20:00 10.9 C 6.07 g/m*3 10.41 C 6.4 km/h
1962 04-04-2020 20:25:00 10.6 C 6.05 g/m*3 10.6 C 4.8 km/h
1963 04-04-2020 20:30:00 10.3 C 6.03 g/m*3 9.72 C 6.4 km/h
1964 04-04-2020 20:35:00 9.9 C 5.88 g/m*3 9.25 C 6.4 km/h
1965 04-04-2020 20:40:00 9.7 C 5.81 g/m*3 9.02 C 6.4 km/h
1966 04-04-2020 20:45:00 9.4 C 5.7 g/m*3 9.4 C 4.8 km/h
1967 04-04-2020 20:50:00 9.2 C 5.63 g/m*3 8.45 C 6.4 km/h
1968 04-04-2020 20:55:00 9 C 5.64 g/m*3 8.21 C 6.4 km/h
1969 04-04-2020 21:00:00 8.8 C 5.57 g/m*3 7.58 C 8.1 km/h
1970 04-04-2020 21:05:00 8.7 C 5.53 g/m*3 7.87 C 6.4 km/h
1971 04-04-2020 21:10:00 8.6 C 5.59 g/m*3 8.6 C 4.8 km/h
1972 04-04-2020 21:15:00 8.5 C 5.55 g/m*3 7.64 C 6.4 km/h
1973 04-04-2020 21:20:00 8.4 C 5.51 g/m*3 8.4 C 4.8 km/h
1974 04-04-2020 21:25:00 8.3 C 5.48 g/m*3 8.3 C 4.8 km/h
1975 04-04-2020 21:30:00 8.2 C 5.53 g/m*3 8.2 C 4.8 km/h
Sensor: Nr:Datum:Temp:Abs-Feuchte:Windchill:Wind:
Aussen-T/F 1976 04-04-2020 21:35:00 8.1 C 5.57 g/m*3 8.1 C 4.8 km/h
1977 04-04-2020 21:40:00 8 C 5.54 g/m*3 8 C 3.2 km/h
1978 04-04-2020 21:45:00 7.8 C 5.55 g/m*3 7.8 C 1.6 km/h
1979 04-04-2020 21:50:00 7.7 C 5.51 g/m*3 7.7 C 3.2 km/h
1980 04-04-2020 21:55:00 7.5 C 5.52 g/m*3 7.5 C 3.2 km/h
1981 04-04-2020 22:00:00 7.3 C 5.45 g/m*3 7.3 C 1.6 km/h
1982 04-04-2020 22:05:00 7.1 C 5.46 g/m*3 7.1 C 1.6 km/h
1983 04-04-2020 22:10:00 6.8 C 5.43 g/m*3 6.8 C 0 km/h
1984 04-04-2020 22:15:00 6.6 C 5.36 g/m*3 6.6 C 0 km/h
1985 04-04-2020 22:20:00 6.4 C 5.36 g/m*3 6.4 C 0 km/h
1986 04-04-2020 22:25:00 6.2 C 5.37 g/m*3 6.2 C 0 km/h
1987 04-04-2020 22:30:00 6.2 C 5.44 g/m*3 6.2 C 0 km/h
1988 04-04-2020 22:35:00 6.2 C 5.44 g/m*3 6.2 C 0 km/h
1989 04-04-2020 22:40:00 6 C 5.37 g/m*3 6 C 0 km/h
1990 04-04-2020 22:45:00 5.8 C 5.3 g/m*3 5.8 C 0 km/h
1991 04-04-2020 22:50:00 5.7 C 5.27 g/m*3 5.7 C 0 km/h
1992 04-04-2020 22:55:00 5.6 C 5.23 g/m*3 5.6 C 0 km/h
1993 04-04-2020 23:00:00 5.4 C 5.16 g/m*3 5.4 C 0 km/h
1994 04-04-2020 23:05:00 5.3 C 5.13 g/m*3 5.3 C 0 km/h
1995 04-04-2020 23:10:00 5.2 C 5.1 g/m*3 5.2 C 0 km/h
1996 04-04-2020 23:15:00 5.1 C 5.13 g/m*3 5.1 C 0 km/h
1997 04-04-2020 23:20:00 4.9 C 5.06 g/m*3 4.9 C 0 km/h
1998 04-04-2020 23:25:00 4.8 C 5.1 g/m*3 4.8 C 0 km/h
1999 04-04-2020 23:30:00 4.6 C 5.1 g/m*3 4.6 C 0 km/h
2000 04-04-2020 23:35:00 4.4 C 5.03 g/m*3 4.4 C 0 km/h
Sensor: Nr:Datum:Temp:Abs-Feuchte:Windchill:Wind:
Aussen-T/F 2001 04-04-2020 23:40:00 4.4 C 5.09 g/m*3 4.4 C 0 km/h
2002 04-04-2020 23:45:00 4.3 C 5.06 g/m*3 4.3 C 0 km/h
2003 04-04-2020 23:50:00 4.3 C 5.06 g/m*3 4.3 C 0 km/h
2004 04-04-2020 23:55:00 4.2 C 5.03 g/m*3 4.2 C 0 km/h
2005 05-04-2020 00:00:00 4.1 C 4.99 g/m*3 4.1 C 0 km/h
2006 05-04-2020 00:05:00 4 C 4.96 g/m*3 4 C 0 km/h
2007 05-04-2020 00:10:00 3.9 C 4.99 g/m*3 3.9 C 0 km/h
2008 05-04-2020 00:15:00 3.8 C 4.96 g/m*3 3.8 C 0 km/h
2009 05-04-2020 00:20:00 3.7 C 4.99 g/m*3 3.7 C 0 km/h
2010 05-04-2020 00:25:00 3.6 C 5.01 g/m*3 3.6 C 0 km/h
2011 05-04-2020 00:30:00 3.5 C 4.98 g/m*3 3.5 C 0 km/h
2012 05-04-2020 00:35:00 3.4 C 4.95 g/m*3 3.4 C 0 km/h
2013 05-04-2020 00:40:00 3.3 C 4.97 g/m*3 3.3 C 0 km/h
2014 05-04-2020 00:45:00 3.3 C 4.97 g/m*3 3.3 C 0 km/h
2015 05-04-2020 00:50:00 3.3 C 4.97 g/m*3 3.3 C 0 km/h
2016 05-04-2020 00:55:00 3.2 C 4.94 g/m*3 3.2 C 0 km/h
2017 05-04-2020 01:00:00 3.1 C 4.91 g/m*3 3.1 C 0 km/h
2018 05-04-2020 01:05:00 3.1 C 4.97 g/m*3 3.1 C 0 km/h
2019 05-04-2020 01:10:00 2.9 C 4.9 g/m*3 2.9 C 0 km/h
2020 05-04-2020 01:15:00 2.9 C 4.96 g/m*3 2.9 C 0 km/h
2021 05-04-2020 01:20:00 2.9 C 4.96 g/m*3 2.9 C 0 km/h
2022 05-04-2020 01:25:00 2.9 C 4.96 g/m*3 2.9 C 0 km/h
2023 05-04-2020 01:30:00 2.9 C 5.02 g/m*3 2.9 C 0 km/h
2024 05-04-2020 01:35:00 2.9 C 5.02 g/m*3 2.9 C 0 km/h
2025 05-04-2020 01:40:00 2.9 C 4.96 g/m*3 2.9 C 0 km/h
Sensor: Nr:Datum:Temp:Abs-Feuchte:Windchill:Wind:
Aussen-T/F 2026 05-04-2020 01:45:00 2.8 C 4.93 g/m*3 2.8 C 0 km/h
2027 05-04-2020 01:50:00 2.8 C 4.99 g/m*3 2.8 C 0 km/h
2028 05-04-2020 01:55:00 2.7 C 4.89 g/m*3 2.7 C 0 km/h
2029 05-04-2020 02:00:00 2.6 C 4.92 g/m*3 2.6 C 0 km/h
2030 05-04-2020 02:05:00 2.5 C 4.89 g/m*3 2.5 C 0 km/h
2031 05-04-2020 02:10:00 2.4 C 4.91 g/m*3 2.4 C 0 km/h
2032 05-04-2020 02:15:00 2.3 C 4.88 g/m*3 2.3 C 0 km/h
2033 05-04-2020 02:20:00 2.3 C 4.93 g/m*3 2.3 C 0 km/h
2034 05-04-2020 02:25:00 2.3 C 4.93 g/m*3 2.3 C 0 km/h
2035 05-04-2020 02:30:00 2.3 C 4.93 g/m*3 2.3 C 0 km/h
2036 05-04-2020 02:35:00 2.3 C 4.88 g/m*3 2.3 C 0 km/h
2037 05-04-2020 02:40:00 2.3 C 4.93 g/m*3 2.3 C 0 km/h
2038 05-04-2020 02:45:00 2.2 C 4.84 g/m*3 2.2 C 0 km/h
2039 05-04-2020 02:50:00 2.2 C 4.9 g/m*3 2.2 C 0 km/h
2040 05-04-2020 02:55:00 2.1 C 4.87 g/m*3 2.1 C 3.2 km/h
2041 05-04-2020 03:00:00 2.1 C 4.87 g/m*3 2.1 C 3.2 km/h
2042 05-04-2020 03:05:00 2 C 4.83 g/m*3 2 C 0 km/h
2043 05-04-2020 03:10:00 1.9 C 4.8 g/m*3 1.9 C 0 km/h
2044 05-04-2020 03:15:00 1.9 C 4.8 g/m*3 1.9 C 0 km/h
2045 05-04-2020 03:20:00 1.9 C 4.86 g/m*3 1.9 C 0 km/h
2046 05-04-2020 03:25:00 1.9 C 4.86 g/m*3 1.9 C 0 km/h
2047 05-04-2020 03:30:00 1.8 C 4.82 g/m*3 1.8 C 0 km/h
2048 05-04-2020 03:35:00 1.8 C 4.82 g/m*3 1.8 C 0 km/h
2049 05-04-2020 03:40:00 1.7 C 4.79 g/m*3 1.7 C 0 km/h
2050 05-04-2020 03:45:00 1.6 C 4.76 g/m*3 1.6 C 0 km/h
Sensor: Nr:Datum:Temp:Abs-Feuchte:Windchill:Wind:
Aussen-T/F 2051 05-04-2020 03:50:00 1.6 C 4.76 g/m*3 1.6 C 0 km/h
2052 05-04-2020 03:55:00 1.6 C 4.81 g/m*3 1.6 C 0 km/h
2053 05-04-2020 04:00:00 1.5 C 4.78 g/m*3 1.5 C 0 km/h
2054 05-04-2020 04:05:00 1.4 C 4.75 g/m*3 1.4 C 0 km/h
2055 05-04-2020 04:10:00 1.4 C 4.75 g/m*3 1.4 C 0 km/h
2056 05-04-2020 04:15:00 1.3 C 4.72 g/m*3 1.3 C 0 km/h
2057 05-04-2020 04:20:00 1.3 C 4.77 g/m*3 1.3 C 0 km/h
2058 05-04-2020 04:25:00 1.3 C 4.77 g/m*3 1.3 C 0 km/h
2059 05-04-2020 04:30:00 1.3 C 4.77 g/m*3 1.3 C 0 km/h
2060 05-04-2020 04:35:00 1.3 C 4.77 g/m*3 1.3 C 0 km/h
2061 05-04-2020 04:40:00 1.2 C 4.74 g/m*3 1.2 C 0 km/h
2062 05-04-2020 04:45:00 1.2 C 4.74 g/m*3 1.2 C 0 km/h
2063 05-04-2020 04:50:00 1.1 C 4.7 g/m*3 1.1 C 0 km/h
2064 05-04-2020 04:55:00 1.1 C 4.7 g/m*3 1.1 C 0 km/h
2065 05-04-2020 05:00:00 1 C 4.67 g/m*3 1 C 0 km/h
2066 05-04-2020 05:05:00 0.9 C 4.64 g/m*3 0.9 C 0 km/h
2067 05-04-2020 05:10:00 0.9 C 4.69 g/m*3 0.9 C 0 km/h
2068 05-04-2020 05:15:00 0.8 C 4.66 g/m*3 0.8 C 0 km/h
2069 05-04-2020 05:20:00 0.8 C 4.66 g/m*3 0.8 C 0 km/h
2070 05-04-2020 05:25:00 0.8 C 4.66 g/m*3 0.8 C 0 km/h
2071 05-04-2020 05:30:00 0.7 C 4.63 g/m*3 0.7 C 0 km/h
2072 05-04-2020 05:35:00 0.7 C 4.63 g/m*3 0.7 C 0 km/h
2073 05-04-2020 05:40:00 0.6 C 4.6 g/m*3 0.6 C 0 km/h
2074 05-04-2020 05:45:00 0.6 C 4.6 g/m*3 0.6 C 0 km/h
2075 05-04-2020 05:50:00 0.5 C 4.56 g/m*3 0.5 C 0 km/h
Sensor: Nr:Datum:Temp:Abs-Feuchte:Windchill:Wind:
Aussen-T/F 2076 05-04-2020 05:55:00 0.5 C 4.61 g/m*3 0.5 C 0 km/h
2077 05-04-2020 06:00:00 0.5 C 4.61 g/m*3 0.5 C 0 km/h
2078 05-04-2020 06:05:00 0.4 C 4.58 g/m*3 0.4 C 0 km/h
2079 05-04-2020 06:10:00 0.4 C 4.58 g/m*3 0.4 C 0 km/h
2080 05-04-2020 06:15:00 0.4 C 4.58 g/m*3 0.4 C 0 km/h
2081 05-04-2020 06:20:00 0.4 C 4.58 g/m*3 0.4 C 0 km/h
2082 05-04-2020 06:25:00 0.4 C 4.58 g/m*3 0.4 C 0 km/h
2083 05-04-2020 06:30:00 0.4 C 4.58 g/m*3 0.4 C 0 km/h
2084 05-04-2020 06:35:00 0.3 C 4.55 g/m*3 0.3 C 0 km/h
2085 05-04-2020 06:40:00 0.3 C 4.55 g/m*3 0.3 C 0 km/h
2086 05-04-2020 06:45:00 0.3 C 4.6 g/m*3 0.3 C 0 km/h
2087 05-04-2020 06:50:00 0.3 C 4.6 g/m*3 0.3 C 0 km/h
2088 05-04-2020 06:55:00 0.3 C 4.6 g/m*3 0.3 C 0 km/h
2089 05-04-2020 07:00:00 0.3 C 4.6 g/m*3 0.3 C 0 km/h
2090 05-04-2020 07:05:00 0.2 C 4.57 g/m*3 0.2 C 0 km/h
2091 05-04-2020 07:10:00 0.2 C 4.57 g/m*3 0.2 C 0 km/h
2092 05-04-2020 07:15:00 0.3 C 4.6 g/m*3 0.3 C 0 km/h
2093 05-04-2020 07:20:00 0.3 C 4.6 g/m*3 0.3 C 0 km/h
2094 05-04-2020 07:25:00 0.3 C 4.6 g/m*3 0.3 C 0 km/h
2095 05-04-2020 07:30:00 0.3 C 4.6 g/m*3 0.3 C 0 km/h
2096 05-04-2020 07:35:00 0.3 C 4.6 g/m*3 0.3 C 0 km/h
2097 05-04-2020 07:40:00 0.4 C 4.63 g/m*3 0.4 C 0 km/h
2098 05-04-2020 07:45:00 0.4 C 4.63 g/m*3 0.4 C 0 km/h
2099 05-04-2020 07:50:00 0.4 C 4.63 g/m*3 0.4 C 0 km/h
2100 05-04-2020 07:55:00 0.5 C 4.66 g/m*3 0.5 C 0 km/h
Sensor: Nr:Datum:Temp:Abs-Feuchte:Windchill:Wind:
Aussen-T/F 2101 05-04-2020 08:00:00 0.5 C 4.66 g/m*3 0.5 C 0 km/h
2102 05-04-2020 08:05:00 0.6 C 4.75 g/m*3 0.6 C 0 km/h
2103 05-04-2020 08:10:00 0.6 C 4.75 g/m*3 0.6 C 0 km/h
2104 05-04-2020 08:15:00 0.7 C 4.78 g/m*3 0.7 C 0 km/h
2105 05-04-2020 08:20:00 0.7 C 4.78 g/m*3 0.7 C 0 km/h
2106 05-04-2020 08:25:00 0.8 C 4.81 g/m*3 0.8 C 0 km/h
2107 05-04-2020 08:30:00 0.9 C 4.85 g/m*3 0.9 C 0 km/h
2108 05-04-2020 08:35:00 1.1 C 4.91 g/m*3 1.1 C 0 km/h
2109 05-04-2020 08:40:00 1.2 C 4.95 g/m*3 1.2 C 0 km/h
2110 05-04-2020 08:45:00 1.2 C 4.95 g/m*3 1.2 C 0 km/h
2111 05-04-2020 08:50:00 1.3 C 4.98 g/m*3 1.3 C 0 km/h
2112 05-04-2020 08:55:00 1.5 C 5.05 g/m*3 1.5 C 0 km/h
2113 05-04-2020 09:00:00 1.6 C 5.08 g/m*3 1.6 C 0 km/h
2114 05-04-2020 09:05:00 1.7 C 5.12 g/m*3 1.7 C 0 km/h
2115 05-04-2020 09:10:00 1.8 C 5.15 g/m*3 1.8 C 0 km/h
2116 05-04-2020 09:15:00 1.9 C 5.19 g/m*3 1.9 C 0 km/h
2117 05-04-2020 09:20:00 2.2 C 5.29 g/m*3 2.2 C 0 km/h
2118 05-04-2020 09:25:00 2.3 C 5.39 g/m*3 2.3 C 0 km/h
2119 05-04-2020 09:30:00 2.6 C 5.5 g/m*3 2.6 C 0 km/h
2120 05-04-2020 09:35:00 2.8 C 5.57 g/m*3 2.8 C 0 km/h
2121 05-04-2020 09:40:00 3 C 5.65 g/m*3 3 C 0 km/h
2122 05-04-2020 09:45:00 3.3 C 5.76 g/m*3 3.3 C 0 km/h
2123 05-04-2020 09:50:00 3.4 C 5.74 g/m*3 3.4 C 0 km/h
2124 05-04-2020 09:55:00 3.7 C 5.86 g/m*3 3.7 C 0 km/h
2125 05-04-2020 10:00:00 3.8 C 5.9 g/m*3 3.8 C 0 km/h
Sensor: Nr:Datum:Temp:Abs-Feuchte:Windchill:Wind:
Aussen-T/F 2126 05-04-2020 10:05:00 4.1 C 5.95 g/m*3 4.1 C 0 km/h
2127 05-04-2020 10:10:00 4.4 C 6.07 g/m*3 4.4 C 0 km/h
2128 05-04-2020 10:15:00 4.7 C 6.13 g/m*3 4.7 C 0 km/h
2129 05-04-2020 10:20:00 4.9 C 6.21 g/m*3 4.9 C 0 km/h
2130 05-04-2020 10:25:00 5.2 C 6.27 g/m*3 5.2 C 0 km/h
2131 05-04-2020 10:30:00 5.6 C 6.36 g/m*3 5.6 C 0 km/h
2132 05-04-2020 10:35:00 6.1 C 6.43 g/m*3 6.1 C 0 km/h
2133 05-04-2020 10:40:00 6.5 C 6.52 g/m*3 6.5 C 0 km/h
2134 05-04-2020 10:45:00 6.9 C 6.54 g/m*3 6.9 C 0 km/h
2135 05-04-2020 10:50:00 7.3 C 6.64 g/m*3 7.3 C 0 km/h
2136 05-04-2020 10:55:00 7.8 C 6.69 g/m*3 7.8 C 0 km/h
2137 05-04-2020 11:00:00 8.3 C 6.74 g/m*3 8.3 C 0 km/h
2138 05-04-2020 11:05:00 8.9 C 6.92 g/m*3 8.9 C 4.8 km/h
2139 05-04-2020 11:10:00 9.4 C 6.87 g/m*3 9.4 C 4.8 km/h
2140 05-04-2020 11:15:00 9.9 C 7 g/m*3 9.9 C 0 km/h
2141 05-04-2020 11:20:00 10.3 C 6.8 g/m*3 10.3 C 1.6 km/h
2142 05-04-2020 11:25:00 10.7 C 6.97 g/m*3 10.7 C 1.6 km/h
2143 05-04-2020 11:30:00 11.4 C 6.57 g/m*3 11.4 C 8.1 km/h
2144 05-04-2020 11:35:00 12.4 C 6.45 g/m*3 12.4 C 4.8 km/h
2145 05-04-2020 11:40:00 13.1 C 6.39 g/m*3 13.1 C 9.7 km/h
2146 05-04-2020 11:45:00 13.7 C 5.8 g/m*3 13.7 C 14.5 km/h
2147 05-04-2020 11:50:00 14.2 C 5.74 g/m*3 14.2 C 8.1 km/h
2148 05-04-2020 11:55:00 14.8 C 5.7 g/m*3 14.8 C 6.4 km/h
2149 05-04-2020 12:00:00 15.3 C 5.62 g/m*3 15.3 C 14.5 km/h
2150 05-04-2020 12:05:00 15.6 C 5.45 g/m*3 15.6 C 19.3 km/h
Sensor: Nr:Datum:Temp:Abs-Feuchte:Windchill:Wind:
Aussen-T/F 2151 05-04-2020 12:10:00 15.8 C 5.65 g/m*3 15.8 C 8.1 km/h
2152 05-04-2020 12:15:00 16.1 C 5.76 g/m*3 16.1 C 14.5 km/h
2153 05-04-2020 12:20:00 16.2 C 5.52 g/m*3 16.2 C 16.1 km/h
2154 05-04-2020 12:25:00 16.3 C 5.41 g/m*3 16.3 C 9.7 km/h
2155 05-04-2020 12:30:00 16.4 C 5.3 g/m*3 16.4 C 12.9 km/h
2156 05-04-2020 12:35:00 16.6 C 5.51 g/m*3 16.6 C 11.3 km/h
2157 05-04-2020 12:40:00 16.7 C 5.68 g/m*3 16.7 C 11.3 km/h
2158 05-04-2020 12:45:00 16.8 C 5.43 g/m*3 16.8 C 6.4 km/h
2159 05-04-2020 12:50:00 16.8 C 5.58 g/m*3 16.8 C 8.1 km/h
2160 05-04-2020 12:55:00 16.8 C 5.29 g/m*3 16.8 C 9.7 km/h
2161 05-04-2020 13:00:00 16.8 C 5.43 g/m*3 16.8 C 12.9 km/h
2162 05-04-2020 13:05:00 16.9 C 5.32 g/m*3 16.9 C 9.7 km/h
2163 05-04-2020 13:10:00 17.1 C 5.53 g/m*3 17.1 C 9.7 km/h
2164 05-04-2020 13:15:00 17.3 C 5.6 g/m*3 17.3 C 11.3 km/h
2165 05-04-2020 13:20:00 17.2 C 5.42 g/m*3 17.2 C 9.7 km/h
2166 05-04-2020 13:25:00 17.3 C 5.45 g/m*3 17.3 C 12.9 km/h
2167 05-04-2020 13:30:00 17.4 C 5.48 g/m*3 17.4 C 11.3 km/h
2168 05-04-2020 13:35:00 17.4 C 5.48 g/m*3 17.4 C 14.5 km/h
2169 05-04-2020 13:40:00 17.3 C 5.6 g/m*3 17.3 C 19.3 km/h
2170 05-04-2020 13:45:00 17.3 C 5.3 g/m*3 17.3 C 9.7 km/h
2171 05-04-2020 13:50:00 17.3 C 5.45 g/m*3 17.3 C 12.9 km/h
2172 05-04-2020 13:55:00 17.4 C 5.34 g/m*3 17.4 C 16.1 km/h
2173 05-04-2020 14:00:00 17.6 C 5.55 g/m*3 17.6 C 20.9 km/h
2174 05-04-2020 14:05:00 17.7 C 5.58 g/m*3 17.7 C 8.1 km/h
2175 05-04-2020 14:10:00 17.9 C 5.34 g/m*3 17.9 C 12.9 km/h
Sensor: Nr:Datum:Temp:Abs-Feuchte:Windchill:Wind:
Aussen-T/F 2176 05-04-2020 14:15:00 17.9 C 5.65 g/m*3 17.9 C 22.5 km/h
2177 05-04-2020 14:20:00 18.1 C 5.56 g/m*3 18.1 C 16.1 km/h
2178 05-04-2020 14:25:00 18.2 C 5.6 g/m*3 18.2 C 17.7 km/h
2179 05-04-2020 14:30:00 18.2 C 5.44 g/m*3 18.2 C 16.1 km/h
2180 05-04-2020 14:35:00 18.3 C 5.63 g/m*3 18.3 C 11.3 km/h
2181 05-04-2020 14:40:00 18.6 C 5.57 g/m*3 18.6 C 8.1 km/h
2182 05-04-2020 14:45:00 18.7 C 5.6 g/m*3 18.7 C 11.3 km/h
2183 05-04-2020 14:50:00 18.8 C 5.48 g/m*3 18.8 C 14.5 km/h
2184 05-04-2020 14:55:00 18.6 C 5.57 g/m*3 18.6 C 12.9 km/h
2185 05-04-2020 15:00:00 18.6 C 5.57 g/m*3 18.6 C 6.4 km/h
2186 05-04-2020 15:05:00 18.8 C 5.64 g/m*3 18.8 C 6.4 km/h
2187 05-04-2020 15:10:00 18.9 C 5.51 g/m*3 18.9 C 6.4 km/h
2188 05-04-2020 15:15:00 19 C 5.38 g/m*3 19 C 6.4 km/h
2189 05-04-2020 15:20:00 18.9 C 5.51 g/m*3 18.9 C 11.3 km/h
2190 05-04-2020 15:25:00 18.9 C 5.35 g/m*3 18.9 C 8.1 km/h
2191 05-04-2020 15:30:00 19.1 C 5.41 g/m*3 19.1 C 14.5 km/h
2192 05-04-2020 15:35:00 18.9 C 5.18 g/m*3 18.9 C 14.5 km/h
2193 05-04-2020 15:40:00 18.8 C 5.31 g/m*3 18.8 C 6.4 km/h
2194 05-04-2020 15:45:00 18.9 C 5.67 g/m*3 18.9 C 11.3 km/h
2195 05-04-2020 15:50:00 19 C 5.54 g/m*3 19 C 9.7 km/h
2196 05-04-2020 15:55:00 19.2 C 5.44 g/m*3 19.2 C 11.3 km/h
2197 05-04-2020 16:00:00 19.2 C 5.44 g/m*3 19.2 C 12.9 km/h
2198 05-04-2020 16:05:00 19.3 C 5.31 g/m*3 19.3 C 14.5 km/h
2199 05-04-2020 16:10:00 19.3 C 5.47 g/m*3 19.3 C 19.3 km/h
2200 05-04-2020 16:15:00 19.4 C 5.51 g/m*3 19.4 C 12.9 km/h
Sensor: Nr:Datum:Temp:Abs-Feuchte:Windchill:Wind:
Aussen-T/F 2201 05-04-2020 16:20:00 19.5 C 5.54 g/m*3 19.5 C 17.7 km/h
2202 05-04-2020 16:25:00 19.6 C 5.4 g/m*3 19.6 C 17.7 km/h
2203 05-04-2020 16:30:00 19.6 C 5.74 g/m*3 19.6 C 11.3 km/h
2204 05-04-2020 16:35:00 19.8 C 5.64 g/m*3 19.8 C 11.3 km/h
2205 05-04-2020 16:40:00 19.9 C 5.67 g/m*3 19.9 C 8.1 km/h
2206 05-04-2020 16:45:00 20.3 C 5.63 g/m*3 20.3 C 12.9 km/h
2207 05-04-2020 16:50:00 20.3 C 5.45 g/m*3 20.3 C 16.1 km/h
2208 05-04-2020 16:55:00 20.2 C 5.42 g/m*3 20.2 C 16.1 km/h
2209 05-04-2020 17:00:00 20.2 C 5.42 g/m*3 20.2 C 12.9 km/h
2210 05-04-2020 17:05:00 20.1 C 5.74 g/m*3 20.1 C 12.9 km/h
2211 05-04-2020 17:10:00 20.5 C 5.69 g/m*3 20.5 C 8.1 km/h
2212 05-04-2020 17:15:00 20.9 C 5.83 g/m*3 20.9 C 6.4 km/h
2213 05-04-2020 17:20:00 21.2 C 5.56 g/m*3 21.2 C 6.4 km/h
2214 05-04-2020 17:25:00 21.1 C 5.71 g/m*3 21.1 C 11.3 km/h
2215 05-04-2020 17:30:00 21.2 C 5.56 g/m*3 21.2 C 9.7 km/h
2216 05-04-2020 17:35:00 21.2 C 5.56 g/m*3 21.2 C 12.9 km/h
2217 05-04-2020 17:40:00 21.2 C 5.56 g/m*3 21.2 C 12.9 km/h
2218 05-04-2020 17:45:00 21.1 C 5.53 g/m*3 21.1 C 9.7 km/h
2219 05-04-2020 17:50:00 21 C 5.5 g/m*3 21 C 9.7 km/h
2220 05-04-2020 17:55:00 21.1 C 5.53 g/m*3 21.1 C 8.1 km/h
2221 05-04-2020 18:00:00 20.9 C 5.65 g/m*3 20.9 C 8.1 km/h
2222 05-04-2020 18:05:00 20.9 C 5.46 g/m*3 20.9 C 8.1 km/h
2223 05-04-2020 18:10:00 20.7 C 5.4 g/m*3 20.7 C 14.5 km/h
2224 05-04-2020 18:15:00 20.4 C 5.48 g/m*3 20.4 C 11.3 km/h
2225 05-04-2020 18:20:00 20.5 C 5.52 g/m*3 20.5 C 6.4 km/h
Sensor: Nr:Datum:Temp:Abs-Feuchte:Windchill:Wind:
Aussen-T/F 2226 05-04-2020 18:25:00 20.7 C 5.76 g/m*3 20.7 C 8.1 km/h
2227 05-04-2020 18:30:00 20.7 C 5.58 g/m*3 20.7 C 9.7 km/h
2228 05-04-2020 18:35:00 20.7 C 5.76 g/m*3 20.7 C 9.7 km/h
2229 05-04-2020 18:40:00 20.6 C 5.55 g/m*3 20.6 C 9.7 km/h
2230 05-04-2020 18:45:00 20.4 C 5.48 g/m*3 20.4 C 11.3 km/h
2231 05-04-2020 18:50:00 20.4 C 5.48 g/m*3 20.4 C 6.4 km/h
2232 05-04-2020 18:55:00 20.4 C 5.48 g/m*3 20.4 C 8.1 km/h
2233 05-04-2020 19:00:00 20.3 C 5.45 g/m*3 20.3 C 6.4 km/h
2234 05-04-2020 19:05:00 20.3 C 5.45 g/m*3 20.3 C 4.8 km/h
2235 05-04-2020 19:10:00 20.2 C 5.42 g/m*3 20.2 C 8.1 km/h
2236 05-04-2020 19:15:00 20.1 C 5.56 g/m*3 20.1 C 4.8 km/h
2237 05-04-2020 19:20:00 19.9 C 5.67 g/m*3 19.9 C 1.6 km/h
2238 05-04-2020 19:25:00 19.8 C 6.15 g/m*3 19.8 C 3.2 km/h
2239 05-04-2020 19:30:00 19.6 C 5.91 g/m*3 19.6 C 4.8 km/h
2240 05-04-2020 19:35:00 19.4 C 6.01 g/m*3 19.4 C 1.6 km/h
2241 05-04-2020 19:40:00 19.1 C 6.23 g/m*3 19.1 C 3.2 km/h
2242 05-04-2020 19:45:00 18.6 C 6.21 g/m*3 18.6 C 3.2 km/h
2243 05-04-2020 19:50:00 17.9 C 6.11 g/m*3 17.9 C 4.8 km/h
2244 05-04-2020 19:55:00 17.2 C 6.15 g/m*3 17.2 C 4.8 km/h
2245 05-04-2020 20:00:00 16.4 C 6.14 g/m*3 16.4 C 4.8 km/h
2246 05-04-2020 20:05:00 15.8 C 6.06 g/m*3 15.8 C 6.4 km/h
2247 05-04-2020 20:10:00 15.1 C 6.06 g/m*3 15.1 C 6.4 km/h
2248 05-04-2020 20:15:00 14.6 C 5.88 g/m*3 14.6 C 6.4 km/h
2249 05-04-2020 20:20:00 14.2 C 6.11 g/m*3 14.2 C 6.4 km/h
2250 05-04-2020 20:25:00 13.8 C 5.96 g/m*3 13.8 C 6.4 km/h
Sensor: Nr:Datum:Temp:Abs-Feuchte:Windchill:Wind:
Aussen-T/F 2251 05-04-2020 20:30:00 13.4 C 5.93 g/m*3 13.4 C 6.4 km/h
2252 05-04-2020 20:35:00 13.1 C 5.93 g/m*3 13.1 C 6.4 km/h
2253 05-04-2020 20:40:00 12.8 C 5.94 g/m*3 12.8 C 6.4 km/h
2254 05-04-2020 20:45:00 12.6 C 5.97 g/m*3 12.6 C 4.8 km/h
2255 05-04-2020 20:50:00 12.4 C 5.9 g/m*3 12.4 C 4.8 km/h
2256 05-04-2020 20:55:00 12.3 C 5.86 g/m*3 12.3 C 6.4 km/h
2257 05-04-2020 21:00:00 12.1 C 6.01 g/m*3 12.1 C 6.4 km/h
2258 05-04-2020 21:05:00 11.9 C 5.93 g/m*3 11.9 C 6.4 km/h
2259 05-04-2020 21:10:00 11.8 C 6 g/m*3 11.8 C 6.4 km/h
2260 05-04-2020 21:15:00 11.7 C 5.96 g/m*3 11.7 C 6.4 km/h
2261 05-04-2020 21:20:00 11.6 C 5.92 g/m*3 11.6 C 6.4 km/h
2262 05-04-2020 21:25:00 11.4 C 5.85 g/m*3 11.4 C 4.8 km/h
2263 05-04-2020 21:30:00 11.3 C 5.92 g/m*3 11.3 C 4.8 km/h
2264 05-04-2020 21:35:00 11.2 C 5.88 g/m*3 11.2 C 6.4 km/h
2265 05-04-2020 21:40:00 11.1 C 5.84 g/m*3 11.1 C 6.4 km/h
2266 05-04-2020 21:45:00 10.9 C 5.87 g/m*3 10.9 C 4.8 km/h
2267 05-04-2020 21:50:00 10.8 C 5.83 g/m*3 10.29 C 6.4 km/h
2268 05-04-2020 21:55:00 10.6 C 5.86 g/m*3 10.6 C 4.8 km/h
2269 05-04-2020 22:00:00 10.4 C 5.78 g/m*3 10.4 C 4.8 km/h
2270 05-04-2020 22:05:00 10.3 C 5.84 g/m*3 10.3 C 4.8 km/h
2271 05-04-2020 22:10:00 10.1 C 5.86 g/m*3 10.1 C 3.2 km/h
2272 05-04-2020 22:15:00 9.9 C 5.79 g/m*3 9.9 C 4.8 km/h
2273 05-04-2020 22:20:00 9.7 C 5.72 g/m*3 9.7 C 4.8 km/h
2274 05-04-2020 22:25:00 9.6 C 5.77 g/m*3 9.6 C 3.2 km/h
2275 05-04-2020 22:30:00 9.5 C 5.73 g/m*3 9.5 C 1.6 km/h
Sensor: Nr:Datum:Temp:Abs-Feuchte:Windchill:Wind:
Aussen-T/F 2276 05-04-2020 22:35:00 9.4 C 5.79 g/m*3 9.4 C 1.6 km/h
2277 05-04-2020 22:40:00 9.2 C 5.71 g/m*3 9.2 C 1.6 km/h
2278 05-04-2020 22:45:00 9.1 C 5.68 g/m*3 9.1 C 0 km/h
2279 05-04-2020 22:50:00 8.9 C 5.69 g/m*3 8.9 C 0 km/h
2280 05-04-2020 22:55:00 8.9 C 5.78 g/m*3 8.9 C 0 km/h
2281 05-04-2020 23:00:00 8.8 C 5.83 g/m*3 8.8 C 0 km/h
2282 05-04-2020 23:05:00 8.6 C 5.84 g/m*3 8.6 C 0 km/h
2283 05-04-2020 23:10:00 8.4 C 5.77 g/m*3 8.4 C 1.6 km/h
2284 05-04-2020 23:15:00 8.2 C 5.78 g/m*3 8.2 C 0 km/h
2285 05-04-2020 23:20:00 8.1 C 5.74 g/m*3 8.1 C 0 km/h
2286 05-04-2020 23:25:00 8 C 5.7 g/m*3 8 C 0 km/h
2287 05-04-2020 23:30:00 7.9 C 5.67 g/m*3 7.9 C 0 km/h
2288 05-04-2020 23:35:00 7.8 C 5.63 g/m*3 7.8 C 0 km/h
2289 05-04-2020 23:40:00 7.7 C 5.59 g/m*3 7.7 C 0 km/h
2290 05-04-2020 23:45:00 7.7 C 5.68 g/m*3 7.7 C 0 km/h
2291 05-04-2020 23:50:00 7.6 C 5.64 g/m*3 7.6 C 0 km/h
2292 05-04-2020 23:55:00 7.4 C 5.57 g/m*3 7.4 C 0 km/h
2293 06-04-2020 00:00:00 7.3 C 5.61 g/m*3 7.3 C 0 km/h
2294 06-04-2020 00:05:00 7.2 C 5.57 g/m*3 7.2 C 0 km/h
2295 06-04-2020 00:10:00 7.1 C 5.62 g/m*3 7.1 C 0 km/h
2296 06-04-2020 00:15:00 7.1 C 5.69 g/m*3 7.1 C 0 km/h
2297 06-04-2020 00:20:00 7.1 C 5.69 g/m*3 7.1 C 0 km/h
2298 06-04-2020 00:25:00 7 C 5.66 g/m*3 7 C 0 km/h
2299 06-04-2020 00:30:00 6.9 C 5.54 g/m*3 6.9 C 0 km/h
2300 06-04-2020 00:35:00 6.9 C 5.62 g/m*3 6.9 C 0 km/h
Sensor: Nr:Datum:Temp:Abs-Feuchte:Windchill:Wind:
Aussen-T/F 2301 06-04-2020 00:40:00 6.7 C 5.55 g/m*3 6.7 C 0 km/h
2302 06-04-2020 00:45:00 6.6 C 5.51 g/m*3 6.6 C 0 km/h
2303 06-04-2020 00:50:00 6.5 C 5.62 g/m*3 6.5 C 0 km/h
2304 06-04-2020 00:55:00 6.4 C 5.59 g/m*3 6.4 C 0 km/h
2305 06-04-2020 01:00:00 6.3 C 5.63 g/m*3 6.3 C 0 km/h
2306 06-04-2020 01:05:00 6.2 C 5.59 g/m*3 6.2 C 0 km/h
2307 06-04-2020 01:10:00 6.2 C 5.66 g/m*3 6.2 C 0 km/h
2308 06-04-2020 01:15:00 6.1 C 5.55 g/m*3 6.1 C 0 km/h
2309 06-04-2020 01:20:00 6 C 5.59 g/m*3 6 C 0 km/h
2310 06-04-2020 01:25:00 5.9 C 5.55 g/m*3 5.9 C 0 km/h
2311 06-04-2020 01:30:00 5.8 C 5.52 g/m*3 5.8 C 0 km/h
2312 06-04-2020 01:35:00 5.7 C 5.55 g/m*3 5.7 C 0 km/h
2313 06-04-2020 01:40:00 5.6 C 5.51 g/m*3 5.6 C 0 km/h
2314 06-04-2020 01:45:00 5.5 C 5.55 g/m*3 5.5 C 0 km/h
2315 06-04-2020 01:50:00 5.4 C 5.51 g/m*3 5.4 C 0 km/h
2316 06-04-2020 01:55:00 5.4 C 5.51 g/m*3 5.4 C 0 km/h
2317 06-04-2020 02:00:00 5.4 C 5.58 g/m*3 5.4 C 0 km/h
2318 06-04-2020 02:05:00 5.3 C 5.48 g/m*3 5.3 C 0 km/h
2319 06-04-2020 02:10:00 5.1 C 5.47 g/m*3 5.1 C 0 km/h
2320 06-04-2020 02:15:00 5 C 5.5 g/m*3 5 C 0 km/h
2321 06-04-2020 02:20:00 5 C 5.5 g/m*3 5 C 0 km/h
2322 06-04-2020 02:25:00 4.9 C 5.4 g/m*3 4.9 C 0 km/h
2323 06-04-2020 02:30:00 4.9 C 5.47 g/m*3 4.9 C 0 km/h
2324 06-04-2020 02:35:00 4.8 C 5.43 g/m*3 4.8 C 0 km/h
2325 06-04-2020 02:40:00 4.8 C 5.43 g/m*3 4.8 C 0 km/h
Sensor: Nr:Datum:Temp:Abs-Feuchte:Windchill:Wind:
Aussen-T/F 2326 06-04-2020 02:45:00 4.8 C 5.43 g/m*3 4.8 C 0 km/h
2327 06-04-2020 02:50:00 4.7 C 5.4 g/m*3 4.7 C 0 km/h
2328 06-04-2020 02:55:00 4.6 C 5.36 g/m*3 4.6 C 0 km/h
2329 06-04-2020 03:00:00 4.4 C 5.35 g/m*3 4.4 C 0 km/h
2330 06-04-2020 03:05:00 4.4 C 5.35 g/m*3 4.4 C 0 km/h
2331 06-04-2020 03:10:00 4.3 C 5.32 g/m*3 4.3 C 0 km/h
2332 06-04-2020 03:15:00 4.3 C 5.32 g/m*3 4.3 C 0 km/h
2333 06-04-2020 03:20:00 4.2 C 5.35 g/m*3 4.2 C 0 km/h
2334 06-04-2020 03:25:00 4.2 C 5.35 g/m*3 4.2 C 0 km/h
2335 06-04-2020 03:30:00 4.2 C 5.35 g/m*3 4.2 C 0 km/h
2336 06-04-2020 03:35:00 4.1 C 5.31 g/m*3 4.1 C 0 km/h
2337 06-04-2020 03:40:00 4.1 C 5.31 g/m*3 4.1 C 0 km/h
2338 06-04-2020 03:45:00 4 C 5.28 g/m*3 4 C 0 km/h
2339 06-04-2020 03:50:00 3.9 C 5.24 g/m*3 3.9 C 0 km/h
2340 06-04-2020 03:55:00 3.9 C 5.31 g/m*3 3.9 C 0 km/h
2341 06-04-2020 04:00:00 3.8 C 5.27 g/m*3 3.8 C 0 km/h
2342 06-04-2020 04:05:00 3.8 C 5.27 g/m*3 3.8 C 0 km/h
2343 06-04-2020 04:10:00 3.8 C 5.27 g/m*3 3.8 C 0 km/h
2344 06-04-2020 04:15:00 3.8 C 5.27 g/m*3 3.8 C 0 km/h
2345 06-04-2020 04:20:00 3.8 C 5.27 g/m*3 3.8 C 0 km/h
2346 06-04-2020 04:25:00 3.8 C 5.27 g/m*3 3.8 C 0 km/h
2347 06-04-2020 04:30:00 3.7 C 5.23 g/m*3 3.7 C 0 km/h
2348 06-04-2020 04:35:00 3.6 C 5.2 g/m*3 3.6 C 0 km/h
2349 06-04-2020 04:40:00 3.5 C 5.23 g/m*3 3.5 C 0 km/h
2350 06-04-2020 04:45:00 3.4 C 5.19 g/m*3 3.4 C 0 km/h
Sensor: Nr:Datum:Temp:Abs-Feuchte:Windchill:Wind:
Aussen-T/F 2351 06-04-2020 04:50:00 3.3 C 5.16 g/m*3 3.3 C 0 km/h
2352 06-04-2020 04:55:00 3.2 C 5.18 g/m*3 3.2 C 0 km/h
2353 06-04-2020 05:00:00 3.2 C 5.18 g/m*3 3.2 C 0 km/h
2354 06-04-2020 05:05:00 3.2 C 5.18 g/m*3 3.2 C 0 km/h
2355 06-04-2020 05:10:00 3.2 C 5.18 g/m*3 3.2 C 0 km/h
2356 06-04-2020 05:15:00 3.2 C 5.18 g/m*3 3.2 C 0 km/h
2357 06-04-2020 05:20:00 3.1 C 5.15 g/m*3 3.1 C 0 km/h
2358 06-04-2020 05:25:00 3 C 5.11 g/m*3 3 C 0 km/h
2359 06-04-2020 05:30:00 2.9 C 5.08 g/m*3 2.9 C 0 km/h
2360 06-04-2020 05:35:00 2.9 C 5.14 g/m*3 2.9 C 0 km/h
2361 06-04-2020 05:40:00 2.9 C 5.14 g/m*3 2.9 C 0 km/h
2362 06-04-2020 05:45:00 2.8 C 5.1 g/m*3 2.8 C 0 km/h
2363 06-04-2020 05:50:00 2.8 C 5.1 g/m*3 2.8 C 0 km/h
2364 06-04-2020 05:55:00 2.7 C 5.07 g/m*3 2.7 C 0 km/h
2365 06-04-2020 06:00:00 2.6 C 5.03 g/m*3 2.6 C 0 km/h
2366 06-04-2020 06:05:00 2.6 C 5.09 g/m*3 2.6 C 0 km/h
2367 06-04-2020 06:10:00 2.4 C 5.02 g/m*3 2.4 C 0 km/h
2368 06-04-2020 06:15:00 2.4 C 5.02 g/m*3 2.4 C 0 km/h
2369 06-04-2020 06:20:00 2.3 C 4.99 g/m*3 2.3 C 0 km/h
2370 06-04-2020 06:25:00 2.2 C 4.96 g/m*3 2.2 C 0 km/h
2371 06-04-2020 06:30:00 2.2 C 5.01 g/m*3 2.2 C 0 km/h
2372 06-04-2020 06:35:00 2.1 C 4.98 g/m*3 2.1 C 0 km/h
2373 06-04-2020 06:40:00 2.1 C 4.98 g/m*3 2.1 C 0 km/h
2374 06-04-2020 06:45:00 2.1 C 4.98 g/m*3 2.1 C 0 km/h
2375 06-04-2020 06:50:00 2.1 C 4.98 g/m*3 2.1 C 0 km/h
Sensor: Nr:Datum:Temp:Abs-Feuchte:Windchill:Wind:
Aussen-T/F 2376 06-04-2020 06:55:00 2.1 C 4.98 g/m*3 2.1 C 0 km/h
2377 06-04-2020 07:00:00 2.1 C 5.04 g/m*3 2.1 C 0 km/h
2378 06-04-2020 07:05:00 2.2 C 5.07 g/m*3 2.2 C 0 km/h
2379 06-04-2020 07:10:00 2.2 C 5.07 g/m*3 2.2 C 0 km/h
2380 06-04-2020 07:15:00 2.3 C 5.1 g/m*3 2.3 C 0 km/h
2381 06-04-2020 07:20:00 2.4 C 5.2 g/m*3 2.4 C 0 km/h
2382 06-04-2020 07:25:00 2.4 C 5.14 g/m*3 2.4 C 0 km/h
2383 06-04-2020 07:30:00 2.4 C 5.14 g/m*3 2.4 C 0 km/h
2384 06-04-2020 07:35:00 2.4 C 5.14 g/m*3 2.4 C 0 km/h
2385 06-04-2020 07:40:00 2.4 C 5.14 g/m*3 2.4 C 0 km/h
2386 06-04-2020 07:45:00 2.4 C 5.14 g/m*3 2.4 C 0 km/h
2387 06-04-2020 07:50:00 2.6 C 5.27 g/m*3 2.6 C 0 km/h
2388 06-04-2020 07:55:00 2.7 C 5.24 g/m*3 2.7 C 0 km/h
2389 06-04-2020 08:00:00 2.6 C 5.21 g/m*3 2.6 C 0 km/h
2390 06-04-2020 08:05:00 2.7 C 5.24 g/m*3 2.7 C 0 km/h
2391 06-04-2020 08:10:00 2.7 C 5.3 g/m*3 2.7 C 0 km/h
2392 06-04-2020 08:15:00 2.8 C 5.34 g/m*3 2.8 C 0 km/h
2393 06-04-2020 08:20:00 2.9 C 5.37 g/m*3 2.9 C 0 km/h
2394 06-04-2020 08:25:00 3.1 C 5.45 g/m*3 3.1 C 0 km/h
2395 06-04-2020 08:30:00 3.4 C 5.5 g/m*3 3.4 C 1.6 km/h
2396 06-04-2020 08:35:00 3.6 C 5.57 g/m*3 3.6 C 0 km/h
2397 06-04-2020 08:40:00 3.7 C 5.55 g/m*3 3.7 C 0 km/h
2398 06-04-2020 08:45:00 3.8 C 5.58 g/m*3 3.8 C 0 km/h
2399 06-04-2020 08:50:00 3.9 C 5.62 g/m*3 3.9 C 0 km/h
2400 06-04-2020 08:55:00 3.9 C 5.56 g/m*3 3.9 C 0 km/h
Sensor: Nr:Datum:Temp:Abs-Feuchte:Windchill:Wind:
Aussen-T/F 2401 06-04-2020 09:00:00 3.9 C 5.56 g/m*3 3.9 C 0 km/h
2402 06-04-2020 09:05:00 4 C 5.59 g/m*3 4 C 0 km/h
2403 06-04-2020 09:10:00 4.1 C 5.63 g/m*3 4.1 C 0 km/h
2404 06-04-2020 09:15:00 4.2 C 5.67 g/m*3 4.2 C 1.6 km/h
2405 06-04-2020 09:20:00 4.2 C 5.67 g/m*3 4.2 C 0 km/h
2406 06-04-2020 09:25:00 4.3 C 5.71 g/m*3 4.3 C 0 km/h
2407 06-04-2020 09:30:00 4.4 C 5.75 g/m*3 4.4 C 0 km/h
2408 06-04-2020 09:35:00 4.6 C 5.82 g/m*3 4.6 C 0 km/h
2409 06-04-2020 09:40:00 4.8 C 5.9 g/m*3 4.8 C 0 km/h
2410 06-04-2020 09:45:00 5 C 5.98 g/m*3 5 C 0 km/h
2411 06-04-2020 09:50:00 5.2 C 6.06 g/m*3 5.2 C 0 km/h
2412 06-04-2020 09:55:00 5.3 C 6.1 g/m*3 5.3 C 0 km/h
2413 06-04-2020 10:00:00 5.6 C 6.15 g/m*3 5.6 C 0 km/h
2414 06-04-2020 10:05:00 5.9 C 6.2 g/m*3 5.9 C 0 km/h
2415 06-04-2020 10:10:00 6.2 C 6.25 g/m*3 6.2 C 0 km/h
2416 06-04-2020 10:15:00 6.4 C 6.33 g/m*3 6.4 C 0 km/h
2417 06-04-2020 10:20:00 6.7 C 6.38 g/m*3 6.7 C 0 km/h
2418 06-04-2020 10:25:00 7.1 C 6.47 g/m*3 7.1 C 0 km/h
2419 06-04-2020 10:30:00 7.4 C 6.52 g/m*3 7.4 C 0 km/h
2420 06-04-2020 10:35:00 8 C 6.61 g/m*3 8 C 0 km/h
2421 06-04-2020 10:40:00 8.4 C 6.62 g/m*3 8.4 C 0 km/h
2422 06-04-2020 10:45:00 8.8 C 6.7 g/m*3 8.8 C 3.2 km/h
2423 06-04-2020 10:50:00 9.4 C 6.87 g/m*3 9.4 C 0 km/h
2424 06-04-2020 10:55:00 9.9 C 6.82 g/m*3 9.9 C 0 km/h
2425 06-04-2020 11:00:00 10.5 C 6.98 g/m*3 10.5 C 0 km/h
Sensor: Nr:Datum:Temp:Abs-Feuchte:Windchill:Wind:
Aussen-T/F 2426 06-04-2020 11:05:00 11.2 C 6.89 g/m*3 11.2 C 0 km/h
2427 06-04-2020 11:10:00 11.7 C 6.9 g/m*3 11.7 C 0 km/h
2428 06-04-2020 11:15:00 12.3 C 7.28 g/m*3 12.3 C 0 km/h
2429 06-04-2020 11:20:00 12.7 C 6.9 g/m*3 12.7 C 0 km/h
2430 06-04-2020 11:25:00 13.3 C 6.47 g/m*3 13.3 C 6.4 km/h
2431 06-04-2020 11:30:00 14.2 C 6.59 g/m*3 14.2 C 11.3 km/h
2432 06-04-2020 11:35:00 15.3 C 6.4 g/m*3 15.3 C 12.9 km/h
2433 06-04-2020 11:40:00 16.1 C 6.17 g/m*3 16.1 C 8.1 km/h
2434 06-04-2020 11:45:00 16.7 C 5.97 g/m*3 16.7 C 17.7 km/h
2435 06-04-2020 11:50:00 17.1 C 6.26 g/m*3 17.1 C 19.3 km/h
2436 06-04-2020 11:55:00 17.3 C 6.04 g/m*3 17.3 C 16.1 km/h
2437 06-04-2020 12:00:00 17.6 C 6 g/m*3 17.6 C 9.7 km/h
2438 06-04-2020 12:05:00 17.9 C 5.8 g/m*3 17.9 C 16.1 km/h
2439 06-04-2020 12:10:00 18.1 C 5.87 g/m*3 18.1 C 12.9 km/h
2440 06-04-2020 12:15:00 18.3 C 5.79 g/m*3 18.3 C 14.5 km/h
2441 06-04-2020 12:20:00 18.6 C 6.05 g/m*3 18.6 C 9.7 km/h
2442 06-04-2020 12:25:00 18.7 C 5.76 g/m*3 18.7 C 12.9 km/h
2443 06-04-2020 12:30:00 18.9 C 5.67 g/m*3 18.9 C 11.3 km/h
2444 06-04-2020 12:35:00 19.1 C 5.74 g/m*3 19.1 C 14.5 km/h
2445 06-04-2020 12:40:00 19.2 C 5.77 g/m*3 19.2 C 14.5 km/h
2446 06-04-2020 12:45:00 19.3 C 5.81 g/m*3 19.3 C 11.3 km/h
2447 06-04-2020 12:50:00 19.4 C 5.84 g/m*3 19.4 C 12.9 km/h
2448 06-04-2020 12:55:00 19.4 C 6.01 g/m*3 19.4 C 11.3 km/h
2449 06-04-2020 13:00:00 19.6 C 5.74 g/m*3 19.6 C 11.3 km/h
2450 06-04-2020 13:05:00 19.7 C 5.94 g/m*3 19.7 C 11.3 km/h
Sensor: Nr:Datum:Temp:Abs-Feuchte:Windchill:Wind:
Aussen-T/F 2451 06-04-2020 13:10:00 19.8 C 5.98 g/m*3 19.8 C 11.3 km/h
2452 06-04-2020 13:15:00 19.9 C 5.84 g/m*3 19.9 C 8.1 km/h
2453 06-04-2020 13:20:00 20.1 C 5.91 g/m*3 20.1 C 12.9 km/h
2454 06-04-2020 13:25:00 20.2 C 5.94 g/m*3 20.2 C 9.7 km/h
2455 06-04-2020 13:30:00 20.2 C 6.12 g/m*3 20.2 C 8.1 km/h
2456 06-04-2020 13:35:00 20.3 C 6.16 g/m*3 20.3 C 6.4 km/h
2457 06-04-2020 13:40:00 20.4 C 6.37 g/m*3 20.4 C 9.7 km/h
2458 06-04-2020 13:45:00 20.5 C 6.41 g/m*3 20.5 C 9.7 km/h
2459 06-04-2020 13:50:00 20.7 C 6.12 g/m*3 20.7 C 8.1 km/h
2460 06-04-2020 13:55:00 20.8 C 6.16 g/m*3 20.8 C 8.1 km/h
2461 06-04-2020 14:00:00 21 C 6.23 g/m*3 21 C 9.7 km/h
2462 06-04-2020 14:05:00 21.2 C 6.3 g/m*3 21.2 C 11.3 km/h
2463 06-04-2020 14:10:00 21.2 C 6.12 g/m*3 21.2 C 11.3 km/h
2464 06-04-2020 14:15:00 21.3 C 6.52 g/m*3 21.3 C 6.4 km/h
2465 06-04-2020 14:20:00 21.5 C 6.03 g/m*3 21.5 C 9.7 km/h
2466 06-04-2020 14:25:00 21.7 C 6.1 g/m*3 21.7 C 8.1 km/h
2467 06-04-2020 14:30:00 21.9 C 6.37 g/m*3 21.9 C 8.1 km/h
2468 06-04-2020 14:35:00 22.2 C 6.28 g/m*3 22.2 C 9.7 km/h
2469 06-04-2020 14:40:00 22.4 C 5.96 g/m*3 22.4 C 14.5 km/h
2470 06-04-2020 14:45:00 22.6 C 6.03 g/m*3 22.6 C 17.7 km/h
2471 06-04-2020 14:50:00 22.6 C 5.62 g/m*3 22.6 C 12.9 km/h
2472 06-04-2020 14:55:00 22.7 C 5.05 g/m*3 22.7 C 11.3 km/h
2473 06-04-2020 15:00:00 22.8 C 5.08 g/m*3 22.8 C 12.9 km/h
2474 06-04-2020 15:05:00 22.9 C 4.7 g/m*3 22.9 C 16.1 km/h
2475 06-04-2020 15:10:00 22.8 C 4.88 g/m*3 22.8 C 14.5 km/h
Sensor: Nr:Datum:Temp:Abs-Feuchte:Windchill:Wind:
Aussen-T/F 2476 06-04-2020 15:15:00 22.7 C 5.05 g/m*3 22.7 C 20.9 km/h
2477 06-04-2020 15:20:00 22.6 C 5.22 g/m*3 22.6 C 17.7 km/h
2478 06-04-2020 15:25:00 22.6 C 5.22 g/m*3 22.6 C 20.9 km/h
2479 06-04-2020 15:30:00 22.6 C 4.82 g/m*3 22.6 C 22.5 km/h
2480 06-04-2020 15:35:00 22.6 C 5.02 g/m*3 22.6 C 16.1 km/h
2481 06-04-2020 15:40:00 22.6 C 5.02 g/m*3 22.6 C 25.7 km/h
2482 06-04-2020 15:45:00 22.6 C 5.02 g/m*3 22.6 C 20.9 km/h
2483 06-04-2020 15:50:00 22.6 C 5.02 g/m*3 22.6 C 19.3 km/h
2484 06-04-2020 15:55:00 22.8 C 5.28 g/m*3 22.8 C 11.3 km/h
2485 06-04-2020 16:00:00 23 C 5.34 g/m*3 23 C 4.8 km/h
2486 06-04-2020 16:05:00 23.2 C 5.41 g/m*3 23.2 C 6.4 km/h
2487 06-04-2020 16:10:00 23.4 C 5.26 g/m*3 23.4 C 16.1 km/h
2488 06-04-2020 16:15:00 23.6 C 5.32 g/m*3 23.6 C 11.3 km/h
2489 06-04-2020 16:20:00 23.8 C 5.16 g/m*3 23.8 C 12.9 km/h
2490 06-04-2020 16:25:00 23.8 C 4.95 g/m*3 23.8 C 16.1 km/h
2491 06-04-2020 16:30:00 23.9 C 5.62 g/m*3 23.9 C 11.3 km/h
2492 06-04-2020 16:35:00 23.9 C 5.62 g/m*3 23.9 C 11.3 km/h
2493 06-04-2020 16:40:00 24.1 C 5.91 g/m*3 24.1 C 11.3 km/h
2494 06-04-2020 16:45:00 24.3 C 5.75 g/m*3 24.3 C 11.3 km/h
2495 06-04-2020 16:50:00 24.3 C 5.75 g/m*3 24.3 C 11.3 km/h
2496 06-04-2020 16:55:00 24.1 C 6.13 g/m*3 24.1 C 16.1 km/h
2497 06-04-2020 17:00:00 23.8 C 5.81 g/m*3 23.8 C 17.7 km/h
2498 06-04-2020 17:05:00 23.8 C 6.02 g/m*3 23.8 C 14.5 km/h
2499 06-04-2020 17:10:00 23.6 C 5.74 g/m*3 23.6 C 16.1 km/h
2500 06-04-2020 17:15:00 23.7 C 5.99 g/m*3 23.7 C 14.5 km/h
Sensor: Nr:Datum:Temp:Abs-Feuchte:Windchill:Wind:
Aussen-T/F 2501 06-04-2020 17:20:00 23.8 C 6.02 g/m*3 23.8 C 12.9 km/h
2502 06-04-2020 17:25:00 23.9 C 5.62 g/m*3 23.9 C 16.1 km/h
2503 06-04-2020 17:30:00 23.9 C 5.84 g/m*3 23.9 C 17.7 km/h
2504 06-04-2020 17:35:00 23.8 C 5.59 g/m*3 23.8 C 14.5 km/h
2505 06-04-2020 17:40:00 23.7 C 5.78 g/m*3 23.7 C 19.3 km/h
2506 06-04-2020 17:45:00 23.9 C 6.06 g/m*3 23.9 C 12.9 km/h
2507 06-04-2020 17:50:00 24.1 C 5.69 g/m*3 24.1 C 16.1 km/h
2508 06-04-2020 17:55:00 23.9 C 5.62 g/m*3 23.9 C 11.3 km/h
2509 06-04-2020 18:00:00 23.8 C 5.81 g/m*3 23.8 C 14.5 km/h
2510 06-04-2020 18:05:00 23.7 C 5.56 g/m*3 23.7 C 14.5 km/h
2511 06-04-2020 18:10:00 23.7 C 5.56 g/m*3 23.7 C 16.1 km/h
2512 06-04-2020 18:15:00 23.4 C 5.47 g/m*3 23.4 C 12.9 km/h
2513 06-04-2020 18:20:00 23.5 C 5.71 g/m*3 23.5 C 11.3 km/h
2514 06-04-2020 18:25:00 23.6 C 5.53 g/m*3 23.6 C 12.9 km/h
2515 06-04-2020 18:30:00 23.5 C 5.5 g/m*3 23.5 C 16.1 km/h
2516 06-04-2020 18:35:00 23.4 C 5.68 g/m*3 23.4 C 12.9 km/h
2517 06-04-2020 18:40:00 23.3 C 5.44 g/m*3 23.3 C 11.3 km/h
2518 06-04-2020 18:45:00 23.3 C 5.44 g/m*3 23.3 C 9.7 km/h
2519 06-04-2020 18:50:00 23.2 C 5.61 g/m*3 23.2 C 12.9 km/h
2520 06-04-2020 18:55:00 23.1 C 5.58 g/m*3 23.1 C 11.3 km/h
2521 06-04-2020 19:00:00 22.9 C 5.52 g/m*3 22.9 C 11.3 km/h
2522 06-04-2020 19:05:00 22.8 C 5.69 g/m*3 22.8 C 8.1 km/h
2523 06-04-2020 19:10:00 22.7 C 5.86 g/m*3 22.7 C 9.7 km/h
2524 06-04-2020 19:15:00 22.6 C 6.23 g/m*3 22.6 C 4.8 km/h
2525 06-04-2020 19:20:00 22.3 C 6.12 g/m*3 22.3 C 9.7 km/h
Sensor: Nr:Datum:Temp:Abs-Feuchte:Windchill:Wind:
Aussen-T/F 2526 06-04-2020 19:25:00 22 C 6.02 g/m*3 22 C 4.8 km/h
2527 06-04-2020 19:30:00 21.7 C 5.91 g/m*3 21.7 C 6.4 km/h
2528 06-04-2020 19:35:00 21.3 C 6.34 g/m*3 21.3 C 3.2 km/h
2529 06-04-2020 19:40:00 20.8 C 6.52 g/m*3 20.8 C 6.4 km/h
2530 06-04-2020 19:45:00 20.4 C 6.19 g/m*3 20.4 C 4.8 km/h
2531 06-04-2020 19:50:00 20 C 6.39 g/m*3 20 C 6.4 km/h
2532 06-04-2020 19:55:00 19.5 C 6.38 g/m*3 19.5 C 3.2 km/h
2533 06-04-2020 20:00:00 18.9 C 6.48 g/m*3 18.9 C 6.4 km/h
2534 06-04-2020 20:05:00 18.2 C 6.37 g/m*3 18.2 C 6.4 km/h
2535 06-04-2020 20:10:00 17.6 C 6.45 g/m*3 17.6 C 6.4 km/h
2536 06-04-2020 20:15:00 17.1 C 6.55 g/m*3 17.1 C 6.4 km/h
2537 06-04-2020 20:20:00 16.6 C 6.36 g/m*3 16.6 C 6.4 km/h
2538 06-04-2020 20:25:00 16.2 C 6.34 g/m*3 16.2 C 6.4 km/h
2539 06-04-2020 20:30:00 15.8 C 6.46 g/m*3 15.8 C 6.4 km/h
2540 06-04-2020 20:35:00 15.5 C 6.34 g/m*3 15.5 C 6.4 km/h
2541 06-04-2020 20:40:00 15.3 C 6.53 g/m*3 15.3 C 4.8 km/h
2542 06-04-2020 20:45:00 15 C 6.41 g/m*3 15 C 4.8 km/h
2543 06-04-2020 20:50:00 14.7 C 6.55 g/m*3 14.7 C 3.2 km/h
2544 06-04-2020 20:55:00 14.5 C 6.59 g/m*3 14.5 C 4.8 km/h
2545 06-04-2020 21:00:00 14.2 C 6.47 g/m*3 14.2 C 4.8 km/h
2546 06-04-2020 21:05:00 14 C 6.51 g/m*3 14 C 4.8 km/h
2547 06-04-2020 21:10:00 13.9 C 6.47 g/m*3 13.9 C 4.8 km/h
2548 06-04-2020 21:15:00 13.7 C 6.51 g/m*3 13.7 C 3.2 km/h
2549 06-04-2020 21:20:00 13.6 C 6.59 g/m*3 13.6 C 3.2 km/h
2550 06-04-2020 21:25:00 13.3 C 6.47 g/m*3 13.3 C 1.6 km/h
Sensor: Nr:Datum:Temp:Abs-Feuchte:Windchill:Wind:
Aussen-T/F 2551 06-04-2020 21:30:00 13.2 C 6.54 g/m*3 13.2 C 3.2 km/h
2552 06-04-2020 21:35:00 12.9 C 6.42 g/m*3 12.9 C 0 km/h
2553 06-04-2020 21:40:00 12.8 C 6.5 g/m*3 12.8 C 0 km/h
2554 06-04-2020 21:45:00 12.6 C 6.31 g/m*3 12.6 C 0 km/h
2555 06-04-2020 21:50:00 12.3 C 6.3 g/m*3 12.3 C 0 km/h
2556 06-04-2020 21:55:00 12.1 C 6.33 g/m*3 12.1 C 1.6 km/h
2557 06-04-2020 22:00:00 12 C 6.39 g/m*3 12 C 1.6 km/h
2558 06-04-2020 22:05:00 11.9 C 6.35 g/m*3 11.9 C 1.6 km/h
2559 06-04-2020 22:10:00 11.8 C 6.53 g/m*3 11.8 C 1.6 km/h
2560 06-04-2020 22:15:00 11.6 C 6.44 g/m*3 11.6 C 0 km/h
2561 06-04-2020 22:20:00 11.3 C 6.32 g/m*3 11.3 C 0 km/h
2562 06-04-2020 22:25:00 11 C 6.31 g/m*3 11 C 1.6 km/h
2563 06-04-2020 22:30:00 10.8 C 6.33 g/m*3 10.8 C 0 km/h
2564 06-04-2020 22:35:00 10.7 C 6.29 g/m*3 10.7 C 1.6 km/h
2565 06-04-2020 22:40:00 10.6 C 6.34 g/m*3 10.6 C 1.6 km/h
2566 06-04-2020 22:45:00 10.4 C 6.17 g/m*3 10.4 C 0 km/h
2567 06-04-2020 22:50:00 10.4 C 6.17 g/m*3 10.4 C 0 km/h
2568 06-04-2020 22:55:00 10.3 C 6.22 g/m*3 10.3 C 0 km/h
2569 06-04-2020 23:00:00 10.2 C 6.19 g/m*3 10.2 C 1.6 km/h
2570 06-04-2020 23:05:00 10.2 C 6.19 g/m*3 10.2 C 0 km/h
2571 06-04-2020 23:10:00 10.1 C 6.15 g/m*3 10.1 C 0 km/h
2572 06-04-2020 23:15:00 10.1 C 6.05 g/m*3 10.1 C 0 km/h
2573 06-04-2020 23:20:00 10.1 C 6.15 g/m*3 10.1 C 0 km/h
2574 06-04-2020 23:25:00 10.1 C 6.15 g/m*3 10.1 C 0 km/h
2575 06-04-2020 23:30:00 10.1 C 6.15 g/m*3 10.1 C 1.6 km/h
Sensor: Nr:Datum:Temp:Abs-Feuchte:Windchill:Wind:
Aussen-T/F 2576 06-04-2020 23:35:00 9.9 C 6.07 g/m*3 9.9 C 0 km/h
2577 06-04-2020 23:40:00 9.8 C 6.03 g/m*3 9.8 C 0 km/h
2578 06-04-2020 23:45:00 9.8 C 6.12 g/m*3 9.8 C 0 km/h
2579 06-04-2020 23:50:00 9.8 C 6.22 g/m*3 9.8 C 3.2 km/h
2580 06-04-2020 23:55:00 9.9 C 6.35 g/m*3 8.06 C 12.9 km/h
2581 07-04-2020 00:00:00 10 C 6.39 g/m*3 8.42 C 11.3 km/h
2582 07-04-2020 00:05:00 10.1 C 6.43 g/m*3 10.1 C 3.2 km/h
2583 07-04-2020 00:10:00 10.1 C 6.52 g/m*3 10.1 C 1.6 km/h
2584 07-04-2020 00:15:00 9.8 C 6.4 g/m*3 9.8 C 1.6 km/h
2585 07-04-2020 00:20:00 9.6 C 6.41 g/m*3 9.6 C 0 km/h
2586 07-04-2020 00:25:00 9.4 C 6.33 g/m*3 9.4 C 0 km/h
2587 07-04-2020 00:30:00 9.3 C 6.29 g/m*3 9.3 C 1.6 km/h
2588 07-04-2020 00:35:00 9.3 C 6.29 g/m*3 9.3 C 0 km/h
2589 07-04-2020 00:40:00 9.3 C 6.29 g/m*3 9.3 C 1.6 km/h
2590 07-04-2020 00:45:00 9.3 C 6.29 g/m*3 9.3 C 1.6 km/h
2591 07-04-2020 00:50:00 9.3 C 6.29 g/m*3 9.3 C 0 km/h
2592 07-04-2020 00:55:00 9.3 C 6.38 g/m*3 9.3 C 0 km/h
2593 07-04-2020 01:00:00 9.2 C 6.34 g/m*3 9.2 C 0 km/h
2594 07-04-2020 01:05:00 9.2 C 6.43 g/m*3 9.2 C 0 km/h
2595 07-04-2020 01:10:00 9.2 C 6.43 g/m*3 9.2 C 0 km/h
2596 07-04-2020 01:15:00 9.3 C 6.47 g/m*3 9.3 C 0 km/h
2597 07-04-2020 01:20:00 9.4 C 6.42 g/m*3 9.4 C 1.6 km/h
2598 07-04-2020 01:25:00 9.6 C 6.6 g/m*3 9.6 C 0 km/h
2599 07-04-2020 01:30:00 9.7 C 6.55 g/m*3 9.7 C 3.2 km/h
2600 07-04-2020 01:35:00 9.8 C 6.49 g/m*3 9.8 C 4.8 km/h
Sensor: Nr:Datum:Temp:Abs-Feuchte:Windchill:Wind:
Aussen-T/F 2601 07-04-2020 01:40:00 10 C 6.86 g/m*3 10 C 4.8 km/h
2602 07-04-2020 01:45:00 10.2 C 6.76 g/m*3 10.2 C 3.2 km/h
2603 07-04-2020 01:50:00 10.3 C 6.8 g/m*3 10.3 C 0 km/h
2604 07-04-2020 01:55:00 10.3 C 6.7 g/m*3 10.3 C 0 km/h
2605 07-04-2020 02:00:00 10.3 C 6.7 g/m*3 10.3 C 0 km/h
2606 07-04-2020 02:05:00 10.1 C 6.71 g/m*3 10.1 C 0 km/h
2607 07-04-2020 02:10:00 9.9 C 6.63 g/m*3 9.9 C 0 km/h
2608 07-04-2020 02:15:00 9.8 C 6.59 g/m*3 9.8 C 0 km/h
2609 07-04-2020 02:20:00 9.6 C 6.6 g/m*3 9.6 C 0 km/h
2610 07-04-2020 02:25:00 9.3 C 6.56 g/m*3 9.3 C 0 km/h
2611 07-04-2020 02:30:00 9.1 C 6.57 g/m*3 9.1 C 0 km/h
2612 07-04-2020 02:35:00 8.9 C 6.48 g/m*3 8.9 C 0 km/h
2613 07-04-2020 02:40:00 8.8 C 6.53 g/m*3 8.8 C 0 km/h
2614 07-04-2020 02:45:00 8.6 C 6.44 g/m*3 8.6 C 0 km/h
2615 07-04-2020 02:50:00 8.3 C 6.41 g/m*3 8.3 C 0 km/h
2616 07-04-2020 02:55:00 8.2 C 6.45 g/m*3 8.2 C 3.2 km/h
2617 07-04-2020 03:00:00 8.2 C 6.53 g/m*3 8.2 C 0 km/h
2618 07-04-2020 03:05:00 8.1 C 6.49 g/m*3 8.1 C 0 km/h
2619 07-04-2020 03:10:00 8.1 C 6.57 g/m*3 8.1 C 0 km/h
2620 07-04-2020 03:15:00 8 C 6.53 g/m*3 8 C 0 km/h
2621 07-04-2020 03:20:00 8.1 C 6.66 g/m*3 8.1 C 0 km/h
2622 07-04-2020 03:25:00 8.1 C 6.74 g/m*3 8.1 C 0 km/h
2623 07-04-2020 03:30:00 8.2 C 6.7 g/m*3 8.2 C 0 km/h
2624 07-04-2020 03:35:00 8.2 C 6.7 g/m*3 8.2 C 0 km/h
2625 07-04-2020 03:40:00 8.2 C 6.7 g/m*3 8.2 C 0 km/h
Sensor: Nr:Datum:Temp:Abs-Feuchte:Windchill:Wind:
Aussen-T/F 2626 07-04-2020 03:45:00 8.2 C 6.7 g/m*3 8.2 C 1.6 km/h
2627 07-04-2020 03:50:00 8.2 C 6.78 g/m*3 8.2 C 0 km/h
2628 07-04-2020 03:55:00 8.2 C 6.78 g/m*3 8.2 C 0 km/h
2629 07-04-2020 04:00:00 8.2 C 6.78 g/m*3 8.2 C 0 km/h
2630 07-04-2020 04:05:00 8.3 C 6.83 g/m*3 8.3 C 0 km/h
2631 07-04-2020 04:10:00 8.3 C 6.83 g/m*3 8.3 C 0 km/h
2632 07-04-2020 04:15:00 8.2 C 6.78 g/m*3 8.2 C 0 km/h
2633 07-04-2020 04:20:00 8.2 C 6.7 g/m*3 8.2 C 0 km/h
2634 07-04-2020 04:25:00 8.2 C 6.7 g/m*3 8.2 C 0 km/h
2635 07-04-2020 04:30:00 8.1 C 6.66 g/m*3 8.1 C 0 km/h
2636 07-04-2020 04:35:00 7.9 C 6.57 g/m*3 7.9 C 0 km/h
2637 07-04-2020 04:40:00 7.7 C 6.57 g/m*3 7.7 C 0 km/h
2638 07-04-2020 04:45:00 7.6 C 6.61 g/m*3 7.6 C 0 km/h
2639 07-04-2020 04:50:00 7.6 C 6.61 g/m*3 7.6 C 0 km/h
2640 07-04-2020 04:55:00 7.5 C 6.56 g/m*3 7.5 C 0 km/h
2641 07-04-2020 05:00:00 7.3 C 6.48 g/m*3 7.3 C 0 km/h
2642 07-04-2020 05:05:00 7.2 C 6.52 g/m*3 7.2 C 0 km/h
2643 07-04-2020 05:10:00 7.1 C 6.47 g/m*3 7.1 C 0 km/h
2644 07-04-2020 05:15:00 6.9 C 6.39 g/m*3 6.9 C 0 km/h
2645 07-04-2020 05:20:00 6.8 C 6.42 g/m*3 6.8 C 0 km/h
2646 07-04-2020 05:25:00 6.7 C 6.38 g/m*3 6.7 C 0 km/h
2647 07-04-2020 05:30:00 6.7 C 6.46 g/m*3 6.7 C 0 km/h
2648 07-04-2020 05:35:00 6.6 C 6.42 g/m*3 6.6 C 0 km/h
2649 07-04-2020 05:40:00 6.4 C 6.33 g/m*3 6.4 C 0 km/h
2650 07-04-2020 05:45:00 6.4 C 6.41 g/m*3 6.4 C 0 km/h
Sensor: Nr:Datum:Temp:Abs-Feuchte:Windchill:Wind:
Aussen-T/F 2651 07-04-2020 05:50:00 6.3 C 6.37 g/m*3 6.3 C 0 km/h
2652 07-04-2020 05:55:00 6.3 C 6.44 g/m*3 6.3 C 0 km/h
2653 07-04-2020 06:00:00 6.3 C 6.44 g/m*3 6.3 C 0 km/h
2654 07-04-2020 06:05:00 6.3 C 6.44 g/m*3 6.3 C 0 km/h
2655 07-04-2020 06:10:00 6.2 C 6.32 g/m*3 6.2 C 0 km/h
2656 07-04-2020 06:15:00 6.1 C 6.36 g/m*3 6.1 C 0 km/h
2657 07-04-2020 06:20:00 6.1 C 6.36 g/m*3 6.1 C 0 km/h
2658 07-04-2020 06:25:00 6.1 C 6.36 g/m*3 6.1 C 0 km/h
2659 07-04-2020 06:30:00 5.9 C 6.27 g/m*3 5.9 C 0 km/h
2660 07-04-2020 06:35:00 5.8 C 6.23 g/m*3 5.8 C 0 km/h
2661 07-04-2020 06:40:00 5.8 C 6.3 g/m*3 5.8 C 0 km/h
2662 07-04-2020 06:45:00 5.8 C 6.3 g/m*3 5.8 C 0 km/h
2663 07-04-2020 06:50:00 5.7 C 6.26 g/m*3 5.7 C 0 km/h
2664 07-04-2020 06:55:00 5.6 C 6.22 g/m*3 5.6 C 0 km/h
2665 07-04-2020 07:00:00 5.5 C 6.18 g/m*3 5.5 C 0 km/h
2666 07-04-2020 07:05:00 5.4 C 6.21 g/m*3 5.4 C 0 km/h
2667 07-04-2020 07:10:00 5.4 C 6.21 g/m*3 5.4 C 0 km/h
2668 07-04-2020 07:15:00 5.4 C 6.28 g/m*3 5.4 C 0 km/h
2669 07-04-2020 07:20:00 5.5 C 6.32 g/m*3 5.5 C 0 km/h
2670 07-04-2020 07:25:00 5.6 C 6.36 g/m*3 5.6 C 0 km/h
2671 07-04-2020 07:30:00 5.6 C 6.43 g/m*3 5.6 C 0 km/h
2672 07-04-2020 07:35:00 5.7 C 6.4 g/m*3 5.7 C 0 km/h
2673 07-04-2020 07:40:00 5.8 C 6.52 g/m*3 5.8 C 0 km/h
2674 07-04-2020 07:45:00 5.9 C 6.56 g/m*3 5.9 C 0 km/h
2675 07-04-2020 07:50:00 6 C 6.6 g/m*3 6 C 0 km/h
Sensor: Nr:Datum:Temp:Abs-Feuchte:Windchill:Wind:
Aussen-T/F 2676 07-04-2020 07:55:00 6.1 C 6.58 g/m*3 6.1 C 0 km/h
2677 07-04-2020 08:00:00 6.2 C 6.62 g/m*3 6.2 C 0 km/h
2678 07-04-2020 08:05:00 6.2 C 6.62 g/m*3 6.2 C 0 km/h
2679 07-04-2020 08:10:00 6.3 C 6.66 g/m*3 6.3 C 0 km/h
2680 07-04-2020 08:15:00 6.3 C 6.66 g/m*3 6.3 C 1.6 km/h
2681 07-04-2020 08:20:00 6.4 C 6.71 g/m*3 6.4 C 0 km/h
2682 07-04-2020 08:25:00 6.5 C 6.67 g/m*3 6.5 C 0 km/h
2683 07-04-2020 08:30:00 6.6 C 6.72 g/m*3 6.6 C 0 km/h
2684 07-04-2020 08:35:00 6.6 C 6.72 g/m*3 6.6 C 1.6 km/h
2685 07-04-2020 08:40:00 6.6 C 6.72 g/m*3 6.6 C 0 km/h
2686 07-04-2020 08:45:00 6.7 C 6.84 g/m*3 6.7 C 0 km/h
2687 07-04-2020 08:50:00 6.8 C 6.88 g/m*3 6.8 C 0 km/h
2688 07-04-2020 08:55:00 6.9 C 6.93 g/m*3 6.9 C 0 km/h
2689 07-04-2020 09:00:00 7.1 C 7.02 g/m*3 7.1 C 0 km/h
2690 07-04-2020 09:05:00 7.2 C 7.06 g/m*3 7.2 C 0 km/h
2691 07-04-2020 09:10:00 7.3 C 7.03 g/m*3 7.3 C 0 km/h
2692 07-04-2020 09:15:00 7.4 C 7.08 g/m*3 7.4 C 0 km/h
2693 07-04-2020 09:20:00 7.5 C 7.2 g/m*3 7.5 C 0 km/h
2694 07-04-2020 09:25:00 7.6 C 7.25 g/m*3 7.6 C 0 km/h
2695 07-04-2020 09:30:00 7.8 C 7.35 g/m*3 7.8 C 0 km/h
2696 07-04-2020 09:35:00 7.9 C 7.39 g/m*3 7.9 C 0 km/h
2697 07-04-2020 09:40:00 8.2 C 7.54 g/m*3 8.2 C 0 km/h
2698 07-04-2020 09:45:00 8.4 C 7.63 g/m*3 8.4 C 0 km/h
2699 07-04-2020 09:50:00 8.7 C 7.61 g/m*3 8.7 C 0 km/h
2700 07-04-2020 09:55:00 8.9 C 7.71 g/m*3 8.9 C 0 km/h
Sensor: Nr:Datum:Temp:Abs-Feuchte:Windchill:Wind:
Aussen-T/F 2701 07-04-2020 10:00:00 9.2 C 7.77 g/m*3 9.2 C 0 km/h
2702 07-04-2020 10:05:00 9.4 C 7.87 g/m*3 9.4 C 0 km/h
2703 07-04-2020 10:10:00 9.6 C 8.06 g/m*3 9.6 C 0 km/h
2704 07-04-2020 10:15:00 9.9 C 8.22 g/m*3 9.9 C 0 km/h
2705 07-04-2020 10:20:00 10.2 C 8.28 g/m*3 10.2 C 0 km/h
2706 07-04-2020 10:25:00 10.5 C 8.34 g/m*3 10.5 C 0 km/h
2707 07-04-2020 10:30:00 10.8 C 8.4 g/m*3 10.8 C 0 km/h
2708 07-04-2020 10:35:00 11.2 C 8.62 g/m*3 11.2 C 0 km/h
2709 07-04-2020 10:40:00 11.4 C 8.62 g/m*3 11.4 C 0 km/h
2710 07-04-2020 10:45:00 11.8 C 8.74 g/m*3 11.8 C 0 km/h
2711 07-04-2020 10:50:00 12.2 C 8.85 g/m*3 12.2 C 0 km/h
2712 07-04-2020 10:55:00 12.6 C 8.96 g/m*3 12.6 C 0 km/h
2713 07-04-2020 11:00:00 13 C 8.96 g/m*3 13 C 1.6 km/h
2714 07-04-2020 11:05:00 13.4 C 8.95 g/m*3 13.4 C 0 km/h
2715 07-04-2020 11:10:00 13.8 C 9.06 g/m*3 13.8 C 0 km/h
2716 07-04-2020 11:15:00 14.2 C 9.04 g/m*3 14.2 C 3.2 km/h
2717 07-04-2020 11:20:00 14.6 C 9.13 g/m*3 14.6 C 0 km/h
2718 07-04-2020 11:25:00 14.8 C 9.25 g/m*3 14.8 C 1.6 km/h
2719 07-04-2020 11:30:00 15.1 C 9.16 g/m*3 15.1 C 3.2 km/h
2720 07-04-2020 11:35:00 15.4 C 9.2 g/m*3 15.4 C 1.6 km/h
2721 07-04-2020 11:40:00 15.7 C 9.1 g/m*3 15.7 C 1.6 km/h
2722 07-04-2020 11:45:00 16.1 C 9.18 g/m*3 16.1 C 3.2 km/h
2723 07-04-2020 11:50:00 16.2 C 9.24 g/m*3 16.2 C 3.2 km/h
2724 07-04-2020 11:55:00 16.4 C 9.21 g/m*3 16.4 C 3.2 km/h
2725 07-04-2020 12:00:00 16.6 C 9.18 g/m*3 16.6 C 3.2 km/h
Sensor: Nr:Datum:Temp:Abs-Feuchte:Windchill:Wind:
Aussen-T/F 2726 07-04-2020 12:05:00 16.8 C 9.15 g/m*3 16.8 C 3.2 km/h
2727 07-04-2020 12:10:00 17.1 C 9.17 g/m*3 17.1 C 3.2 km/h
2728 07-04-2020 12:15:00 17.2 C 9.08 g/m*3 17.2 C 4.8 km/h
2729 07-04-2020 12:20:00 17.4 C 9.34 g/m*3 17.4 C 3.2 km/h
2730 07-04-2020 12:25:00 17.6 C 9.15 g/m*3 17.6 C 4.8 km/h
2731 07-04-2020 12:30:00 17.8 C 9.26 g/m*3 17.8 C 6.4 km/h
2732 07-04-2020 12:35:00 18 C 9.22 g/m*3 18 C 4.8 km/h
2733 07-04-2020 12:40:00 18.2 C 9.33 g/m*3 18.2 C 3.2 km/h
2734 07-04-2020 12:45:00 18.3 C 9.22 g/m*3 18.3 C 4.8 km/h
2735 07-04-2020 12:50:00 18.4 C 9.28 g/m*3 18.4 C 4.8 km/h
2736 07-04-2020 12:55:00 18.5 C 9.33 g/m*3 18.5 C 3.2 km/h
2737 07-04-2020 13:00:00 18.6 C 9.39 g/m*3 18.6 C 4.8 km/h
2738 07-04-2020 13:05:00 18.8 C 9.34 g/m*3 18.8 C 3.2 km/h
2739 07-04-2020 13:10:00 18.9 C 9.23 g/m*3 18.9 C 6.4 km/h
2740 07-04-2020 13:15:00 19.2 C 9.23 g/m*3 19.2 C 6.4 km/h
2741 07-04-2020 13:20:00 19.3 C 9.29 g/m*3 19.3 C 3.2 km/h
2742 07-04-2020 13:25:00 19.4 C 8.84 g/m*3 19.4 C 6.4 km/h
2743 07-04-2020 13:30:00 19.5 C 9.06 g/m*3 19.5 C 4.8 km/h
2744 07-04-2020 13:35:00 19.6 C 9.12 g/m*3 19.6 C 6.4 km/h
2745 07-04-2020 13:40:00 19.7 C 9 g/m*3 19.7 C 3.2 km/h
2746 07-04-2020 13:45:00 19.8 C 9.05 g/m*3 19.8 C 6.4 km/h
2747 07-04-2020 13:50:00 19.9 C 8.93 g/m*3 19.9 C 8.1 km/h
2748 07-04-2020 13:55:00 20.1 C 9.04 g/m*3 20.1 C 11.3 km/h
2749 07-04-2020 14:00:00 20.3 C 8.97 g/m*3 20.3 C 8.1 km/h
2750 07-04-2020 14:05:00 20.3 C 8.97 g/m*3 20.3 C 8.1 km/h
Sensor: Nr:Datum:Temp:Abs-Feuchte:Windchill:Wind:
Aussen-T/F 2751 07-04-2020 14:10:00 20.4 C 9.02 g/m*3 20.4 C 11.3 km/h
2752 07-04-2020 14:15:00 20.6 C 8.95 g/m*3 20.6 C 6.4 km/h
2753 07-04-2020 14:20:00 20.8 C 9.23 g/m*3 20.8 C 3.2 km/h
2754 07-04-2020 14:25:00 20.9 C 8.92 g/m*3 20.9 C 11.3 km/h
2755 07-04-2020 14:30:00 21.1 C 9.21 g/m*3 21.1 C 6.4 km/h
2756 07-04-2020 14:35:00 21.3 C 8.95 g/m*3 21.3 C 8.1 km/h
2757 07-04-2020 14:40:00 21.3 C 8.95 g/m*3 21.3 C 12.9 km/h
2758 07-04-2020 14:45:00 21.2 C 8.9 g/m*3 21.2 C 8.1 km/h
2759 07-04-2020 14:50:00 21.1 C 8.84 g/m*3 21.1 C 8.1 km/h
2760 07-04-2020 14:55:00 21.2 C 8.9 g/m*3 21.2 C 4.8 km/h
2761 07-04-2020 15:00:00 21.4 C 8.81 g/m*3 21.4 C 11.3 km/h
2762 07-04-2020 15:05:00 21.6 C 8.91 g/m*3 21.6 C 11.3 km/h
2763 07-04-2020 15:10:00 21.7 C 8.97 g/m*3 21.7 C 8.1 km/h
2764 07-04-2020 15:15:00 21.8 C 8.83 g/m*3 21.8 C 8.1 km/h
2765 07-04-2020 15:20:00 21.8 C 8.63 g/m*3 21.8 C 6.4 km/h
2766 07-04-2020 15:25:00 21.8 C 8.63 g/m*3 21.8 C 8.1 km/h
2767 07-04-2020 15:30:00 21.9 C 8.68 g/m*3 21.9 C 9.7 km/h
2768 07-04-2020 15:35:00 21.9 C 8.49 g/m*3 21.9 C 12.9 km/h
2769 07-04-2020 15:40:00 22.1 C 8.59 g/m*3 22.1 C 11.3 km/h
2770 07-04-2020 15:45:00 22.1 C 8.78 g/m*3 22.1 C 9.7 km/h
2771 07-04-2020 15:50:00 22.1 C 8.78 g/m*3 22.1 C 11.3 km/h
2772 07-04-2020 15:55:00 22.2 C 8.64 g/m*3 22.2 C 12.9 km/h
2773 07-04-2020 16:00:00 22.3 C 8.49 g/m*3 22.3 C 9.7 km/h
2774 07-04-2020 16:05:00 22.3 C 8.49 g/m*3 22.3 C 9.7 km/h
2775 07-04-2020 16:10:00 22.3 C 8.49 g/m*3 22.3 C 4.8 km/h
Sensor: Nr:Datum:Temp:Abs-Feuchte:Windchill:Wind:
Aussen-T/F 2776 07-04-2020 16:15:00 22.2 C 8.44 g/m*3 22.2 C 3.2 km/h
2777 07-04-2020 16:20:00 22.2 C 8.44 g/m*3 22.2 C 11.3 km/h
2778 07-04-2020 16:25:00 22.4 C 8.34 g/m*3 22.4 C 9.7 km/h
2779 07-04-2020 16:30:00 22.5 C 8.39 g/m*3 22.5 C 12.9 km/h
2780 07-04-2020 16:35:00 22.3 C 8.29 g/m*3 22.3 C 6.4 km/h
2781 07-04-2020 16:40:00 22.1 C 8.2 g/m*3 22.1 C 6.4 km/h
2782 07-04-2020 16:45:00 22.3 C 8.49 g/m*3 22.3 C 4.8 km/h
2783 07-04-2020 16:50:00 22.9 C 8.17 g/m*3 22.9 C 6.4 km/h
2784 07-04-2020 16:55:00 23.4 C 8.41 g/m*3 23.4 C 4.8 km/h
2785 07-04-2020 17:00:00 23.9 C 8.22 g/m*3 23.9 C 8.1 km/h
2786 07-04-2020 17:05:00 24.1 C 7.88 g/m*3 24.1 C 8.1 km/h
2787 07-04-2020 17:10:00 23.9 C 8 g/m*3 23.9 C 11.3 km/h
2788 07-04-2020 17:15:00 23.4 C 7.99 g/m*3 23.4 C 6.4 km/h
2789 07-04-2020 17:20:00 23.2 C 7.9 g/m*3 23.2 C 3.2 km/h
2790 07-04-2020 17:25:00 22.9 C 8.17 g/m*3 22.9 C 1.6 km/h
2791 07-04-2020 17:30:00 22.8 C 7.52 g/m*3 22.8 C 6.4 km/h
2792 07-04-2020 17:35:00 22.8 C 7.32 g/m*3 22.8 C 6.4 km/h
2793 07-04-2020 17:40:00 23.1 C 7.44 g/m*3 23.1 C 6.4 km/h
2794 07-04-2020 17:45:00 23.4 C 7.36 g/m*3 23.4 C 4.8 km/h
2795 07-04-2020 17:50:00 23.4 C 7.15 g/m*3 23.4 C 3.2 km/h
2796 07-04-2020 17:55:00 23.4 C 7.36 g/m*3 23.4 C 6.4 km/h
2797 07-04-2020 18:00:00 23.6 C 7.66 g/m*3 23.6 C 9.7 km/h
2798 07-04-2020 18:05:00 23.6 C 7.66 g/m*3 23.6 C 9.7 km/h
2799 07-04-2020 18:10:00 23.8 C 7.53 g/m*3 23.8 C 3.2 km/h
2800 07-04-2020 18:15:00 23.9 C 7.57 g/m*3 23.9 C 4.8 km/h
Sensor: Nr:Datum:Temp:Abs-Feuchte:Windchill:Wind:
Aussen-T/F 2801 07-04-2020 18:20:00 23.8 C 7.53 g/m*3 23.8 C 8.1 km/h
2802 07-04-2020 18:25:00 23.8 C 7.74 g/m*3 23.8 C 4.8 km/h
2803 07-04-2020 18:30:00 23.6 C 7.66 g/m*3 23.6 C 8.1 km/h
2804 07-04-2020 18:35:00 23.4 C 7.78 g/m*3 23.4 C 9.7 km/h
2805 07-04-2020 18:40:00 23.1 C 7.86 g/m*3 23.1 C 9.7 km/h
2806 07-04-2020 18:45:00 23.1 C 8.27 g/m*3 23.1 C 1.6 km/h
2807 07-04-2020 18:50:00 23 C 7.81 g/m*3 23 C 3.2 km/h
2808 07-04-2020 18:55:00 22.9 C 7.56 g/m*3 22.9 C 6.4 km/h
2809 07-04-2020 19:00:00 22.7 C 7.48 g/m*3 22.7 C 6.4 km/h
2810 07-04-2020 19:05:00 22.7 C 7.68 g/m*3 22.7 C 1.6 km/h
2811 07-04-2020 19:10:00 22.6 C 8.04 g/m*3 22.6 C 1.6 km/h
2812 07-04-2020 19:15:00 22.4 C 8.54 g/m*3 22.4 C 3.2 km/h
2813 07-04-2020 19:20:00 22.1 C 8.78 g/m*3 22.1 C 3.2 km/h
2814 07-04-2020 19:25:00 21.6 C 8.53 g/m*3 21.6 C 3.2 km/h
2815 07-04-2020 19:30:00 21 C 8.61 g/m*3 21 C 3.2 km/h
2816 07-04-2020 19:35:00 20.4 C 8.67 g/m*3 20.4 C 3.2 km/h
2817 07-04-2020 19:40:00 19.9 C 8.42 g/m*3 19.9 C 6.4 km/h
2818 07-04-2020 19:45:00 19.4 C 8.51 g/m*3 19.4 C 4.8 km/h
2819 07-04-2020 19:50:00 19.1 C 8.36 g/m*3 19.1 C 4.8 km/h
2820 07-04-2020 19:55:00 18.7 C 8.33 g/m*3 18.7 C 6.4 km/h
2821 07-04-2020 20:00:00 18.3 C 8.13 g/m*3 18.3 C 6.4 km/h
2822 07-04-2020 20:05:00 17.9 C 7.94 g/m*3 17.9 C 6.4 km/h
2823 07-04-2020 20:10:00 17.6 C 7.95 g/m*3 17.6 C 4.8 km/h
2824 07-04-2020 20:15:00 17.3 C 7.96 g/m*3 17.3 C 4.8 km/h
2825 07-04-2020 20:20:00 17 C 7.96 g/m*3 17 C 6.4 km/h
Sensor: Nr:Datum:Temp:Abs-Feuchte:Windchill:Wind:
Aussen-T/F 2826 07-04-2020 20:25:00 16.8 C 8.01 g/m*3 16.8 C 6.4 km/h
2827 07-04-2020 20:30:00 16.6 C 8.05 g/m*3 16.6 C 6.4 km/h
2828 07-04-2020 20:35:00 16.3 C 7.91 g/m*3 16.3 C 8.1 km/h
2829 07-04-2020 20:40:00 16.2 C 8.14 g/m*3 16.2 C 4.8 km/h
2830 07-04-2020 20:45:00 16 C 8.04 g/m*3 16 C 4.8 km/h
2831 07-04-2020 20:50:00 15.8 C 8.08 g/m*3 15.8 C 4.8 km/h
2832 07-04-2020 20:55:00 15.7 C 8.03 g/m*3 15.7 C 4.8 km/h
2833 07-04-2020 21:00:00 15.6 C 7.98 g/m*3 15.6 C 6.4 km/h
2834 07-04-2020 21:05:00 15.4 C 8.01 g/m*3 15.4 C 6.4 km/h
2835 07-04-2020 21:10:00 15.3 C 8.1 g/m*3 15.3 C 4.8 km/h
2836 07-04-2020 21:15:00 15.2 C 8.18 g/m*3 15.2 C 6.4 km/h
2837 07-04-2020 21:20:00 15.1 C 8.26 g/m*3 15.1 C 6.4 km/h
2838 07-04-2020 21:25:00 14.9 C 8.16 g/m*3 14.9 C 6.4 km/h
2839 07-04-2020 21:30:00 14.8 C 8.23 g/m*3 14.8 C 4.8 km/h
2840 07-04-2020 21:35:00 14.7 C 8.18 g/m*3 14.7 C 6.4 km/h
2841 07-04-2020 21:40:00 14.7 C 8.31 g/m*3 14.7 C 4.8 km/h
2842 07-04-2020 21:45:00 14.7 C 8.31 g/m*3 14.7 C 4.8 km/h
2843 07-04-2020 21:50:00 14.6 C 8.26 g/m*3 14.6 C 6.4 km/h
2844 07-04-2020 21:55:00 14.5 C 8.33 g/m*3 14.5 C 4.8 km/h
2845 07-04-2020 22:00:00 14.4 C 8.28 g/m*3 14.4 C 4.8 km/h
2846 07-04-2020 22:05:00 14.3 C 8.35 g/m*3 14.3 C 4.8 km/h
2847 07-04-2020 22:10:00 14.1 C 8.25 g/m*3 14.1 C 3.2 km/h
2848 07-04-2020 22:15:00 13.8 C 8.22 g/m*3 13.8 C 0 km/h
2849 07-04-2020 22:20:00 13.7 C 8.29 g/m*3 13.7 C 3.2 km/h
2850 07-04-2020 22:25:00 13.4 C 8.14 g/m*3 13.4 C 3.2 km/h
Sensor: Nr:Datum:Temp:Abs-Feuchte:Windchill:Wind:
Aussen-T/F 2851 07-04-2020 22:30:00 13.3 C 8.2 g/m*3 13.3 C 1.6 km/h
2852 07-04-2020 22:35:00 13.2 C 8.27 g/m*3 13.2 C 4.8 km/h
2853 07-04-2020 22:40:00 13.2 C 8.27 g/m*3 13.2 C 1.6 km/h
2854 07-04-2020 22:45:00 13.2 C 8.27 g/m*3 13.2 C 0 km/h
2855 07-04-2020 22:50:00 13.2 C 8.27 g/m*3 13.2 C 3.2 km/h
2856 07-04-2020 22:55:00 13.1 C 8.22 g/m*3 13.1 C 4.8 km/h
2857 07-04-2020 23:00:00 13.1 C 8.22 g/m*3 13.1 C 3.2 km/h
2858 07-04-2020 23:05:00 13.1 C 8.33 g/m*3 13.1 C 1.6 km/h
2859 07-04-2020 23:10:00 13 C 8.28 g/m*3 13 C 3.2 km/h
2860 07-04-2020 23:15:00 13 C 8.39 g/m*3 13 C 4.8 km/h
2861 07-04-2020 23:20:00 13 C 8.39 g/m*3 13 C 4.8 km/h
2862 07-04-2020 23:25:00 13 C 8.39 g/m*3 13 C 4.8 km/h
2863 07-04-2020 23:30:00 13 C 8.39 g/m*3 13 C 1.6 km/h
2864 07-04-2020 23:35:00 12.9 C 8.34 g/m*3 12.9 C 4.8 km/h
2865 07-04-2020 23:40:00 12.9 C 8.45 g/m*3 12.9 C 4.8 km/h
2866 07-04-2020 23:45:00 12.8 C 8.4 g/m*3 12.8 C 3.2 km/h
2867 07-04-2020 23:50:00 12.8 C 8.4 g/m*3 12.8 C 1.6 km/h
2868 07-04-2020 23:55:00 12.7 C 8.35 g/m*3 12.7 C 1.6 km/h
2869 08-04-2020 00:00:00 12.6 C 8.3 g/m*3 12.6 C 1.6 km/h
2870 08-04-2020 00:05:00 12.4 C 8.3 g/m*3 12.4 C 3.2 km/h
2871 08-04-2020 00:10:00 12.3 C 8.36 g/m*3 12.3 C 3.2 km/h
2872 08-04-2020 00:15:00 12.2 C 8.31 g/m*3 12.2 C 4.8 km/h
2873 08-04-2020 00:20:00 12.2 C 8.42 g/m*3 12.2 C 3.2 km/h
2874 08-04-2020 00:25:00 12.2 C 8.42 g/m*3 12.2 C 4.8 km/h
2875 08-04-2020 00:30:00 12.1 C 8.36 g/m*3 12.1 C 3.2 km/h
Sensor: Nr:Datum:Temp:Abs-Feuchte:Windchill:Wind:
Aussen-T/F 2876 08-04-2020 00:35:00 12 C 8.42 g/m*3 12 C 3.2 km/h
2877 08-04-2020 00:40:00 12 C 8.42 g/m*3 12 C 4.8 km/h
2878 08-04-2020 00:45:00 11.9 C 8.37 g/m*3 11.9 C 3.2 km/h
2879 08-04-2020 00:50:00 11.8 C 8.31 g/m*3 11.8 C 1.6 km/h
2880 08-04-2020 00:55:00 11.7 C 8.26 g/m*3 11.7 C 3.2 km/h
2881 08-04-2020 01:00:00 11.5 C 8.26 g/m*3 11.5 C 1.6 km/h
2882 08-04-2020 01:05:00 11.4 C 8.21 g/m*3 11.4 C 1.6 km/h
2883 08-04-2020 01:10:00 11.3 C 8.26 g/m*3 11.3 C 4.8 km/h
2884 08-04-2020 01:15:00 11.3 C 8.16 g/m*3 11.3 C 1.6 km/h
2885 08-04-2020 01:20:00 11.2 C 8.21 g/m*3 11.2 C 3.2 km/h
2886 08-04-2020 01:25:00 11.1 C 8.16 g/m*3 11.1 C 0 km/h
2887 08-04-2020 01:30:00 10.9 C 8.16 g/m*3 10.9 C 0 km/h
2888 08-04-2020 01:35:00 10.8 C 8.11 g/m*3 10.8 C 1.6 km/h
2889 08-04-2020 01:40:00 10.8 C 8.11 g/m*3 10.8 C 0 km/h
2890 08-04-2020 01:45:00 10.7 C 8.05 g/m*3 10.7 C 0 km/h
2891 08-04-2020 01:50:00 10.5 C 8.05 g/m*3 10.5 C 0 km/h
2892 08-04-2020 01:55:00 10.4 C 8 g/m*3 10.4 C 0 km/h
2893 08-04-2020 02:00:00 10.3 C 7.95 g/m*3 10.3 C 0 km/h
2894 08-04-2020 02:05:00 10.1 C 7.85 g/m*3 10.1 C 0 km/h
2895 08-04-2020 02:10:00 10 C 7.89 g/m*3 10 C 0 km/h
2896 08-04-2020 02:15:00 9.8 C 7.79 g/m*3 9.8 C 0 km/h
2897 08-04-2020 02:20:00 9.6 C 7.79 g/m*3 9.6 C 0 km/h
2898 08-04-2020 02:25:00 9.5 C 7.74 g/m*3 9.5 C 0 km/h
2899 08-04-2020 02:30:00 9.3 C 7.64 g/m*3 9.3 C 0 km/h
2900 08-04-2020 02:35:00 9.2 C 7.68 g/m*3 9.2 C 0 km/h
Sensor: Nr:Datum:Temp:Abs-Feuchte:Windchill:Wind:
Aussen-T/F 2901 08-04-2020 02:40:00 9.1 C 7.63 g/m*3 9.1 C 0 km/h
2902 08-04-2020 02:45:00 8.9 C 7.53 g/m*3 8.9 C 0 km/h
2903 08-04-2020 02:50:00 8.8 C 7.57 g/m*3 8.8 C 0 km/h
2904 08-04-2020 02:55:00 8.7 C 7.52 g/m*3 8.7 C 0 km/h
2905 08-04-2020 03:00:00 8.6 C 7.48 g/m*3 8.6 C 0 km/h
2906 08-04-2020 03:05:00 8.3 C 7.33 g/m*3 8.3 C 0 km/h
2907 08-04-2020 03:10:00 8.2 C 7.37 g/m*3 8.2 C 0 km/h
2908 08-04-2020 03:15:00 8.1 C 7.32 g/m*3 8.1 C 0 km/h
2909 08-04-2020 03:20:00 7.9 C 7.23 g/m*3 7.9 C 0 km/h
2910 08-04-2020 03:25:00 7.9 C 7.31 g/m*3 7.9 C 0 km/h
2911 08-04-2020 03:30:00 7.9 C 7.39 g/m*3 7.9 C 0 km/h
2912 08-04-2020 03:35:00 7.9 C 7.39 g/m*3 7.9 C 0 km/h
2913 08-04-2020 03:40:00 7.8 C 7.35 g/m*3 7.8 C 0 km/h
2914 08-04-2020 03:45:00 7.7 C 7.3 g/m*3 7.7 C 0 km/h
2915 08-04-2020 03:50:00 7.6 C 7.25 g/m*3 7.6 C 0 km/h
2916 08-04-2020 03:55:00 7.5 C 7.2 g/m*3 7.5 C 0 km/h
2917 08-04-2020 04:00:00 7.4 C 7.16 g/m*3 7.4 C 0 km/h
2918 08-04-2020 04:05:00 7.4 C 7.24 g/m*3 7.4 C 0 km/h
2919 08-04-2020 04:10:00 7.4 C 7.24 g/m*3 7.4 C 0 km/h
2920 08-04-2020 04:15:00 7.3 C 7.19 g/m*3 7.3 C 0 km/h
2921 08-04-2020 04:20:00 7.3 C 7.19 g/m*3 7.3 C 0 km/h
2922 08-04-2020 04:25:00 7.2 C 7.22 g/m*3 7.2 C 0 km/h
2923 08-04-2020 04:30:00 7.3 C 7.27 g/m*3 7.3 C 0 km/h
2924 08-04-2020 04:35:00 7.2 C 7.14 g/m*3 7.2 C 0 km/h
2925 08-04-2020 04:40:00 7 C 7.05 g/m*3 7 C 0 km/h
Sensor: Nr:Datum:Temp:Abs-Feuchte:Windchill:Wind:
Aussen-T/F 2926 08-04-2020 04:45:00 6.9 C 7.08 g/m*3 6.9 C 0 km/h
2927 08-04-2020 04:50:00 6.9 C 7.08 g/m*3 6.9 C 0 km/h
2928 08-04-2020 04:55:00 6.8 C 7.04 g/m*3 6.8 C 0 km/h
2929 08-04-2020 05:00:00 6.8 C 7.04 g/m*3 6.8 C 0 km/h
2930 08-04-2020 05:05:00 6.8 C 7.04 g/m*3 6.8 C 0 km/h
2931 08-04-2020 05:10:00 6.7 C 6.99 g/m*3 6.7 C 0 km/h
2932 08-04-2020 05:15:00 6.7 C 7.07 g/m*3 6.7 C 0 km/h
2933 08-04-2020 05:20:00 6.6 C 6.95 g/m*3 6.6 C 0 km/h
2934 08-04-2020 05:25:00 6.5 C 6.9 g/m*3 6.5 C 0 km/h
2935 08-04-2020 05:30:00 6.4 C 6.85 g/m*3 6.4 C 0 km/h
2936 08-04-2020 05:35:00 6.4 C 6.93 g/m*3 6.4 C 0 km/h
2937 08-04-2020 05:40:00 6.3 C 6.88 g/m*3 6.3 C 0 km/h
2938 08-04-2020 05:45:00 6.2 C 6.84 g/m*3 6.2 C 0 km/h
2939 08-04-2020 05:50:00 6.2 C 6.84 g/m*3 6.2 C 0 km/h
2940 08-04-2020 05:55:00 6.2 C 6.84 g/m*3 6.2 C 0 km/h
2941 08-04-2020 06:00:00 6.2 C 6.84 g/m*3 6.2 C 0 km/h
2942 08-04-2020 06:05:00 6.2 C 6.84 g/m*3 6.2 C 0 km/h
2943 08-04-2020 06:10:00 6.1 C 6.79 g/m*3 6.1 C 0 km/h
2944 08-04-2020 06:15:00 6.1 C 6.79 g/m*3 6.1 C 0 km/h
2945 08-04-2020 06:20:00 6 C 6.75 g/m*3 6 C 0 km/h
2946 08-04-2020 06:25:00 6 C 6.82 g/m*3 6 C 0 km/h
2947 08-04-2020 06:30:00 6.1 C 6.87 g/m*3 6.1 C 0 km/h
2948 08-04-2020 06:35:00 5.9 C 6.78 g/m*3 5.9 C 0 km/h
2949 08-04-2020 06:40:00 5.8 C 6.66 g/m*3 5.8 C 0 km/h
2950 08-04-2020 06:45:00 5.7 C 6.69 g/m*3 5.7 C 0 km/h
Sensor: Nr:Datum:Temp:Abs-Feuchte:Windchill:Wind:
Aussen-T/F 2951 08-04-2020 06:50:00 5.7 C 6.69 g/m*3 5.7 C 0 km/h
2952 08-04-2020 06:55:00 5.6 C 6.65 g/m*3 5.6 C 0 km/h
2953 08-04-2020 07:00:00 5.7 C 6.69 g/m*3 5.7 C 0 km/h
2954 08-04-2020 07:05:00 5.7 C 6.69 g/m*3 5.7 C 0 km/h
2955 08-04-2020 07:10:00 5.7 C 6.69 g/m*3 5.7 C 0 km/h
2956 08-04-2020 07:15:00 5.7 C 6.69 g/m*3 5.7 C 0 km/h
2957 08-04-2020 07:20:00 5.8 C 6.73 g/m*3 5.8 C 0 km/h
2958 08-04-2020 07:25:00 5.8 C 6.73 g/m*3 5.8 C 0 km/h
2959 08-04-2020 07:30:00 5.8 C 6.73 g/m*3 5.8 C 0 km/h
2960 08-04-2020 07:35:00 5.8 C 6.81 g/m*3 5.8 C 0 km/h
2961 08-04-2020 07:40:00 5.8 C 6.81 g/m*3 5.8 C 0 km/h
2962 08-04-2020 07:45:00 6 C 6.9 g/m*3 6 C 1.6 km/h
2963 08-04-2020 07:50:00 6.2 C 6.99 g/m*3 6.2 C 0 km/h
2964 08-04-2020 07:55:00 6.3 C 7.03 g/m*3 6.3 C 0 km/h
2965 08-04-2020 08:00:00 6.3 C 7.03 g/m*3 6.3 C 0 km/h
2966 08-04-2020 08:05:00 6.3 C 7.03 g/m*3 6.3 C 0 km/h
2967 08-04-2020 08:10:00 6.3 C 7.03 g/m*3 6.3 C 0 km/h
2968 08-04-2020 08:15:00 6.3 C 7.03 g/m*3 6.3 C 0 km/h
2969 08-04-2020 08:20:00 6.4 C 7.08 g/m*3 6.4 C 0 km/h
2970 08-04-2020 08:25:00 6.7 C 7.22 g/m*3 6.7 C 0 km/h
2971 08-04-2020 08:30:00 6.7 C 7.29 g/m*3 6.7 C 0 km/h
2972 08-04-2020 08:35:00 6.8 C 7.34 g/m*3 6.8 C 0 km/h
2973 08-04-2020 08:40:00 6.9 C 7.39 g/m*3 6.9 C 0 km/h
2974 08-04-2020 08:45:00 6.9 C 7.31 g/m*3 6.9 C 0 km/h
2975 08-04-2020 08:50:00 7 C 7.36 g/m*3 7 C 0 km/h
Sensor: Nr:Datum:Temp:Abs-Feuchte:Windchill:Wind:
Aussen-T/F 2976 08-04-2020 08:55:00 7.1 C 7.41 g/m*3 7.1 C 0 km/h
2977 08-04-2020 09:00:00 7.2 C 7.54 g/m*3 7.2 C 0 km/h
2978 08-04-2020 09:05:00 7.3 C 7.58 g/m*3 7.3 C 0 km/h
2979 08-04-2020 09:10:00 7.4 C 7.63 g/m*3 7.4 C 0 km/h
2980 08-04-2020 09:15:00 7.4 C 7.63 g/m*3 7.4 C 0 km/h
2981 08-04-2020 09:20:00 7.6 C 7.73 g/m*3 7.6 C 0 km/h
2982 08-04-2020 09:25:00 7.7 C 7.78 g/m*3 7.7 C 0 km/h
2983 08-04-2020 09:30:00 7.9 C 7.89 g/m*3 7.9 C 0 km/h
2984 08-04-2020 09:35:00 8.1 C 7.99 g/m*3 8.1 C 0 km/h
2985 08-04-2020 09:40:00 8.2 C 8.04 g/m*3 8.2 C 0 km/h
2986 08-04-2020 09:45:00 8.4 C 8.14 g/m*3 8.4 C 0 km/h
2987 08-04-2020 09:50:00 8.6 C 8.25 g/m*3 8.6 C 0 km/h
2988 08-04-2020 09:55:00 8.7 C 8.3 g/m*3 8.7 C 0 km/h
2989 08-04-2020 10:00:00 8.9 C 8.41 g/m*3 8.9 C 0 km/h
2990 08-04-2020 10:05:00 9.1 C 8.52 g/m*3 9.1 C 0 km/h
2991 08-04-2020 10:10:00 9.2 C 8.57 g/m*3 9.2 C 0 km/h
2992 08-04-2020 10:15:00 9.4 C 8.68 g/m*3 9.4 C 0 km/h
2993 08-04-2020 10:20:00 9.7 C 8.85 g/m*3 9.7 C 0 km/h
2994 08-04-2020 10:25:00 9.9 C 8.96 g/m*3 9.9 C 0 km/h
2995 08-04-2020 10:30:00 10.2 C 9.04 g/m*3 10.2 C 0 km/h
2996 08-04-2020 10:35:00 10.4 C 9.16 g/m*3 10.4 C 0 km/h
2997 08-04-2020 10:40:00 10.8 C 9.29 g/m*3 10.8 C 0 km/h
2998 08-04-2020 10:45:00 11.2 C 9.43 g/m*3 11.2 C 0 km/h
2999 08-04-2020 10:50:00 11.6 C 9.56 g/m*3 11.6 C 0 km/h
3000 08-04-2020 10:55:00 12 C 9.59 g/m*3 12 C 0 km/h
Sensor: Nr:Datum:Temp:Abs-Feuchte:Windchill:Wind:
Aussen-T/F 3001 08-04-2020 11:00:00 12.4 C 9.62 g/m*3 12.4 C 0 km/h
3002 08-04-2020 11:05:00 12.9 C 9.81 g/m*3 12.9 C 0 km/h
3003 08-04-2020 11:10:00 13.3 C 9.82 g/m*3 13.3 C 0 km/h
3004 08-04-2020 11:15:00 13.8 C 9.89 g/m*3 13.8 C 0 km/h
3005 08-04-2020 11:20:00 14.3 C 10.07 g/m*3 14.3 C 0 km/h
3006 08-04-2020 11:25:00 14.8 C 10.26 g/m*3 14.8 C 0 km/h
3007 08-04-2020 11:30:00 15.1 C 10.32 g/m*3 15.1 C 0 km/h
3008 08-04-2020 11:35:00 15.4 C 10.25 g/m*3 15.4 C 0 km/h
3009 08-04-2020 11:40:00 15.9 C 10.02 g/m*3 15.9 C 1.6 km/h
3010 08-04-2020 11:45:00 16.4 C 9.91 g/m*3 16.4 C 0 km/h
3011 08-04-2020 11:50:00 17 C 10.13 g/m*3 17 C 1.6 km/h
3012 08-04-2020 11:55:00 17.5 C 10.29 g/m*3 17.5 C 0 km/h
3013 08-04-2020 12:00:00 18.1 C 9.58 g/m*3 18.1 C 1.6 km/h
3014 08-04-2020 12:05:00 18.5 C 9.81 g/m*3 18.5 C 0 km/h
3015 08-04-2020 12:10:00 18.9 C 9.4 g/m*3 18.9 C 0 km/h
3016 08-04-2020 12:15:00 19.3 C 9.29 g/m*3 19.3 C 0 km/h
3017 08-04-2020 12:20:00 19.7 C 9.34 g/m*3 19.7 C 4.8 km/h
3018 08-04-2020 12:25:00 19.9 C 8.93 g/m*3 19.9 C 1.6 km/h
3019 08-04-2020 12:30:00 20.2 C 8.57 g/m*3 20.2 C 4.8 km/h
3020 08-04-2020 12:35:00 20.4 C 8.49 g/m*3 20.4 C 6.4 km/h
3021 08-04-2020 12:40:00 20.6 C 8.41 g/m*3 20.6 C 1.6 km/h
3022 08-04-2020 12:45:00 20.8 C 8.51 g/m*3 20.8 C 4.8 km/h
3023 08-04-2020 12:50:00 20.9 C 8.01 g/m*3 20.9 C 8.1 km/h
3024 08-04-2020 12:55:00 21.1 C 7.92 g/m*3 21.1 C 8.1 km/h
3025 08-04-2020 13:00:00 21.2 C 7.97 g/m*3 21.2 C 6.4 km/h
Sensor: Nr:Datum:Temp:Abs-Feuchte:Windchill:Wind:
Aussen-T/F 3026 08-04-2020 13:05:00 21.3 C 7.64 g/m*3 21.3 C 6.4 km/h
3027 08-04-2020 13:10:00 21.5 C 7.73 g/m*3 21.5 C 9.7 km/h
3028 08-04-2020 13:15:00 21.7 C 7.06 g/m*3 21.7 C 11.3 km/h
3029 08-04-2020 13:20:00 21.8 C 6.91 g/m*3 21.8 C 9.7 km/h
3030 08-04-2020 13:25:00 21.8 C 6.72 g/m*3 21.8 C 6.4 km/h
3031 08-04-2020 13:30:00 21.7 C 6.68 g/m*3 21.7 C 6.4 km/h
3032 08-04-2020 13:35:00 21.8 C 6.72 g/m*3 21.8 C 6.4 km/h
3033 08-04-2020 13:40:00 22 C 6.21 g/m*3 22 C 8.1 km/h
3034 08-04-2020 13:45:00 22.1 C 5.86 g/m*3 22.1 C 8.1 km/h
3035 08-04-2020 13:50:00 22.1 C 5.86 g/m*3 22.1 C 6.4 km/h
3036 08-04-2020 13:55:00 22.2 C 5.89 g/m*3 22.2 C 8.1 km/h
3037 08-04-2020 14:00:00 22.2 C 5.69 g/m*3 22.2 C 6.4 km/h
3038 08-04-2020 14:05:00 22.3 C 5.73 g/m*3 22.3 C 9.7 km/h
3039 08-04-2020 14:10:00 22.4 C 5.76 g/m*3 22.4 C 8.1 km/h
3040 08-04-2020 14:15:00 22.6 C 6.03 g/m*3 22.6 C 8.1 km/h
3041 08-04-2020 14:20:00 22.7 C 6.06 g/m*3 22.7 C 11.3 km/h
3042 08-04-2020 14:25:00 22.9 C 5.93 g/m*3 22.9 C 6.4 km/h
3043 08-04-2020 14:30:00 23.1 C 5.99 g/m*3 23.1 C 8.1 km/h
3044 08-04-2020 14:35:00 23.2 C 5.82 g/m*3 23.2 C 6.4 km/h
3045 08-04-2020 14:40:00 23.2 C 5.82 g/m*3 23.2 C 8.1 km/h
3046 08-04-2020 14:45:00 23.2 C 5.82 g/m*3 23.2 C 3.2 km/h
3047 08-04-2020 14:50:00 23.3 C 5.85 g/m*3 23.3 C 6.4 km/h
3048 08-04-2020 14:55:00 23.3 C 5.85 g/m*3 23.3 C 11.3 km/h
3049 08-04-2020 15:00:00 23.4 C 5.89 g/m*3 23.4 C 9.7 km/h
3050 08-04-2020 15:05:00 23.4 C 5.89 g/m*3 23.4 C 8.1 km/h
Sensor: Nr:Datum:Temp:Abs-Feuchte:Windchill:Wind:
Aussen-T/F 3051 08-04-2020 15:10:00 23.2 C 7.28 g/m*3 23.2 C 6.4 km/h
3052 08-04-2020 15:15:00 22.8 C 6.5 g/m*3 22.8 C 4.8 km/h
3053 08-04-2020 15:20:00 22.8 C 6.1 g/m*3 22.8 C 9.7 km/h
3054 08-04-2020 15:25:00 23 C 6.37 g/m*3 23 C 9.7 km/h
3055 08-04-2020 15:30:00 22.9 C 6.13 g/m*3 22.9 C 16.1 km/h
3056 08-04-2020 15:35:00 22.9 C 5.93 g/m*3 22.9 C 9.7 km/h
3057 08-04-2020 15:40:00 23.1 C 5.99 g/m*3 23.1 C 8.1 km/h
3058 08-04-2020 15:45:00 23.2 C 6.03 g/m*3 23.2 C 8.1 km/h
3059 08-04-2020 15:50:00 23.2 C 6.24 g/m*3 23.2 C 6.4 km/h
3060 08-04-2020 15:55:00 23.3 C 6.06 g/m*3 23.3 C 9.7 km/h
3061 08-04-2020 16:00:00 23.4 C 5.89 g/m*3 23.4 C 8.1 km/h
3062 08-04-2020 16:05:00 23.6 C 5.96 g/m*3 23.6 C 6.4 km/h
3063 08-04-2020 16:10:00 23.6 C 5.74 g/m*3 23.6 C 9.7 km/h
3064 08-04-2020 16:15:00 23.7 C 5.99 g/m*3 23.7 C 8.1 km/h
3065 08-04-2020 16:20:00 23.7 C 5.78 g/m*3 23.7 C 3.2 km/h
3066 08-04-2020 16:25:00 23.8 C 5.81 g/m*3 23.8 C 1.6 km/h
3067 08-04-2020 16:30:00 24.1 C 6.35 g/m*3 24.1 C 6.4 km/h
3068 08-04-2020 16:35:00 24.3 C 6.2 g/m*3 24.3 C 8.1 km/h
3069 08-04-2020 16:40:00 24.6 C 6.08 g/m*3 24.6 C 6.4 km/h
3070 08-04-2020 16:45:00 24.8 C 6.15 g/m*3 24.8 C 6.4 km/h
3071 08-04-2020 16:50:00 25.2 C 6.29 g/m*3 25.2 C 6.4 km/h
3072 08-04-2020 16:55:00 25.7 C 5.99 g/m*3 25.7 C 3.2 km/h
3073 08-04-2020 17:00:00 25.7 C 5.75 g/m*3 25.7 C 6.4 km/h
3074 08-04-2020 17:05:00 25.3 C 5.62 g/m*3 25.3 C 9.7 km/h
3075 08-04-2020 17:10:00 25.2 C 5.82 g/m*3 25.2 C 9.7 km/h
Sensor: Nr:Datum:Temp:Abs-Feuchte:Windchill:Wind:
Aussen-T/F 3076 08-04-2020 17:15:00 25.2 C 5.82 g/m*3 25.2 C 6.4 km/h
3077 08-04-2020 17:20:00 25.2 C 5.59 g/m*3 25.2 C 8.1 km/h
3078 08-04-2020 17:25:00 25.2 C 5.82 g/m*3 25.2 C 1.6 km/h
3079 08-04-2020 17:30:00 25.2 C 5.59 g/m*3 25.2 C 8.1 km/h
3080 08-04-2020 17:35:00 25.2 C 5.82 g/m*3 25.2 C 3.2 km/h
3081 08-04-2020 17:40:00 25.5 C 6.16 g/m*3 25.5 C 4.8 km/h
3082 08-04-2020 17:45:00 25.3 C 5.85 g/m*3 25.3 C 9.7 km/h
3083 08-04-2020 17:50:00 25.2 C 6.29 g/m*3 25.2 C 6.4 km/h
3084 08-04-2020 17:55:00 25.3 C 6.32 g/m*3 25.3 C 4.8 km/h
3085 08-04-2020 18:00:00 25.3 C 6.09 g/m*3 25.3 C 4.8 km/h
3086 08-04-2020 18:05:00 25.6 C 6.43 g/m*3 25.6 C 3.2 km/h
3087 08-04-2020 18:10:00 25.7 C 6.22 g/m*3 25.7 C 6.4 km/h
3088 08-04-2020 18:15:00 25.6 C 5.95 g/m*3 25.6 C 8.1 km/h
3089 08-04-2020 18:20:00 25.6 C 6.43 g/m*3 25.6 C 4.8 km/h
3090 08-04-2020 18:25:00 25.6 C 6.43 g/m*3 25.6 C 3.2 km/h
3091 08-04-2020 18:30:00 25.4 C 6.12 g/m*3 25.4 C 6.4 km/h
3092 08-04-2020 18:35:00 25.3 C 6.32 g/m*3 25.3 C 3.2 km/h
3093 08-04-2020 18:40:00 25.2 C 6.29 g/m*3 25.2 C 3.2 km/h
3094 08-04-2020 18:45:00 25.2 C 6.05 g/m*3 25.2 C 4.8 km/h
3095 08-04-2020 18:50:00 25.1 C 6.02 g/m*3 25.1 C 3.2 km/h
3096 08-04-2020 18:55:00 24.9 C 6.18 g/m*3 24.9 C 1.6 km/h
3097 08-04-2020 19:00:00 24.8 C 6.15 g/m*3 24.8 C 3.2 km/h
3098 08-04-2020 19:05:00 24.8 C 7.28 g/m*3 24.8 C 0 km/h
3099 08-04-2020 19:10:00 24.9 C 7.32 g/m*3 24.9 C 0 km/h
3100 08-04-2020 19:15:00 24.6 C 7.65 g/m*3 24.6 C 0 km/h
Sensor: Nr:Datum:Temp:Abs-Feuchte:Windchill:Wind:
Aussen-T/F 3101 08-04-2020 19:20:00 24.2 C 7.26 g/m*3 24.2 C 0 km/h
3102 08-04-2020 19:25:00 23.5 C 7.19 g/m*3 23.5 C 0 km/h
3103 08-04-2020 19:30:00 22.9 C 7.36 g/m*3 22.9 C 1.6 km/h
3104 08-04-2020 19:35:00 22.3 C 7.11 g/m*3 22.3 C 4.8 km/h
3105 08-04-2020 19:40:00 21.7 C 7.25 g/m*3 21.7 C 4.8 km/h
3106 08-04-2020 19:45:00 21.1 C 7.37 g/m*3 21.1 C 4.8 km/h
3107 08-04-2020 19:50:00 20.6 C 7.16 g/m*3 20.6 C 4.8 km/h
3108 08-04-2020 19:55:00 20.1 C 7.13 g/m*3 20.1 C 6.4 km/h
3109 08-04-2020 20:00:00 19.6 C 7.09 g/m*3 19.6 C 4.8 km/h
3110 08-04-2020 20:05:00 19.1 C 7.05 g/m*3 19.1 C 4.8 km/h
3111 08-04-2020 20:10:00 18.7 C 7.04 g/m*3 18.7 C 4.8 km/h
3112 08-04-2020 20:15:00 18.3 C 7.04 g/m*3 18.3 C 6.4 km/h
3113 08-04-2020 20:20:00 17.9 C 7.02 g/m*3 17.9 C 4.8 km/h
3114 08-04-2020 20:25:00 17.7 C 6.94 g/m*3 17.7 C 6.4 km/h
3115 08-04-2020 20:30:00 17.4 C 6.97 g/m*3 17.4 C 6.4 km/h
3116 08-04-2020 20:35:00 17.1 C 6.99 g/m*3 17.1 C 4.8 km/h
3117 08-04-2020 20:40:00 16.8 C 7.01 g/m*3 16.8 C 4.8 km/h
3118 08-04-2020 20:45:00 16.4 C 6.84 g/m*3 16.4 C 4.8 km/h
3119 08-04-2020 20:50:00 16.2 C 7.03 g/m*3 16.2 C 1.6 km/h
3120 08-04-2020 20:55:00 16 C 7.08 g/m*3 16 C 4.8 km/h
3121 08-04-2020 21:00:00 15.8 C 6.87 g/m*3 15.8 C 1.6 km/h
3122 08-04-2020 21:05:00 15.6 C 6.92 g/m*3 15.6 C 1.6 km/h
3123 08-04-2020 21:10:00 15.4 C 7.09 g/m*3 15.4 C 3.2 km/h
3124 08-04-2020 21:15:00 15.1 C 6.84 g/m*3 15.1 C 4.8 km/h
3125 08-04-2020 21:20:00 14.8 C 6.84 g/m*3 14.8 C 4.8 km/h
Sensor: Nr:Datum:Temp:Abs-Feuchte:Windchill:Wind:
Aussen-T/F 3126 08-04-2020 21:25:00 14.7 C 7.18 g/m*3 14.7 C 0 km/h
3127 08-04-2020 21:30:00 14.3 C 6.88 g/m*3 14.3 C 1.6 km/h
3128 08-04-2020 21:35:00 14.2 C 6.84 g/m*3 14.2 C 4.8 km/h
3129 08-04-2020 21:40:00 14.2 C 7.08 g/m*3 14.2 C 3.2 km/h
3130 08-04-2020 21:45:00 14.1 C 7.16 g/m*3 14.1 C 1.6 km/h
3131 08-04-2020 21:50:00 13.9 C 7.07 g/m*3 13.9 C 1.6 km/h
3132 08-04-2020 21:55:00 13.7 C 7.1 g/m*3 13.7 C 0 km/h
3133 08-04-2020 22:00:00 13.5 C 6.9 g/m*3 13.5 C 0 km/h
3134 08-04-2020 22:05:00 13.3 C 6.93 g/m*3 13.3 C 0 km/h
3135 08-04-2020 22:10:00 13.1 C 6.85 g/m*3 13.1 C 0 km/h
3136 08-04-2020 22:15:00 12.9 C 6.76 g/m*3 12.9 C 0 km/h
3137 08-04-2020 22:20:00 12.8 C 6.94 g/m*3 12.8 C 3.2 km/h
3138 08-04-2020 22:25:00 12.7 C 7.01 g/m*3 12.7 C 0 km/h
3139 08-04-2020 22:30:00 12.7 C 7.12 g/m*3 12.7 C 0 km/h
3140 08-04-2020 22:35:00 12.6 C 6.97 g/m*3 12.6 C 0 km/h
3141 08-04-2020 22:40:00 12.6 C 7.08 g/m*3 12.6 C 0 km/h
3142 08-04-2020 22:45:00 12.3 C 7.06 g/m*3 12.3 C 0 km/h
3143 08-04-2020 22:50:00 12.1 C 7.08 g/m*3 12.1 C 0 km/h
3144 08-04-2020 22:55:00 11.9 C 6.99 g/m*3 11.9 C 0 km/h
3145 08-04-2020 23:00:00 12 C 6.82 g/m*3 12 C 0 km/h
3146 08-04-2020 23:05:00 12.2 C 6.91 g/m*3 12.2 C 1.6 km/h
3147 08-04-2020 23:10:00 12.2 C 7.01 g/m*3 12.2 C 0 km/h
3148 08-04-2020 23:15:00 12.1 C 6.97 g/m*3 12.1 C 0 km/h
3149 08-04-2020 23:20:00 11.8 C 6.95 g/m*3 11.8 C 0 km/h
3150 08-04-2020 23:25:00 11.6 C 6.96 g/m*3 11.6 C 0 km/h
Sensor: Nr:Datum:Temp:Abs-Feuchte:Windchill:Wind:
Aussen-T/F 3151 08-04-2020 23:30:00 11.3 C 6.94 g/m*3 11.3 C 0 km/h
3152 08-04-2020 23:35:00 11.2 C 6.99 g/m*3 11.2 C 1.6 km/h
3153 08-04-2020 23:40:00 11.1 C 6.85 g/m*3 11.1 C 1.6 km/h
3154 08-04-2020 23:45:00 11.2 C 6.89 g/m*3 11.2 C 0 km/h
3155 08-04-2020 23:50:00 11.5 C 7.02 g/m*3 11.5 C 1.6 km/h
3156 08-04-2020 23:55:00 11.7 C 7.01 g/m*3 11.7 C 1.6 km/h
3157 09-04-2020 00:00:00 11.7 C 7.01 g/m*3 11.7 C 0 km/h
3158 09-04-2020 00:05:00 11.6 C 7.07 g/m*3 11.6 C 0 km/h
3159 09-04-2020 00:10:00 11.5 C 6.92 g/m*3 11.5 C 0 km/h
3160 09-04-2020 00:15:00 11.6 C 6.96 g/m*3 11.6 C 1.6 km/h
3161 09-04-2020 00:20:00 11.7 C 7.01 g/m*3 11.7 C 0 km/h
3162 09-04-2020 00:25:00 11.6 C 7.07 g/m*3 11.6 C 0 km/h
3163 09-04-2020 00:30:00 11.3 C 6.94 g/m*3 11.3 C 0 km/h
3164 09-04-2020 00:35:00 11.1 C 6.95 g/m*3 11.1 C 0 km/h
3165 09-04-2020 00:40:00 11.2 C 6.89 g/m*3 11.2 C 4.8 km/h
3166 09-04-2020 00:45:00 11.2 C 6.99 g/m*3 11.2 C 3.2 km/h
3167 09-04-2020 00:50:00 11.2 C 6.99 g/m*3 11.2 C 1.6 km/h
3168 09-04-2020 00:55:00 11.1 C 7.05 g/m*3 11.1 C 0 km/h
3169 09-04-2020 01:00:00 11.1 C 7.05 g/m*3 11.1 C 0 km/h
3170 09-04-2020 01:05:00 10.9 C 7.06 g/m*3 10.9 C 0 km/h
3171 09-04-2020 01:10:00 10.8 C 7.02 g/m*3 10.8 C 0 km/h
3172 09-04-2020 01:15:00 10.6 C 6.93 g/m*3 10.6 C 0 km/h
3173 09-04-2020 01:20:00 10.3 C 6.9 g/m*3 10.3 C 0 km/h
3174 09-04-2020 01:25:00 10.1 C 6.9 g/m*3 10.1 C 4.8 km/h
3175 09-04-2020 01:30:00 10 C 6.95 g/m*3 10 C 4.8 km/h
Sensor: Nr:Datum:Temp:Abs-Feuchte:Windchill:Wind:
Aussen-T/F 3176 09-04-2020 01:35:00 10.1 C 7.19 g/m*3 10.1 C 0 km/h
3177 09-04-2020 01:40:00 10.1 C 7.19 g/m*3 10.1 C 3.2 km/h
3178 09-04-2020 01:45:00 10 C 7.14 g/m*3 10 C 1.6 km/h
3179 09-04-2020 01:50:00 10 C 7.24 g/m*3 10 C 1.6 km/h
3180 09-04-2020 01:55:00 10 C 7.24 g/m*3 10 C 0 km/h
3181 09-04-2020 02:00:00 9.8 C 7.05 g/m*3 9.8 C 0 km/h
3182 09-04-2020 02:05:00 9.7 C 7.01 g/m*3 9.7 C 0 km/h
3183 09-04-2020 02:10:00 9.6 C 6.96 g/m*3 9.6 C 0 km/h
3184 09-04-2020 02:15:00 9.5 C 7.01 g/m*3 9.5 C 0 km/h
3185 09-04-2020 02:20:00 9.4 C 6.96 g/m*3 9.4 C 0 km/h
3186 09-04-2020 02:25:00 9.4 C 7.05 g/m*3 9.4 C 0 km/h
3187 09-04-2020 02:30:00 9.3 C 7.01 g/m*3 9.3 C 0 km/h
3188 09-04-2020 02:35:00 9.3 C 7.1 g/m*3 9.3 C 0 km/h
3189 09-04-2020 02:40:00 9.2 C 6.97 g/m*3 9.2 C 0 km/h
3190 09-04-2020 02:45:00 9.2 C 6.97 g/m*3 9.2 C 0 km/h
3191 09-04-2020 02:50:00 9.2 C 7.05 g/m*3 9.2 C 0 km/h
3192 09-04-2020 02:55:00 9.3 C 7.01 g/m*3 9.3 C 0 km/h
3193 09-04-2020 03:00:00 9.4 C 7.05 g/m*3 9.4 C 0 km/h
3194 09-04-2020 03:05:00 9.5 C 7.1 g/m*3 9.5 C 0 km/h
3195 09-04-2020 03:10:00 9.6 C 7.15 g/m*3 9.6 C 4.8 km/h
3196 09-04-2020 03:15:00 9.7 C 7.1 g/m*3 9.7 C 3.2 km/h
3197 09-04-2020 03:20:00 9.7 C 7.1 g/m*3 9.7 C 3.2 km/h
3198 09-04-2020 03:25:00 9.7 C 7.19 g/m*3 9.7 C 0 km/h
3199 09-04-2020 03:30:00 9.7 C 7.19 g/m*3 9.7 C 0 km/h
3200 09-04-2020 03:35:00 9.7 C 7.19 g/m*3 9.7 C 0 km/h
Sensor: Nr:Datum:Temp:Abs-Feuchte:Windchill:Wind:
Aussen-T/F 3201 09-04-2020 03:40:00 9.7 C 7.19 g/m*3 9.7 C 3.2 km/h
3202 09-04-2020 03:45:00 9.8 C 7.33 g/m*3 8.75 C 8.1 km/h
3203 09-04-2020 03:50:00 9.8 C 7.14 g/m*3 9.8 C 3.2 km/h
3204 09-04-2020 03:55:00 9.9 C 7.19 g/m*3 9.9 C 1.6 km/h
3205 09-04-2020 04:00:00 10 C 7.33 g/m*3 10 C 0 km/h
3206 09-04-2020 04:05:00 10.1 C 7.38 g/m*3 10.1 C 0 km/h
3207 09-04-2020 04:10:00 10.1 C 7.38 g/m*3 10.1 C 3.2 km/h
3208 09-04-2020 04:15:00 10.1 C 7.38 g/m*3 9.48 C 6.4 km/h
3209 09-04-2020 04:20:00 10.2 C 7.42 g/m*3 9.22 C 8.1 km/h
3210 09-04-2020 04:25:00 10.2 C 7.42 g/m*3 9.6 C 6.4 km/h
3211 09-04-2020 04:30:00 10.1 C 7.38 g/m*3 9.48 C 6.4 km/h
3212 09-04-2020 04:35:00 10 C 7.33 g/m*3 10 C 4.8 km/h
3213 09-04-2020 04:40:00 9.9 C 7.38 g/m*3 9.9 C 1.6 km/h
3214 09-04-2020 04:45:00 9.8 C 7.33 g/m*3 9.8 C 0 km/h
3215 09-04-2020 04:50:00 9.7 C 7.28 g/m*3 9.7 C 0 km/h
3216 09-04-2020 04:55:00 9.6 C 7.24 g/m*3 9.6 C 0 km/h
3217 09-04-2020 05:00:00 9.4 C 7.15 g/m*3 9.4 C 0 km/h
3218 09-04-2020 05:05:00 9.4 C 7.15 g/m*3 9.4 C 0 km/h
3219 09-04-2020 05:10:00 9.3 C 7.19 g/m*3 9.3 C 0 km/h
3220 09-04-2020 05:15:00 9.2 C 7.14 g/m*3 9.2 C 0 km/h
3221 09-04-2020 05:20:00 9.2 C 7.14 g/m*3 9.2 C 0 km/h
3222 09-04-2020 05:25:00 9.2 C 7.14 g/m*3 9.2 C 0 km/h
3223 09-04-2020 05:30:00 9.1 C 7.1 g/m*3 9.1 C 0 km/h
3224 09-04-2020 05:35:00 9 C 7.14 g/m*3 9 C 0 km/h